Provisional Data: East Fork First Fork Sinnemahoning Creek near Logue, PA


Please select a monitoring station.
Please select start date.
Please select start date.

Toggle Unit: C/F Toggle Unit: C/F
Sample Time Temperature (C) Temperature (F) Specific Conductivity (mS/cm) pH   Turbidity (NTU+) DO (mg/L)
4/13/2022 12:00:00 AM 8.54 47.372 0.028 7.07 14.77 10.03
4/13/2022 12:15:00 AM 8.44 47.192 0.028 7.01 14.42 10.07
4/13/2022 12:30:00 AM 8.35 47.03 0.028 7.08 14.7 10.09
4/13/2022 12:45:00 AM 8.25 46.85 0.028 7.05 14.66 10.14
4/13/2022 1:00:00 AM 8.16 46.688 0.028 7.04 15.33 10.17
4/13/2022 1:15:00 AM 8.07 46.526 0.028 7.06 15.03 10.19
4/13/2022 1:30:00 AM 7.98 46.364 0.028 7.05 14.48 10.23
4/13/2022 1:45:00 AM 7.89 46.202 0.028 7.05 14.43 10.26
4/13/2022 2:00:00 AM 7.81 46.058 0.028 7.06 14.65 10.28
4/13/2022 2:15:00 AM 7.73 45.914 0.028 7.02 14.44 10.31
4/13/2022 2:30:00 AM 7.65 45.77 0.028 7.02 14.45 10.36
4/13/2022 2:45:00 AM 7.58 45.644 0.028 7.04 15.05 10.36
4/13/2022 3:00:00 AM 7.5 45.5 0.028 7.05 14.67 10.4
4/13/2022 3:15:00 AM 7.43 45.374 0.028 7.05 14.94 10.44
4/13/2022 3:30:00 AM 7.37 45.266 0.028 7.05 14.95 10.45
4/13/2022 3:45:00 AM 7.32 45.176 0.028 7.08 14.96 10.47
4/13/2022 4:00:00 AM 7.27 45.086 0.028 7.08 14.74 10.5
4/13/2022 4:15:00 AM 7.22 44.996 0.028 6.93 15.15 10.53
4/13/2022 4:30:00 AM 7.19 44.942 0.028 6.97 14.55 10.54
4/13/2022 4:45:00 AM 7.16 44.888 0.028 7.01 14.76 10.54
4/13/2022 5:00:00 AM 7.13 44.834 0.028 7.02 14.74 10.56
4/13/2022 5:15:00 AM 7.11 44.798 0.028 7 15.33 10.58
4/13/2022 5:30:00 AM 7.09 44.762 0.028 7.04 14.59 10.6
4/13/2022 5:45:00 AM 7.07 44.726 0.028 7.02 14.59 10.59
4/13/2022 6:00:00 AM 7.05 44.69 0.028 7.02 14.61 10.64
4/13/2022 6:15:00 AM 7.04 44.672 0.028 7.03 14.94 10.62
4/13/2022 6:30:00 AM 7.03 44.654 0.028 6.97 14.76 10.64
4/13/2022 6:45:00 AM 7.01 44.618 0.028 7.06 14.7 10.64
4/13/2022 7:00:00 AM 6.99 44.582 0.028 6.96 14.9 10.65
4/13/2022 7:15:00 AM 6.97 44.546 0.028 6.97 14.55 10.68
4/13/2022 7:30:00 AM 6.96 44.528 0.028 7.04 14.3 10.72
4/13/2022 7:45:00 AM 6.95 44.51 0.028 7.04 14.4 10.75
4/13/2022 8:00:00 AM 6.95 44.51 0.028 7.02 14.47 10.78
4/13/2022 8:15:00 AM 6.95 44.51 0.028 7.03 14.27 10.78
4/13/2022 8:30:00 AM 6.97 44.546 0.028 7.09 14.59 10.8
4/13/2022 8:45:00 AM 7.02 44.636 0.028 7.03 14.15 10.82
4/13/2022 9:00:00 AM 7.08 44.744 0.028 7.05 14.33 10.82
4/13/2022 9:15:00 AM 7.17 44.906 0.028 7.09 13.96 10.82
4/13/2022 9:30:00 AM 7.25 45.05 0.028 7.1 14.22 10.79
4/13/2022 9:45:00 AM 7.32 45.176 0.028 7.06 14.12 10.81
4/13/2022 10:00:00 AM 7.4 45.32 0.028 7.09 14.41 10.78
4/13/2022 10:15:00 AM 7.47 45.446 0.028 7.11 14.16 10.77
4/13/2022 10:30:00 AM 7.58 45.644 0.028 7.07 14.57 10.74
4/13/2022 10:45:00 AM 7.72 45.896 0.028 7.1 14.14 10.74
4/13/2022 11:00:00 AM 7.88 46.184 0.028 7.08 14.19 10.73
4/13/2022 11:15:00 AM 8.1 46.58 0.028 7.11 14.13 10.71
4/13/2022 11:30:00 AM 8.37 47.066 0.028 7.15 14.11 10.64
4/13/2022 11:45:00 AM 8.61 47.498 0.028 7.13 14.12 10.58
4/13/2022 12:00:00 PM 8.83 47.894 0.028 7.11 15.2 10.49
4/13/2022 12:15:00 PM 9.02 48.236 0.028 7.17 13.88 10.45
4/13/2022 12:30:00 PM 9.24 48.632 0.028 7.1 14.06 10.37
4/13/2022 12:45:00 PM 9.46 49.028 0.028 7.17 13.83 10.29
4/13/2022 1:00:00 PM 9.64 49.352 0.028 7.13 13.89 10.22
4/13/2022 1:15:00 PM 9.78 49.604 0.028 7.14 13.77 10.17
4/13/2022 1:30:00 PM 9.88 49.784 0.028 7.16 14.47 10.11
4/13/2022 1:45:00 PM 9.99 49.982 0.028 7.19 14.05 10.1
4/13/2022 2:00:00 PM 10.1 50.18 0.028 7.08 14.06 10.04
4/13/2022 2:15:00 PM 10.22 50.396 0.028 7.13 13.82 10
4/13/2022 2:30:00 PM 10.33 50.594 0.028 7.14 14.04 9.95
4/13/2022 2:45:00 PM 10.42 50.756 0.028 7.15 13.82 9.9
4/13/2022 3:00:00 PM 10.51 50.918 0.028 7.05 13.94 9.85
4/13/2022 3:15:00 PM 10.59 51.062 0.029 7.08 13.98 9.81
4/13/2022 3:30:00 PM 10.66 51.188 0.029 7.1 14.05 9.78
4/13/2022 3:45:00 PM 10.76 51.368 0.029 7.17 14.13 9.77
4/13/2022 4:00:00 PM 10.85 51.53 0.029 7.14 13.89 9.74
4/13/2022 4:15:00 PM 10.9 51.62 0.029 7.08 13.96 9.69
4/13/2022 4:30:00 PM 10.97 51.746 0.029 7.14 13.82 9.69
4/13/2022 4:45:00 PM 11.03 51.854 0.029 7.17 14.03 9.64
4/13/2022 5:00:00 PM 11.11 51.998 0.029 7.1 14.15 9.63
4/13/2022 5:15:00 PM 11.15 52.07 0.029 7.19 14.04 9.58
4/13/2022 5:30:00 PM 11.15 52.07 0.029 7.16 13.88 9.5
4/13/2022 5:45:00 PM 11.14 52.052 0.029 7.07 14.3 9.46
4/13/2022 6:00:00 PM 11.13 52.034 0.029 7.07 14.51 9.47
4/13/2022 6:15:00 PM 11.12 52.016 0.029 7.14 14.07 9.42
4/13/2022 6:30:00 PM 11.1 51.98 0.029 7.1 14.15 9.43
4/13/2022 6:45:00 PM 11.07 51.926 0.029 7.12 14.58 9.41
4/13/2022 7:00:00 PM 11.04 51.872 0.029 7.11 14.58 9.43
4/13/2022 7:15:00 PM 10.99 51.782 0.029 7.11 14.38 9.43
4/13/2022 7:30:00 PM 10.93 51.674 0.029 7.07 14.5 9.4
4/13/2022 7:45:00 PM 10.86 51.548 0.029 7.05 14.5 9.39
4/13/2022 8:00:00 PM 10.78 51.404 0.029 7.03 14.51 9.39
4/13/2022 8:15:00 PM 10.7 51.26 0.028 7.06 14.65 9.39
4/13/2022 8:30:00 PM 10.64 51.152 0.028 7.04 14.48 9.39
4/13/2022 8:45:00 PM 10.57 51.026 0.028 7.02 15.57 9.42
4/13/2022 9:00:00 PM 10.5 50.9 0.028 6.97 14.86 9.42
4/13/2022 9:15:00 PM 10.43 50.774 0.028 6.98 14.58 9.43
4/13/2022 9:30:00 PM 10.36 50.648 0.028 6.98 14.87 9.47
4/13/2022 9:45:00 PM 10.3 50.54 0.028 6.99 15.08 9.48
4/13/2022 10:00:00 PM 10.23 50.414 0.028 7 15.13 9.51
4/13/2022 10:15:00 PM 10.17 50.306 0.028 7.01 14.98 9.53
4/13/2022 10:30:00 PM 10.11 50.198 0.028 7 14.87 9.56
4/13/2022 10:45:00 PM 10.04 50.072 0.028 7 15.2 9.57
4/13/2022 11:00:00 PM 9.98 49.964 0.028 6.97 14.66 9.58
4/13/2022 11:15:00 PM 9.91 49.838 0.028 7.03 14.87 9.62
4/13/2022 11:30:00 PM 9.84 49.712 0.028 7.02 14.81 9.64
4/13/2022 11:45:00 PM 9.77 49.586 0.028 7.04 15.07 9.68
4/14/2022 12:00:00 AM 9.71 49.478 0.028 7.03 15.1 9.7
4/14/2022 12:15:00 AM 9.65 49.37 0.028 7.03 14.68 9.75
4/14/2022 12:30:00 AM 9.59 49.262 0.028 6.97 14.71 9.76
4/14/2022 12:45:00 AM 9.53 49.154 0.028 7 15.06 9.8
4/14/2022 1:00:00 AM 9.46 49.028 0.028 6.99 14.81 9.81
4/14/2022 1:15:00 AM 9.39 48.902 0.028 6.99 14.82 9.84
4/14/2022 1:30:00 AM 9.33 48.794 0.028 7.03 14.65 9.87
4/14/2022 1:45:00 AM 9.27 48.686 0.028 7 14.98 9.87
4/14/2022 2:00:00 AM 9.21 48.578 0.028 7 14.83 9.91
4/14/2022 2:15:00 AM 9.15 48.47 0.028 6.96 14.61 9.89
4/14/2022 2:30:00 AM 9.09 48.362 0.028 7 14.77 9.92
4/14/2022 2:45:00 AM 9.03 48.254 0.028 7 14.44 9.95
4/14/2022 3:00:00 AM 8.97 48.146 0.028 6.97 15.54 9.95
4/14/2022 3:15:00 AM 8.91 48.038 0.028 6.93 14.83 9.99
4/14/2022 3:30:00 AM 8.85 47.93 0.028 7.02 14.67 10
4/14/2022 3:45:00 AM 8.8 47.84 0.028 7 14.59 10.02
4/14/2022 4:00:00 AM 8.75 47.75 0.028 6.94 14.83 10.02
4/14/2022 4:15:00 AM 8.7 47.66 0.028 7.01 14.85 10.04
4/14/2022 4:30:00 AM 8.65 47.57 0.028 7.01 14.67 10.06
4/14/2022 4:45:00 AM 8.6 47.48 0.028 7.01 14.79 10.07
4/14/2022 5:00:00 AM 8.55 47.39 0.028 6.93 14.53 10.09
4/14/2022 5:15:00 AM 8.5 47.3 0.028 6.94 14.49 10.08
4/14/2022 5:30:00 AM 8.45 47.21 0.028 6.95 14.95 10.11
4/14/2022 5:45:00 AM 8.41 47.138 0.028 6.93 15.11 10.11
4/14/2022 6:00:00 AM 8.36 47.048 0.028 6.95 15.33 10.13
4/14/2022 6:15:00 AM 8.31 46.958 0.028 7.01 14.77 10.15
4/14/2022 6:30:00 AM 8.27 46.886 0.028 7.35 15.53 10.18
4/14/2022 6:45:00 AM 8.23 46.814 0.028 6.95 15.29 10.07
4/14/2022 7:00:00 AM 8.19 46.742 0.028 7 14.84 10.08
4/14/2022 7:15:00 AM 8.15 46.67 0.028 6.98 15.22 10.13
4/14/2022 7:30:00 AM 8.12 46.616 0.028 7.02 15.04 10.16
4/14/2022 7:45:00 AM 8.11 46.598 0.029 6.98 15.74 10.19
4/14/2022 8:00:00 AM 8.1 46.58 0.029 6.97 14.76 10.21
4/14/2022 8:15:00 AM 8.13 46.634 0.029 6.99 14.91 10.24
4/14/2022 8:30:00 AM 8.18 46.724 0.029 7.01 14.64 10.26
4/14/2022 8:45:00 AM 8.27 46.886 0.029 7.06 14.53 10.25
4/14/2022 9:00:00 AM 8.4 47.12 0.029 6.96 14.45 10.23
4/14/2022 9:15:00 AM 8.56 47.408 0.029 7.05 14.68 10.24
4/14/2022 9:30:00 AM 8.7 47.66 0.029 7.08 14.71 10.18
4/14/2022 9:45:00 AM 8.85 47.93 0.029 7.08 14.57 10.17
4/14/2022 10:00:00 AM 9.03 48.254 0.029 7.1 14.51 10.17
4/14/2022 10:15:00 AM 9.21 48.578 0.029 7.1 14.99 10.11
4/14/2022 10:30:00 AM 9.35 48.83 0.029 7.1 14.8 10.06
4/14/2022 10:45:00 AM 9.52 49.136 0.029 7.11 14.95 10.05
4/14/2022 11:00:00 AM 9.61 49.298 0.029 7.11 14.75 10
4/14/2022 11:15:00 AM 9.7 49.46 0.029 7.1 14.72 9.95
4/14/2022 11:30:00 AM 9.79 49.622 0.029 7.15 14.89 9.92
4/14/2022 11:45:00 AM 9.82 49.676 0.029 7.11 15.07 9.86
4/14/2022 12:00:00 PM 9.88 49.784 0.029 7.11 14.95 9.89
4/14/2022 12:15:00 PM 9.92 49.856 0.029 7.08 15 9.82
4/14/2022 12:30:00 PM 9.94 49.892 0.029 7.08 14.7 9.84
4/14/2022 12:45:00 PM 9.93 49.874 0.029 7.1 15.44 9.86
4/14/2022 1:00:00 PM 9.93 49.874 0.029 7.15 14.97 9.86
4/14/2022 1:15:00 PM 9.94 49.892 0.029 7.15 14.7 9.94
4/14/2022 1:30:00 PM 9.96 49.928 0.029 7.09 14.76 9.94
4/14/2022 1:45:00 PM 9.97 49.946 0.029 7.13 14.99 9.91
4/14/2022 2:00:00 PM 9.98 49.964 0.029 7.14 14.79 9.9
4/14/2022 2:15:00 PM 10.02 50.036 0.029 7.13 14.75 9.95
4/14/2022 2:30:00 PM 10.04 50.072 0.029 7.16 15.38 9.98
4/14/2022 2:45:00 PM 10.05 50.09 0.029 7.13 15.2 9.9
4/14/2022 3:00:00 PM 10.09 50.162 0.029 7.14 14.69 9.93
4/14/2022 3:15:00 PM 10.14 50.252 0.029 7.16 14.63 9.93
4/14/2022 3:30:00 PM 10.27 50.486 0.029 7.16 14.95 9.89
4/14/2022 3:45:00 PM 10.33 50.594 0.029 7.19 15.16 9.87
4/14/2022 4:00:00 PM 10.39 50.702 0.029 7.12 14.91 9.84
4/14/2022 4:15:00 PM 10.47 50.846 0.029 7.15 15.56 9.81
4/14/2022 4:30:00 PM 10.52 50.936 0.029 7.11 14.89 9.81
4/14/2022 4:45:00 PM 10.56 51.008 0.029 7.13 15.08 9.79
4/14/2022 5:00:00 PM 10.55 50.99 0.029 7.12 16.02 9.78
4/14/2022 5:15:00 PM 10.5 50.9 0.029 7.13 15.43 9.74
4/14/2022 5:30:00 PM 10.44 50.792 0.029 7.1 15.08 9.74
4/14/2022 5:45:00 PM 10.39 50.702 0.029 7.11 15.32 9.79
4/14/2022 6:00:00 PM 10.31 50.558 0.029 7.11 14.79 9.74
4/14/2022 6:15:00 PM 10.21 50.378 0.029 7.09 16.29 9.78
4/14/2022 6:30:00 PM 10.1 50.18 0.029 7.16 15.58 9.78
4/14/2022 6:45:00 PM 9.99 49.982 0.029 7.15 14.92 9.77
4/14/2022 7:00:00 PM 9.86 49.748 0.029 7.13 14.94 9.78
4/14/2022 7:15:00 PM 9.74 49.532 0.029 7.07 15.07 9.79
4/14/2022 7:30:00 PM 9.61 49.298 0.029 7.09 14.92 9.82
4/14/2022 7:45:00 PM 9.47 49.046 0.029 7.1 15.22 9.83
4/14/2022 8:00:00 PM 9.34 48.812 0.029 7.08 15.11 9.84
4/14/2022 8:15:00 PM 9.22 48.596 0.029 7.04 15.16 9.87
4/14/2022 8:30:00 PM 9.09 48.362 0.029 7.03 14.96 9.89
4/14/2022 8:45:00 PM 8.97 48.146 0.029 7.02 15.25 9.93
4/14/2022 9:00:00 PM 8.86 47.948 0.029 7.04 15.24 9.95
4/14/2022 9:15:00 PM 8.74 47.732 0.029 7.04 14.88 9.99
4/14/2022 9:30:00 PM 8.63 47.534 0.029 6.98 15.09 10.01
4/14/2022 9:45:00 PM 8.51 47.318 0.029 7.03 16.24 10.06
4/14/2022 10:00:00 PM 8.4 47.12 0.028 7 15.18 10.1
4/14/2022 10:15:00 PM 8.29 46.922 0.028 6.99 16.41 10.14
4/14/2022 10:30:00 PM 8.18 46.724 0.028 6.99 15.1 10.17
4/14/2022 10:45:00 PM 8.07 46.526 0.028 7 15.61 10.23
4/14/2022 11:00:00 PM 7.97 46.346 0.028 7 15.35 10.27
4/14/2022 11:15:00 PM 7.86 46.148 0.028 6.98 15.24 10.3
4/14/2022 11:30:00 PM 7.76 45.968 0.028 6.98 15.35 10.34
4/14/2022 11:45:00 PM 7.65 45.77 0.028 6.99 15.89 10.38
4/15/2022 12:00:00 AM 7.55 45.59 0.028 7.04 15.31 10.43
4/15/2022 12:15:00 AM 7.45 45.41 0.028 6.98 16.51 10.48
4/15/2022 12:30:00 AM 7.36 45.248 0.028 7.05 15.3 10.52
4/15/2022 12:45:00 AM 7.26 45.068 0.028 7.03 15.04 10.54
4/15/2022 1:00:00 AM 7.17 44.906 0.028 7.01 15.05 10.59
4/15/2022 1:15:00 AM 7.08 44.744 0.028 7.02 15 10.63
4/15/2022 1:30:00 AM 6.99 44.582 0.028 7.02 15.33 10.67
4/15/2022 1:45:00 AM 6.91 44.438 0.028 6.99 15.32 10.69
4/15/2022 2:00:00 AM 6.82 44.276 0.028 6.99 15.14 10.72
4/15/2022 2:15:00 AM 6.74 44.132 0.028 6.99 15.6 10.75
4/15/2022 2:30:00 AM 6.66 43.988 0.028 7 15.13 10.78
4/15/2022 2:45:00 AM 6.58 43.844 0.028 6.98 15.77 10.82
4/15/2022 3:00:00 AM 6.5 43.7 0.028 7.01 15.1 10.86
4/15/2022 3:15:00 AM 6.43 43.574 0.028 7.03 15.58 10.9
4/15/2022 3:30:00 AM 6.35 43.43 0.028 7.04 15.4 10.94
4/15/2022 3:45:00 AM 6.28 43.304 0.028 7 15.13 10.95
4/15/2022 4:00:00 AM 6.21 43.178 0.028 6.98 15.44 10.99
4/15/2022 4:15:00 AM 6.14 43.052 0.028 7.01 15.23 10.98
4/15/2022 4:30:00 AM 6.07 42.926 0.028 7.02 15.4 10.99
4/15/2022 4:45:00 AM 6.01 42.818 0.028 7.02 15.23 11.01
4/15/2022 5:00:00 AM 5.94 42.692 0.028 7.06 15.24 11.03
4/15/2022 5:15:00 AM 5.88 42.584 0.028 6.96 15.63 11.05
4/15/2022 5:30:00 AM 5.82 42.476 0.028 6.86 15.12 11.09
4/15/2022 5:45:00 AM 5.76 42.368 0.028 7.05 15.7 11.11
4/15/2022 6:00:00 AM 5.71 42.278 0.028 7.06 15.41 11.14
4/15/2022 6:15:00 AM 5.65 42.17 0.028 7.07 15.51 11.18
4/15/2022 6:30:00 AM 5.6 42.08 0.028 7.07 16.11 11.19
4/15/2022 6:45:00 AM 5.54 41.972 0.028 6.99 16.11 11.22
4/15/2022 7:00:00 AM 5.5 41.9 0.028 7 15.34 11.25
4/15/2022 7:15:00 AM 5.45 41.81 0.028 7.08 15.67 11.28
4/15/2022 7:30:00 AM 5.41 41.738 0.028 7.09 15.49 11.32
4/15/2022 7:45:00 AM 5.38 41.684 0.028 6.97 15.71 11.36
4/15/2022 8:00:00 AM 5.35 41.63 0.028 7 15.49 11.39
4/15/2022 8:15:00 AM 5.34 41.612 0.028 6.97 15.82 11.42
4/15/2022 8:30:00 AM 5.34 41.612 0.028 6.95 15.69 11.45
4/15/2022 8:45:00 AM 5.36 41.648 0.028 6.89 15.43 11.5
4/15/2022 9:00:00 AM 5.4 41.72 0.028 7.02 15.56 11.51
4/15/2022 9:15:00 AM 5.46 41.828 0.028 7 15.6 11.51
4/15/2022 9:30:00 AM 5.55 41.99 0.028 6.98 15.35 11.5
4/15/2022 9:45:00 AM 5.65 42.17 0.028 7.12 15.33 11.5
4/15/2022 10:00:00 AM 5.78 42.404 0.028 7.11 15.71 11.5
4/15/2022 10:15:00 AM 5.93 42.674 0.028 7.13 16.01 11.44
4/15/2022 10:30:00 AM 6.1 42.98 0.028 7.1 16.33 11.41
4/15/2022 10:45:00 AM 6.3 43.34 0.028 7.13 15.65 11.36
4/15/2022 11:00:00 AM 6.52 43.736 0.028 7.05 15.55 11.3
4/15/2022 11:15:00 AM 6.75 44.15 0.029 7.07 15.22 11.24
4/15/2022 11:30:00 AM 6.98 44.564 0.028 7.14 15.51 11.17
4/15/2022 11:45:00 AM 7.22 44.996 0.029 7.19 15.07 11.12
4/15/2022 12:00:00 PM 7.47 45.446 0.029 7.07 15.4 11.06
4/15/2022 12:15:00 PM 7.71 45.878 0.029 7.15 15.13 10.97
4/15/2022 12:30:00 PM 7.95 46.31 0.029 7.17 15.21 10.88
4/15/2022 12:45:00 PM 8.11 46.598 0.029 7.09 14.97 10.8
4/15/2022 1:00:00 PM 8.27 46.886 0.029 7.18 15.24 10.78
4/15/2022 1:15:00 PM 8.46 47.228 0.029 7.19 14.94 10.7
4/15/2022 1:30:00 PM 8.63 47.534 0.029 7.18 15.03 10.68
4/15/2022 1:45:00 PM 8.82 47.876 0.029 7.15 15.25 10.6
4/15/2022 2:00:00 PM 8.95 48.11 0.029 7.16 15.31 10.53
4/15/2022 2:15:00 PM 9.11 48.398 0.029 7.17 15.4 10.49
4/15/2022 2:30:00 PM 9.22 48.596 0.029 7.18 15.77 10.44
4/15/2022 2:45:00 PM 9.37 48.866 0.029 7.19 15.2 10.4
4/15/2022 3:00:00 PM 9.55 49.19 0.029 7.2 15.03 10.35
4/15/2022 3:15:00 PM 9.7 49.46 0.029 7.07 15.24 10.27
4/15/2022 3:30:00 PM 9.8 49.64 0.029 7.17 15.05 10.22
4/15/2022 3:45:00 PM 9.85 49.73 0.029 7.13 15.11 10.18
4/15/2022 4:00:00 PM 9.84 49.712 0.029 7.07 15.22 10.16
4/15/2022 4:15:00 PM 9.81 49.658 0.029 7.03 16.29 10.16
4/15/2022 4:30:00 PM 9.87 49.766 0.029 7.12 14.82 10.16
4/15/2022 4:45:00 PM 9.9 49.82 0.029 7.11 15.09 10.14
4/15/2022 5:00:00 PM 9.95 49.91 0.029 7.2 15.14 10.13
4/15/2022 5:15:00 PM 9.92 49.856 0.029 7.02 15.35 10.08
4/15/2022 5:30:00 PM 9.9 49.82 0.029 7.2 15.34 10.08
4/15/2022 5:45:00 PM 9.88 49.784 0.029 7.18 15.9 10.06
4/15/2022 6:00:00 PM 9.89 49.802 0.029 7.19 15.59 10.05
4/15/2022 6:15:00 PM 9.88 49.784 0.029 7.17 15.33 10.04
4/15/2022 6:30:00 PM 9.83 49.694 0.029 7.19 15.51 10
4/15/2022 6:45:00 PM 9.75 49.55 0.029 7.15 15.19 10.03
4/15/2022 7:00:00 PM 9.67 49.406 0.029 7.12 16.12 10.03
4/15/2022 7:15:00 PM 9.61 49.298 0.029 7.15 15.49 10.03
4/15/2022 7:30:00 PM 9.56 49.208 0.029 7.13 15.67 10.01
4/15/2022 7:45:00 PM 9.5 49.1 0.029 7.13 15.61 10.02
4/15/2022 8:00:00 PM 9.44 48.992 0.029 7.11 15.44 10
4/15/2022 8:15:00 PM 9.37 48.866 0.029 7.03 15.67 10.01
4/15/2022 8:30:00 PM 9.31 48.758 0.029 7.1 15.58 10.04
4/15/2022 8:45:00 PM 9.25 48.65 0.029 7.07 15.65 10.03
4/15/2022 9:00:00 PM 9.2 48.56 0.029 6.97 15.35 10.03
4/15/2022 9:15:00 PM 9.14 48.452 0.029 6.99 15.48 10.03
4/15/2022 9:30:00 PM 9.07 48.326 0.029 7.04 15.7 10.05
4/15/2022 9:45:00 PM 8.99 48.182 0.029 7.03 15.94 10.06
4/15/2022 10:00:00 PM 8.92 48.056 0.029 7.06 15.66 10.09
4/15/2022 10:15:00 PM 8.86 47.948 0.029 7.02 15.42 10.09
4/15/2022 10:30:00 PM 8.79 47.822 0.029 7.05 16.24 10.14
4/15/2022 10:45:00 PM 8.73 47.714 0.029 7.04 15.47 10.14
4/15/2022 11:00:00 PM 8.68 47.624 0.029 6.99 15.72 10.18
4/15/2022 11:15:00 PM 8.62 47.516 0.029 7.06 16.03 10.19
4/15/2022 11:30:00 PM 8.58 47.444 0.029 7.09 15.64 10.21
4/15/2022 11:45:00 PM 8.54 47.372 0.029 7.08 15.5 10.22
4/16/2022 12:00:00 AM 8.5 47.3 0.029 7.1 15.42 10.26
4/16/2022 12:15:00 AM 8.46 47.228 0.029 6.93 15.4 10.23
4/16/2022 12:30:00 AM 8.42 47.156 0.029 7 15.27 10.25
4/16/2022 12:45:00 AM 8.38 47.084 0.029 7.06 15.32 10.25
4/16/2022 1:00:00 AM 8.34 47.012 0.029 7.1 15.4 10.26
4/16/2022 1:15:00 AM 8.3 46.94 0.029 7.06 15.39 10.27
4/16/2022 1:30:00 AM 8.25 46.85 0.029 7.09 15.35 10.28
4/16/2022 1:45:00 AM 8.22 46.796 0.029 7.1 15.49 10.32
4/16/2022 2:00:00 AM 8.18 46.724 0.029 7.09 16.19 10.34
4/16/2022 2:15:00 AM 8.15 46.67 0.029 7 16.04 10.36
4/16/2022 2:30:00 AM 8.11 46.598 0.029 7 15.63 10.38
4/16/2022 2:45:00 AM 8.08 46.544 0.029 7.07 15.7 10.4
4/16/2022 3:00:00 AM 8.05 46.49 0.029 7.01 15.41 10.42
4/16/2022 3:15:00 AM 8.03 46.454 0.029 7.06 15.38 10.44
4/16/2022 3:30:00 AM 8 46.4 0.029 7.02 15.52 10.44
4/16/2022 3:45:00 AM 7.97 46.346 0.029 7.03 15.74 10.44
4/16/2022 4:00:00 AM 7.94 46.292 0.029 6.98 15.41 10.47
4/16/2022 4:15:00 AM 7.92 46.256 0.029 7.03 15.75 10.47
4/16/2022 4:30:00 AM 7.89 46.202 0.029 7.09 15.47 10.48
4/16/2022 4:45:00 AM 7.87 46.166 0.029 6.95 15.62 10.5
4/16/2022 5:00:00 AM 7.84 46.112 0.029 7.02 16.11 10.5
4/16/2022 5:15:00 AM 7.82 46.076 0.029 6.99 15.86 10.52
4/16/2022 5:30:00 AM 7.8 46.04 0.029 7.02 15.7 10.52
4/16/2022 5:45:00 AM 7.78 46.004 0.029 7.05 15.87 10.52
4/16/2022 6:00:00 AM 7.76 45.968 0.029 7.08 16.85 10.54
4/16/2022 6:15:00 AM 7.74 45.932 0.029 7.06 15.75 10.54
4/16/2022 6:30:00 AM 7.72 45.896 0.029 7.06 15.66 10.55
4/16/2022 6:45:00 AM 7.71 45.878 0.029 7.06 15.86 10.54
4/16/2022 7:00:00 AM 7.7 45.86 0.029 6.99 15.48 10.54
4/16/2022 7:15:00 AM 7.69 45.842 0.029 7.06 15.65 10.58
4/16/2022 7:30:00 AM 7.69 45.842 0.029 7.07 15.71 10.59
4/16/2022 7:45:00 AM 7.7 45.86 0.029 7.1 15.53 10.65
4/16/2022 8:00:00 AM 7.71 45.878 0.029 7.14 15.64 10.68
4/16/2022 8:15:00 AM 7.73 45.914 0.029 7.05 15.37 10.67
4/16/2022 8:30:00 AM 7.74 45.932 0.029 7.15 15.88 10.69
4/16/2022 8:45:00 AM 7.77 45.986 0.029 7.13 15.38 10.71
4/16/2022 9:00:00 AM 7.79 46.022 0.029 7.08 15.28 10.72
4/16/2022 9:15:00 AM 7.81 46.058 0.029 7.15 25.38 10.72
4/16/2022 9:30:00 AM 7.85 46.13 0.029 7.17 15.31 10.72
4/16/2022 9:45:00 AM 7.89 46.202 0.029 7.16 16.71 10.72
4/16/2022 10:00:00 AM 7.92 46.256 0.029 7.12 15.31 10.71
4/16/2022 10:15:00 AM 7.95 46.31 0.029 7.16 15.62 10.7
4/16/2022 10:30:00 AM 7.97 46.346 0.03 7.14 15.27 10.68
4/16/2022 10:45:00 AM 8 46.4 0.03 7.11 15.47 10.68
4/16/2022 11:00:00 AM 8.01 46.418 0.03 7.05 15.74 10.66
4/16/2022 11:15:00 AM 8.02 46.436 0.03 7.08 15.25 10.63
4/16/2022 11:30:00 AM 8.04 46.472 0.03 7.07 15.72 10.62
4/16/2022 11:45:00 AM 8.05 46.49 0.03 7.07 15.44 10.62
4/16/2022 12:00:00 PM 8.05 46.49 0.03 7.06 15.65 10.6
4/16/2022 12:15:00 PM 8.05 46.49 0.03 7.07 15.49 10.61
4/16/2022 12:30:00 PM 8.04 46.472 0.03 7.11 15.49 10.64
4/16/2022 12:45:00 PM 8.03 46.454 0.03 7.09 15.49 10.63
4/16/2022 1:00:00 PM 8.01 46.418 0.03 7.08 15.57 10.65
4/16/2022 1:15:00 PM 7.99 46.382 0.03 7.1 15.57 10.65
4/16/2022 1:30:00 PM 7.97 46.346 0.03 7.05 15.65 10.67
4/16/2022 1:45:00 PM 7.96 46.328 0.03 7.13 15.82 10.69
4/16/2022 2:00:00 PM 7.95 46.31 0.03 7.08 15.6 10.7
4/16/2022 2:15:00 PM 7.96 46.328 0.03 6.99 15.65 10.71
4/16/2022 2:30:00 PM 7.97 46.346 0.03 7.03 15.87 10.72
4/16/2022 2:45:00 PM 7.97 46.346 0.03 7.13 15.75 10.72
4/16/2022 3:00:00 PM 7.96 46.328 0.03 7.12 16.89 10.7
4/16/2022 3:15:00 PM 7.93 46.274 0.03 6.84 16.31 10.7
4/16/2022 3:30:00 PM 7.91 46.238 0.03 7.05 16.06 10.69
4/16/2022 3:45:00 PM 7.88 46.184 0.03 7.07 16.38 10.7
4/16/2022 4:00:00 PM 7.87 46.166 0.03 7.13 16.38 10.72
4/16/2022 4:15:00 PM 7.86 46.148 0.03 7.1 16.44 10.72
4/16/2022 4:30:00 PM 7.85 46.13 0.03 7.11 16.19 10.72
4/16/2022 4:45:00 PM 7.83 46.094 0.03 7.14 16.44 10.74
4/16/2022 5:00:00 PM 7.82 46.076 0.03 7.14 16.2 10.75
4/16/2022 5:15:00 PM 7.79 46.022 0.03 7.16 16.32 10.76
4/16/2022 5:30:00 PM 7.78 46.004 0.03 7.14 16.3 10.76
4/16/2022 5:45:00 PM 7.78 46.004 0.03 7.08 15.96 10.77
4/16/2022 6:00:00 PM 7.78 46.004 0.03 7.08 16.02 10.78
4/16/2022 6:15:00 PM 7.79 46.022 0.03 7.05 16.01 10.78
4/16/2022 6:30:00 PM 7.78 46.004 0.03 7.14 15.89 10.75
4/16/2022 6:45:00 PM 7.76 45.968 0.03 7.05 16.01 10.74
4/16/2022 7:00:00 PM 7.73 45.914 0.03 7.13 16.1 10.72
4/16/2022 7:15:00 PM 7.7 45.86 0.03 7.1 15.8 10.73
4/16/2022 7:30:00 PM 7.65 45.77 0.03 7.03 15.89 10.72
4/16/2022 7:45:00 PM 7.6 45.68 0.03 7.08 16.09 10.7
4/16/2022 8:00:00 PM 7.55 45.59 0.03 7.06 15.48 10.7
4/16/2022 8:15:00 PM 7.49 45.482 0.03 7.07 15.7 10.7
4/16/2022 8:30:00 PM 7.42 45.356 0.03 7.04 15.63 10.7
4/16/2022 8:45:00 PM 7.36 45.248 0.03 7.05 16.12 10.7
4/16/2022 9:00:00 PM 7.29 45.122 0.03 7.08 16.01 10.7
4/16/2022 9:15:00 PM 7.22 44.996 0.03 7.04 15.95 10.72
4/16/2022 9:30:00 PM 7.15 44.87 0.03 7.06 15.48 10.74
4/16/2022 9:45:00 PM 7.08 44.744 0.03 7.08 15.56 10.76
4/16/2022 10:00:00 PM 7.01 44.618 0.03 7.09 15.46 10.78
4/16/2022 10:15:00 PM 6.94 44.492 0.03 6.84 15.53 10.8
4/16/2022 10:30:00 PM 6.87 44.366 0.03 6.96 15.7 10.82
4/16/2022 10:45:00 PM 6.79 44.222 0.03 7.09 15.52 10.85
4/16/2022 11:00:00 PM 6.72 44.096 0.03 6.86 15.81 10.88
4/16/2022 11:15:00 PM 6.66 43.988 0.03 7.05 15.55 10.9
4/16/2022 11:30:00 PM 6.59 43.862 0.03 7.05 15.55 10.92
4/16/2022 11:45:00 PM 6.53 43.754 0.03 7 15.61 10.95
4/17/2022 12:00:00 AM 6.47 43.646 0.03 7.05 15.54 10.97
4/17/2022 12:15:00 AM 6.41 43.538 0.03 7.03 15.4 11
4/17/2022 12:30:00 AM 6.35 43.43 0.03 7.02 15.39 11
4/17/2022 12:45:00 AM 6.29 43.322 0.03 7.08 15.45 11.03
4/17/2022 1:00:00 AM 6.24 43.232 0.03 7.04 15.59 11.05
4/17/2022 1:15:00 AM 6.19 43.142 0.03 6.96 15.43 11.08
4/17/2022 1:30:00 AM 6.14 43.052 0.03 7.05 15.59 11.1
4/17/2022 1:45:00 AM 6.1 42.98 0.03 7.08 15.22 11.11
4/17/2022 2:00:00 AM 6.06 42.908 0.03 7.09 15.34 11.12
4/17/2022 2:15:00 AM 6.03 42.854 0.03 7.09 15.61 11.14
4/17/2022 2:30:00 AM 5.98 42.764 0.03 7.09 15.44 11.15
4/17/2022 2:45:00 AM 5.94 42.692 0.03 6.98 15.28 11.16
4/17/2022 3:00:00 AM 5.88 42.584 0.03 6.97 15.36 11.18
4/17/2022 3:15:00 AM 5.82 42.476 0.03 7.08 15.86 11.2
4/17/2022 3:30:00 AM 5.78 42.404 0.03 7.08 15.71 11.22
4/17/2022 3:45:00 AM 5.74 42.332 0.03 7.1 15.92 11.22
4/17/2022 4:00:00 AM 5.71 42.278 0.03 7.08 15.59 11.23
4/17/2022 4:15:00 AM 5.69 42.242 0.03 7.09 15.48 11.27
4/17/2022 4:30:00 AM 5.66 42.188 0.03 7.04 15.18 11.27
4/17/2022 4:45:00 AM 5.64 42.152 0.03 7.06 15.34 11.28
4/17/2022 5:00:00 AM 5.61 42.098 0.03 7.1 15.1 11.3
4/17/2022 5:15:00 AM 5.59 42.062 0.03 6.96 15.45 11.3
4/17/2022 5:30:00 AM 5.57 42.026 0.03 7.02 15.41 11.32
4/17/2022 5:45:00 AM 5.55 41.99 0.03 6.98 15.82 11.33
4/17/2022 6:00:00 AM 5.53 41.954 0.03 6.97 15.3 11.34
4/17/2022 6:15:00 AM 5.51 41.918 0.03 6.99 15.43 11.34
4/17/2022 6:30:00 AM 5.49 41.882 0.03 7.01 15.45 11.35
4/17/2022 6:45:00 AM 5.47 41.846 0.03 7.05 15.4 11.37
4/17/2022 7:00:00 AM 5.45 41.81 0.03 7.06 15.64 11.37
4/17/2022 7:15:00 AM 5.44 41.792 0.03 7.06 15.66 11.41
4/17/2022 7:30:00 AM 5.42 41.756 0.03 6.98 15.21 11.44
4/17/2022 7:45:00 AM 5.4 41.72 0.03 7.09 15.35 11.46
4/17/2022 8:00:00 AM 5.36 41.648 0.03 7.12 15.17 11.5
4/17/2022 8:15:00 AM 5.36 41.648 0.03 7.09 15.5 11.53
4/17/2022 8:30:00 AM 5.37 41.666 0.03 7.13 16.77 11.56
4/17/2022 8:45:00 AM 5.33 41.594 0.03 7.07 16.38 11.58
4/17/2022 9:00:00 AM 5.34 41.612 0.03 7.09 16.94 11.59
4/17/2022 9:15:00 AM 5.38 41.684 0.03 7.11 17.03 11.62
4/17/2022 9:30:00 AM 5.42 41.756 0.03 7.13 16.98 11.65
4/17/2022 9:45:00 AM 5.44 41.792 0.03 7.12 16.88 11.64
4/17/2022 10:00:00 AM 5.49 41.882 0.03 7.14 16.47 11.67
4/17/2022 10:15:00 AM 5.51 41.918 0.03 7.12 16.43 11.65
4/17/2022 10:30:00 AM 5.52 41.936 0.03 7.13 17.32 11.68
4/17/2022 10:45:00 AM 5.64 42.152 0.03 7.12 17.44 11.67
4/17/2022 11:00:00 AM 5.74 42.332 0.03 7.06 17.57 11.61
4/17/2022 11:15:00 AM 5.79 42.422 0.03 7.14 17.66 11.62
4/17/2022 11:30:00 AM 5.84 42.512 0.03 7.14 17.55 11.6
4/17/2022 11:45:00 AM 5.99 42.782 0.03 7.13 17.4 11.6
4/17/2022 12:00:00 PM 6.08 42.944 0.03 7.15 17.57 11.55
4/17/2022 12:15:00 PM 6.16 43.088 0.03 7.05 17.76 11.53
4/17/2022 12:30:00 PM 6.25 43.25 0.03 7.08 17.9 11.47
4/17/2022 12:45:00 PM 6.26 43.268 0.03 7.16 17.88 11.46
4/17/2022 1:00:00 PM 6.3 43.34 0.03 7.13 18.08 11.46
4/17/2022 1:15:00 PM 6.41 43.538 0.03 7.15 19.1 11.46
4/17/2022 1:30:00 PM 6.61 43.898 0.03 7.16 18.92 11.4
4/17/2022 1:45:00 PM 6.76 44.168 0.03 7.17 17.97 11.37
4/17/2022 2:00:00 PM 7 44.6 0.03 7.18 17.72 11.33
4/17/2022 2:15:00 PM 7.1 44.78 0.03 7.2 17.79 11.26
4/17/2022 2:30:00 PM 7.2 44.96 0.03 7.04 17.79 11.21
4/17/2022 2:45:00 PM 7.31 45.158 0.03 7.17 18.05 11.18
4/17/2022 3:00:00 PM 7.45 45.41 0.03 7.14 18.35 11.12
4/17/2022 3:15:00 PM 7.62 45.716 0.03 7.18 17.93 11.11
4/17/2022 3:30:00 PM 7.79 46.022 0.03 7.18 17.77 11.04
4/17/2022 3:45:00 PM 8.01 46.418 0.03 7.14 17.88 10.99
4/17/2022 4:00:00 PM 8.19 46.742 0.03 7.2 17.99 10.92
4/17/2022 4:15:00 PM 8.31 46.958 0.03 7.2 17.74 10.85
4/17/2022 4:30:00 PM 8.34 47.012 0.03 7.18 18.52 10.79
4/17/2022 4:45:00 PM 8.35 47.03 0.03 7.18 18.02 10.76
4/17/2022 5:00:00 PM 8.3 46.94 0.03 7.14 18.08 10.73
4/17/2022 5:15:00 PM 8.23 46.814 0.03 7.17 17.93 10.73
4/17/2022 5:30:00 PM 8.15 46.67 0.03 7.19 18.44 10.76
4/17/2022 5:45:00 PM 8.13 46.634 0.031 7.18 17.7 10.76
4/17/2022 6:00:00 PM 8.07 46.526 0.031 7.19 13.96 10.74
4/17/2022 6:15:00 PM 8.02 46.436 0.031 7.2 30.28 10.74
4/17/2022 6:30:00 PM 7.94 46.292 0.031 7.14 25.59 10.73
4/17/2022 6:45:00 PM 7.84 46.112 0.031 7.19 1.99 10.75
4/17/2022 7:00:00 PM 7.74 45.932 0.031 7.01 8.08 10.76
4/17/2022 7:15:00 PM 7.64 45.752 0.031 7.06 9.28 10.79
4/17/2022 7:30:00 PM 7.52 45.536 0.031 7.05 9.69 10.77
4/17/2022 7:45:00 PM 7.41 45.338 0.031 7.07 9.64 10.79
4/17/2022 8:00:00 PM 7.28 45.104 0.031 7.15 9.58 10.78
4/17/2022 8:15:00 PM 7.17 44.906 0.031 7.12 9.41 10.79
4/17/2022 8:30:00 PM 7.07 44.726 0.031 7.1 9.55 10.81
4/17/2022 8:45:00 PM 6.97 44.546 0.031 6.98 9.56 10.83
4/17/2022 9:00:00 PM 6.87 44.366 0.031 7.09 9.89 10.86
4/17/2022 9:15:00 PM 6.76 44.168 0.031 6.99 9.67 10.88
4/17/2022 9:30:00 PM 6.66 43.988 0.031 7.1 9.28 10.92
4/17/2022 9:45:00 PM 6.56 43.808 0.031 6.84 9.56 10.97
4/17/2022 10:00:00 PM 6.46 43.628 0.031 7.09 9.41 10.98
4/17/2022 10:15:00 PM 6.36 43.448 0.031 7.07 9.3 11.03
4/17/2022 10:30:00 PM 6.27 43.286 0.031 6.98 9.54 11.05
4/17/2022 10:45:00 PM 6.18 43.124 0.031 7.05 9.55 11.08
4/17/2022 11:00:00 PM 6.09 42.962 0.031 7.03 9.55 11.12
4/17/2022 11:15:00 PM 6 42.8 0.031 7 9.51 11.16
4/17/2022 11:30:00 PM 5.9 42.62 0.031 7.03 9.54 11.2
4/17/2022 11:45:00 PM 5.81 42.458 0.031 6.99 9.73 11.21
4/18/2022 12:00:00 AM 5.72 42.296 0.031 7.05 9.59 11.26
4/18/2022 12:15:00 AM 5.63 42.134 0.031 7 9.55 11.26
4/18/2022 12:30:00 AM 5.55 41.99 0.031 7.05 9.62 11.31
4/18/2022 12:45:00 AM 5.46 41.828 0.031 6.97 9.36 11.33
4/18/2022 1:00:00 AM 5.38 41.684 0.031 7.03 9.54 11.38
4/18/2022 1:15:00 AM 5.3 41.54 0.031 6.98 9.21 11.4
4/18/2022 1:30:00 AM 5.22 41.396 0.031 7.07 9.49 11.39
4/18/2022 1:45:00 AM 5.14 41.252 0.031 7 9.82 11.42
4/18/2022 2:00:00 AM 5.07 41.126 0.031 7.04 9.37 11.43
4/18/2022 2:15:00 AM 5 41 0.031 7.02 9.31 11.42
4/18/2022 2:30:00 AM 4.93 40.874 0.031 7.03 9.84 11.44
4/18/2022 2:45:00 AM 4.86 40.748 0.031 6.99 9.75 11.47
4/18/2022 3:00:00 AM 4.79 40.622 0.031 7.07 9.92 11.49
4/18/2022 3:15:00 AM 4.73 40.514 0.031 7.05 18.72 11.52
4/18/2022 3:30:00 AM 4.66 40.388 0.031 7 18.62 11.54
4/18/2022 3:45:00 AM 4.6 40.28 0.031 6.99 17.01 11.53
4/18/2022 4:00:00 AM 4.53 40.154 0.031 6.99 15.42 11.57
4/18/2022 4:15:00 AM 4.47 40.046 0.031 6.99 15.58 11.61
4/18/2022 4:30:00 AM 4.41 39.938 0.031 7.05 15.17 11.62
4/18/2022 4:45:00 AM 4.35 39.83 0.031 6.97 15.08 11.67
4/18/2022 5:00:00 AM 4.3 39.74 0.031 7.03 15.04 11.67
4/18/2022 5:15:00 AM 4.24 39.632 0.031 7.07 18.89 11.7
4/18/2022 5:30:00 AM 4.19 39.542 0.031 7.01 15.75 11.72
4/18/2022 5:45:00 AM 4.13 39.434 0.031 6.97 19.67 11.73
4/18/2022 6:00:00 AM 4.08 39.344 0.031 7 16.35 11.76
4/18/2022 6:15:00 AM 4.03 39.254 0.031 7.03 25.95 11.75
4/18/2022 6:30:00 AM 3.98 39.164 0.031 7.02 9.34 11.77
4/18/2022 6:45:00 AM 3.93 39.074 0.031 7.01 14.38 11.8
4/18/2022 7:00:00 AM 3.89 39.002 0.031 7 11.49 11.83
4/18/2022 7:15:00 AM 3.86 38.948 0.031 6.99 11.46 11.86
4/18/2022 7:30:00 AM 3.84 38.912 0.031 7.03 9.82 11.9
4/18/2022 7:45:00 AM 3.83 38.894 0.031 7.02 10 11.94
4/18/2022 8:00:00 AM 3.83 38.894 0.031 7.03 9.04 11.97
4/18/2022 8:15:00 AM 3.84 38.912 0.031 7.05 9.21 11.98
4/18/2022 8:30:00 AM 3.87 38.966 0.031 7.04 8.7 12.02
4/18/2022 8:45:00 AM 3.93 39.074 0.031 7.06 8.96 12.02
4/18/2022 9:00:00 AM 4 39.2 0.031 7.04 9.27 12
4/18/2022 9:15:00 AM 4.07 39.326 0.031 7.07 8.84 12.01
4/18/2022 9:30:00 AM 4.16 39.488 0.031 7.11 8.61 11.99
4/18/2022 9:45:00 AM 4.25 39.65 0.031 7.1 8.56 11.95
4/18/2022 10:00:00 AM 4.31 39.758 0.031 7.08 8.82 11.93
4/18/2022 10:15:00 AM 4.38 39.884 0.031 6.99 8.62 11.92
4/18/2022 10:30:00 AM 4.47 40.046 0.031 7.14 8.79 11.9
4/18/2022 10:45:00 AM 4.59 40.262 0.031 7.07 9.62 11.87
4/18/2022 11:00:00 AM 4.71 40.478 0.031 7.06 8.84 11.82
4/18/2022 11:15:00 AM 4.82 40.676 0.031 7.14 8.56 11.76
4/18/2022 11:30:00 AM 4.9 40.82 0.031 7.05 8.67 11.75
4/18/2022 11:45:00 AM 4.95 40.91 0.032 7.06 8.64 11.7
4/18/2022 12:00:00 PM 4.99 40.982 0.031 7.07 8.75 11.69
4/18/2022 12:15:00 PM 5.03 41.054 0.031 7.1 8.82 11.65
4/18/2022 12:30:00 PM 5.07 41.126 0.031 7.13 8.73 11.62
4/18/2022 12:45:00 PM 5.13 41.234 0.031 7.11 8.66 11.6
4/18/2022 1:00:00 PM 5.17 41.306 0.032 7.11 8.84 11.59
4/18/2022 1:15:00 PM 5.21 41.378 0.032 7.12 9.03 11.57
4/18/2022 1:30:00 PM 5.27 41.486 0.032 7.11 8.62 11.55
4/18/2022 1:45:00 PM 5.3 41.54 0.032 7.13 8.85 11.52
4/18/2022 2:00:00 PM 5.31 41.558 0.032 7.07 8.99 11.5
4/18/2022 2:15:00 PM 5.3 41.54 0.032 7.06 8.83 11.44
4/18/2022 2:30:00 PM 5.25 41.45 0.032 7.07 8.79 11.42
4/18/2022 2:45:00 PM 5.15 41.27 0.032 7.06 8.8 11.44
4/18/2022 3:00:00 PM 5.03 41.054 0.032 7.12 8.74 11.44
4/18/2022 3:15:00 PM 4.93 40.874 0.032 7.12 9.98 11.47
4/18/2022 3:30:00 PM 4.84 40.712 0.032 6.82 8.95 11.48
4/18/2022 3:45:00 PM 4.72 40.496 0.032 7.06 9.13 11.47
4/18/2022 4:00:00 PM 4.64 40.352 0.032 7.05 8.93 11.52
4/18/2022 4:15:00 PM 4.57 40.226 0.032 7.04 9.29 11.53
4/18/2022 4:30:00 PM 4.52 40.136 0.032 7.13 9.11 11.54
4/18/2022 4:45:00 PM 4.48 40.064 0.032 7.01 9 11.55
4/18/2022 5:00:00 PM 4.44 39.992 0.032 7.06 9.29 11.57
4/18/2022 5:15:00 PM 4.41 39.938 0.032 7.01 8.97 11.59
4/18/2022 5:30:00 PM 4.4 39.92 0.032 6.99 9.5 11.6
4/18/2022 5:45:00 PM 4.39 39.902 0.032 7.03 9.08 11.59
4/18/2022 6:00:00 PM 4.36 39.848 0.032 7.04 9.42 11.59
4/18/2022 6:15:00 PM 4.32 39.776 0.032 7.05 9.2 11.57
4/18/2022 6:30:00 PM 4.25 39.65 0.032 7.01 9.08 11.56
4/18/2022 6:45:00 PM 4.18 39.524 0.032 7.01 9.11 11.59
4/18/2022 7:00:00 PM 4.09 39.362 0.032 7.02 9.04 11.61
4/18/2022 7:15:00 PM 4.01 39.218 0.032 7 9.78 11.62
4/18/2022 7:30:00 PM 3.93 39.074 0.032 7.05 9.43 11.65
4/18/2022 7:45:00 PM 3.9 39.02 0.032 7 9.24 11.68
4/18/2022 8:00:00 PM 3.88 38.984 0.032 7.01 9.18 11.67
4/18/2022 8:15:00 PM 3.87 38.966 0.032 7.07 9.06 11.65
4/18/2022 8:30:00 PM 3.87 38.966 0.032 7.06 9.13 11.67
4/18/2022 8:45:00 PM 3.86 38.948 0.032 6.98 9.17 11.67
4/18/2022 9:00:00 PM 3.85 38.93 0.032 7.01 9.62 11.67
4/18/2022 9:15:00 PM 3.84 38.912 0.032 7 10.17 11.64
4/18/2022 9:30:00 PM 3.84 38.912 0.032 6.97 9.44 11.62
4/18/2022 9:45:00 PM 3.83 38.894 0.032 7.04 10.49 11.61
4/18/2022 10:00:00 PM 3.82 38.876 0.032 7.07 9.49 11.63
4/18/2022 10:15:00 PM 3.82 38.876 0.032 6.98 9.39 11.64
4/18/2022 10:30:00 PM 3.83 38.894 0.032 7 9.22 11.63
4/18/2022 10:45:00 PM 3.83 38.894 0.032 6.99 9.37 11.63
4/18/2022 11:00:00 PM 3.84 38.912 0.032 6.97 9.35 11.65
4/18/2022 11:15:00 PM 3.85 38.93 0.032 6.99 9.24 11.64
4/18/2022 11:30:00 PM 3.86 38.948 0.032 6.97 9.34 11.65
4/18/2022 11:45:00 PM 3.87 38.966 0.032 6.98 9.11 11.64
4/19/2022 12:00:00 AM 3.89 39.002 0.032 6.96 9.92 11.63
4/19/2022 12:15:00 AM 3.9 39.02 0.032 6.97 9.53 11.62
4/19/2022 12:30:00 AM 3.92 39.056 0.032 7.01 9.34 11.61
4/19/2022 12:45:00 AM 3.93 39.074 0.032 7 9.51 11.61
4/19/2022 1:00:00 AM 3.94 39.092 0.032 6.99 9.49 11.6
4/19/2022 1:15:00 AM 3.94 39.092 0.032 7 9.8 11.59
4/19/2022 1:30:00 AM 3.94 39.092 0.032 6.99 9.42 11.6
4/19/2022 1:45:00 AM 3.95 39.11 0.032 6.82 9.14 11.58
4/19/2022 2:00:00 AM 3.96 39.128 0.032 6.97 9.16 11.55
4/19/2022 2:15:00 AM 3.98 39.164 0.032 6.88 9.13 11.57
4/19/2022 2:30:00 AM 4.01 39.218 0.032 6.96 9.45 11.56
4/19/2022 2:45:00 AM 4.03 39.254 0.032 6.94 9.24 11.56
4/19/2022 3:00:00 AM 4.06 39.308 0.032 6.92 9.13 11.54
4/19/2022 3:15:00 AM 4.08 39.344 0.032 6.84 9.3 11.53
4/19/2022 3:30:00 AM 4.09 39.362 0.032 6.94 9.53 11.51
4/19/2022 3:45:00 AM 4.11 39.398 0.032 6.87 9.25 11.51
4/19/2022 4:00:00 AM 4.13 39.434 0.032 6.95 9.29 11.5
4/19/2022 4:15:00 AM 4.15 39.47 0.032 6.9 9.87 11.52
4/19/2022 4:30:00 AM 4.16 39.488 0.032 6.93 9.28 11.51
4/19/2022 4:45:00 AM 4.18 39.524 0.032 6.95 10.03 11.51
4/19/2022 5:00:00 AM 4.19 39.542 0.032 6.96 9.21 11.5
4/19/2022 5:15:00 AM 4.2 39.56 0.032 6.97 9.28 11.49
4/19/2022 5:30:00 AM 4.21 39.578 0.032 6.93 9.27 11.48
4/19/2022 5:45:00 AM 4.21 39.578 0.032 6.99 9.12 11.5
4/19/2022 6:00:00 AM 4.22 39.596 0.032 6.97 9.27 11.49
4/19/2022 6:15:00 AM 4.23 39.614 0.032 6.98 9.26 11.49
4/19/2022 6:30:00 AM 4.24 39.632 0.032 6.95 9.3 11.47
4/19/2022 6:45:00 AM 4.24 39.632 0.032 6.95 9.1 11.47
4/19/2022 7:00:00 AM 4.25 39.65 0.032 6.94 9.46 11.46
4/19/2022 7:15:00 AM 4.26 39.668 0.032 6.97 9 11.47
4/19/2022 7:30:00 AM 4.28 39.704 0.032 6.97 9.13 11.47
4/19/2022 7:45:00 AM 4.3 39.74 0.032 7.04 9.25 11.54
4/19/2022 8:00:00 AM 4.32 39.776 0.032 7.02 9.39 11.59
4/19/2022 8:15:00 AM 4.34 39.812 0.032 7.05 9.91 11.62
4/19/2022 8:30:00 AM 4.37 39.866 0.032 7.06 9.2 11.66
4/19/2022 8:45:00 AM 4.4 39.92 0.032 7.05 9.11 11.62
4/19/2022 9:00:00 AM 4.42 39.956 0.032 7.06 9.91 11.54
4/19/2022 9:15:00 AM 4.45 40.01 0.032 7.06 9.62 11.55
4/19/2022 9:30:00 AM 4.49 40.082 0.032 7.02 9.54 11.56
4/19/2022 9:45:00 AM 4.52 40.136 0.032 7.07 10.42 11.57
4/19/2022 10:00:00 AM 4.57 40.226 0.032 7.01 9.55 11.59
4/19/2022 10:15:00 AM 4.6 40.28 0.032 7.04 13.02 11.58
4/19/2022 10:30:00 AM 4.66 40.388 0.032 7.09 9.27 11.58
4/19/2022 10:45:00 AM 4.72 40.496 0.032 7.07 9.35 11.58
4/19/2022 11:00:00 AM 4.78 40.604 0.032 7.06 9.55 11.58
4/19/2022 11:15:00 AM 4.87 40.766 0.032 7.06 9.24 11.55
4/19/2022 11:30:00 AM 4.88 40.784 0.032 7.08 10.77 11.53
4/19/2022 11:45:00 AM 4.97 40.946 0.032 7.02 9.34 11.51
4/19/2022 12:00:00 PM 5.12 41.216 0.032 7.01 9.23 11.5
4/19/2022 12:15:00 PM 5.17 41.306 0.032 7.06 9.32 11.45
4/19/2022 12:30:00 PM 5.18 41.324 0.032 7.06 9.47 11.46
4/19/2022 12:45:00 PM 5.28 41.504 0.032 7.05 9.68 11.4
4/19/2022 1:00:00 PM 5.42 41.756 0.032 7.07 9.44 11.39
4/19/2022 1:15:00 PM 5.51 41.918 0.032 7.03 9.33 11.33
4/19/2022 1:30:00 PM 5.62 42.116 0.032 7.06 9.55 11.33
4/19/2022 1:45:00 PM 5.65 42.17 0.032 7.07 9.52 11.3
4/19/2022 2:00:00 PM 5.67 42.206 0.032 7.07 10.42 11.25
4/19/2022 2:15:00 PM 5.66 42.188 0.032 7.02 9.64 11.26
4/19/2022 2:30:00 PM 5.69 42.242 0.032 7.06 9.49 11.26
4/19/2022 2:45:00 PM 5.74 42.332 0.032 7.11 9.38 11.27
4/19/2022 3:00:00 PM 5.74 42.332 0.032 7.04 9.28 11.26
4/19/2022 3:15:00 PM 5.76 42.368 0.032 7.1 9.41 11.24
4/19/2022 3:30:00 PM 5.79 42.422 0.032 7.08 9.98 11.24
4/19/2022 3:45:00 PM 5.82 42.476 0.032 7.04 9.51 11.23
4/19/2022 4:00:00 PM 5.87 42.566 0.032 7.07 9.59 11.2
4/19/2022 4:15:00 PM 5.9 42.62 0.032 7.08 9.31 11.17
4/19/2022 4:30:00 PM 5.92 42.656 0.032 7.06 9.74 11.16
4/19/2022 4:45:00 PM 5.92 42.656 0.032 7.06 9.45 11.16
4/19/2022 5:00:00 PM 5.89 42.602 0.032 7.06 9.56 11.14
4/19/2022 5:15:00 PM 5.86 42.548 0.032 7.04 9.37 11.15
4/19/2022 5:30:00 PM 5.81 42.458 0.032 7.05 9.81 11.12
4/19/2022 5:45:00 PM 5.76 42.368 0.032 7.05 9.45 11.14
4/19/2022 6:00:00 PM 5.71 42.278 0.032 7.05 9.49 11.17
4/19/2022 6:15:00 PM 5.66 42.188 0.032 7.04 9.71 11.18
4/19/2022 6:30:00 PM 5.63 42.134 0.032 7.04 9.46 11.19
4/19/2022 6:45:00 PM 5.59 42.062 0.032 7.05 9.62 11.19
4/19/2022 7:00:00 PM 5.55 41.99 0.032 7.04 9.82 11.19
4/19/2022 7:15:00 PM 5.53 41.954 0.032 7.03 9.84 11.18
4/19/2022 7:30:00 PM 5.5 41.9 0.032 7.02 9.47 11.17
4/19/2022 7:45:00 PM 5.46 41.828 0.032 7.01 9.48 11.16
4/19/2022 8:00:00 PM 5.43 41.774 0.032 6.92 9.43 11.15
4/19/2022 8:15:00 PM 5.4 41.72 0.032 7 9.45 11.14
4/19/2022 8:30:00 PM 5.36 41.648 0.032 6.95 9.82 11.15
4/19/2022 8:45:00 PM 5.32 41.576 0.032 6.99 9.56 11.14
4/19/2022 9:00:00 PM 5.28 41.504 0.032 6.99 9.76 11.17
4/19/2022 9:15:00 PM 5.24 41.432 0.032 6.93 9.81 11.18
4/19/2022 9:30:00 PM 5.21 41.378 0.032 6.96 9.83 11.17
4/19/2022 9:45:00 PM 5.18 41.324 0.032 6.96 9.6 11.18
4/19/2022 10:00:00 PM 5.15 41.27 0.032 6.97 9.74 11.18
4/19/2022 10:15:00 PM 5.12 41.216 0.032 6.99 9.94 11.2
4/19/2022 10:30:00 PM 5.08 41.144 0.032 6.97 9.63 11.21
4/19/2022 10:45:00 PM 5.06 41.108 0.032 6.97 10 11.2
4/19/2022 11:00:00 PM 5.03 41.054 0.032 6.94 9.7 11.24
4/19/2022 11:15:00 PM 5 41 0.032 6.98 9.74 11.27
4/19/2022 11:30:00 PM 4.98 40.964 0.032 6.97 10.12 11.3
4/19/2022 11:45:00 PM 4.95 40.91 0.032 6.97 9.73 11.32
4/20/2022 12:00:00 AM 4.92 40.856 0.032 6.98 9.81 11.31
4/20/2022 12:15:00 AM 4.9 40.82 0.032 6.97 10.42 11.32
4/20/2022 12:30:00 AM 4.87 40.766 0.032 6.96 9.8 11.32
4/20/2022 12:45:00 AM 4.84 40.712 0.032 6.97 9.95 11.35
4/20/2022 1:00:00 AM 4.79 40.622 0.032 6.97 9.82 11.36
4/20/2022 1:15:00 AM 4.74 40.532 0.032 6.95 9.96 11.37
4/20/2022 1:30:00 AM 4.7 40.46 0.032 6.95 9.89 11.37
4/20/2022 1:45:00 AM 4.67 40.406 0.032 6.96 9.95 11.36
4/20/2022 2:00:00 AM 4.63 40.334 0.032 6.97 10.17 11.4
4/20/2022 2:15:00 AM 4.59 40.262 0.032 6.97 9.91 11.42
4/20/2022 2:30:00 AM 4.57 40.226 0.032 6.98 10.12 11.44
4/20/2022 2:45:00 AM 4.54 40.172 0.032 6.97 9.99 11.46
4/20/2022 3:00:00 AM 4.52 40.136 0.032 6.97 9.96 11.48
4/20/2022 3:15:00 AM 4.51 40.118 0.032 6.96 9.87 11.46
4/20/2022 3:30:00 AM 4.5 40.1 0.032 6.95 10.21 11.5
4/20/2022 3:45:00 AM 4.49 40.082 0.032 6.98 9.95 11.5
4/20/2022 4:00:00 AM 4.48 40.064 0.032 6.98 10.02 11.5
4/20/2022 4:15:00 AM 4.46 40.028 0.032 6.97 10.3 11.5
4/20/2022 4:30:00 AM 4.44 39.992 0.032 6.97 10.18 11.5
4/20/2022 4:45:00 AM 4.43 39.974 0.032 6.98 9.9 11.52
4/20/2022 5:00:00 AM 4.42 39.956 0.032 6.97 9.84 11.52
4/20/2022 5:15:00 AM 4.41 39.938 0.032 6.98 9.98 11.54
4/20/2022 5:30:00 AM 4.41 39.938 0.032 6.98 9.9 11.52
4/20/2022 5:45:00 AM 4.4 39.92 0.032 6.97 9.96 11.52
4/20/2022 6:00:00 AM 4.39 39.902 0.032 7 10.07 11.53
4/20/2022 6:15:00 AM 4.36 39.848 0.032 6.98 10.23 11.56
4/20/2022 6:30:00 AM 4.33 39.794 0.032 6.96 10.11 11.6
4/20/2022 6:45:00 AM 4.3 39.74 0.032 6.98 10.21 11.63
4/20/2022 7:00:00 AM 4.27 39.686 0.032 6.97 10.05 11.64
4/20/2022 7:15:00 AM 4.25 39.65 0.032 6.98 11.36 11.66
4/20/2022 7:30:00 AM 4.23 39.614 0.032 7 10.19 11.68
4/20/2022 7:45:00 AM 4.21 39.578 0.032 7 9.95 11.71
4/20/2022 8:00:00 AM 4.21 39.578 0.032 7 9.93 11.72
4/20/2022 8:15:00 AM 4.23 39.614 0.032 7.01 10.25 11.76
4/20/2022 8:30:00 AM 4.25 39.65 0.032 7.02 10.07 11.79
4/20/2022 8:45:00 AM 4.3 39.74 0.032 7.02 10.04 11.81
4/20/2022 9:00:00 AM 4.35 39.83 0.032 7 11.53 11.81
4/20/2022 9:15:00 AM 4.41 39.938 0.032 7.02 10.1 11.8
4/20/2022 9:30:00 AM 4.47 40.046 0.032 7.01 10.04 11.79
4/20/2022 9:45:00 AM 4.57 40.226 0.032 7.04 9.95 11.79
4/20/2022 10:00:00 AM 4.68 40.424 0.032 7.03 9.97 11.74
4/20/2022 10:15:00 AM 4.82 40.676 0.032 7 10.02 11.74
4/20/2022 10:30:00 AM 4.98 40.964 0.032 7.04 10.03 11.69
4/20/2022 10:45:00 AM 5.16 41.288 0.032 7.05 10.03 11.65
4/20/2022 11:00:00 AM 5.37 41.666 0.032 7.05 9.97 11.59
4/20/2022 11:15:00 AM 5.58 42.044 0.032 7.06 10.11 11.55
4/20/2022 11:30:00 AM 5.81 42.458 0.032 7.05 9.9 11.5
4/20/2022 11:45:00 AM 6.04 42.872 0.032 7.05 11.88 11.42
4/20/2022 12:00:00 PM 6.28 43.304 0.032 7.06 10.16 11.34
4/20/2022 12:15:00 PM 6.54 43.772 0.032 7.07 9.83 11.26
4/20/2022 12:30:00 PM 6.81 44.258 0.032 7.07 10.15 11.17
4/20/2022 12:45:00 PM 7.08 44.744 0.032 7.09 9.84 11.08
4/20/2022 1:00:00 PM 7.36 45.248 0.032 7.06 9.88 11
4/20/2022 1:15:00 PM 7.62 45.716 0.032 7.07 9.99 11
4/20/2022 1:30:00 PM 7.87 46.166 0.033 7.07 9.92 10.83
4/20/2022 1:45:00 PM 8.1 46.58 0.033 7.09 10.18 10.72
4/20/2022 2:00:00 PM 8.32 46.976 0.033 7.07 9.82 10.63
4/20/2022 2:15:00 PM 8.56 47.408 0.033 7.08 9.9 10.56
4/20/2022 2:30:00 PM 8.78 47.804 0.033 7.08 9.8 10.48
4/20/2022 2:45:00 PM 8.98 48.164 0.033 7.09 10.5 10.42
4/20/2022 3:00:00 PM 9.18 48.524 0.033 7.14 10.18 10.35
4/20/2022 3:15:00 PM 9.34 48.812 0.033 7.09 10.09 10.29
4/20/2022 3:30:00 PM 9.51 49.118 0.033 7.11 9.95 10.25
4/20/2022 3:45:00 PM 9.62 49.316 0.033 7.08 10.11 10.2
4/20/2022 4:00:00 PM 9.7 49.46 0.033 7.07 9.79 10.15
4/20/2022 4:15:00 PM 9.77 49.586 0.033 7.1 9.9 10.09
4/20/2022 4:30:00 PM 9.8 49.64 0.033 7.09 10.08 10.05
4/20/2022 4:45:00 PM 9.8 49.64 0.033 7.11 9.54 10.05
4/20/2022 5:00:00 PM 9.76 49.568 0.033 7.12 9.19 10.04
4/20/2022 5:15:00 PM 9.7 49.46 0.033 7.1 9.4 10.02
4/20/2022 5:30:00 PM 9.62 49.316 0.033 7.1 9.16 10.01
4/20/2022 5:45:00 PM 9.54 49.172 0.033 7.08 9.5 10.03
4/20/2022 6:00:00 PM 9.47 49.046 0.033 7.1 9.25 10.02
4/20/2022 6:15:00 PM 9.39 48.902 0.033 7.07 9.39 10.03
4/20/2022 6:30:00 PM 9.31 48.758 0.033 7.08 9.08 10.04
4/20/2022 6:45:00 PM 9.22 48.596 0.033 7.05 9.27 10.05
4/20/2022 7:00:00 PM 9.11 48.398 0.033 7.05 9.07 10.05
4/20/2022 7:15:00 PM 9.02 48.236 0.033 7.04 9.09 10.04
4/20/2022 7:30:00 PM 8.91 48.038 0.033 7.03 8.91 10.06
4/20/2022 7:45:00 PM 8.79 47.822 0.033 7.03 9.08 10.06
4/20/2022 8:00:00 PM 8.67 47.606 0.033 7.01 9.37 10.07
4/20/2022 8:15:00 PM 8.55 47.39 0.033 7.02 9.62 10.07
4/20/2022 8:30:00 PM 8.42 47.156 0.033 7.04 9.15 10.11
4/20/2022 8:45:00 PM 8.3 46.94 0.033 6.99 9.31 10.13
4/20/2022 9:00:00 PM 8.18 46.724 0.033 7 9.39 10.14
4/20/2022 9:15:00 PM 8.06 46.508 0.033 7.01 9.62 10.19
4/20/2022 9:30:00 PM 7.95 46.31 0.033 6.98 9.85 10.23
4/20/2022 9:45:00 PM 7.83 46.094 0.033 7.02 10.43 10.26
4/20/2022 10:00:00 PM 7.72 45.896 0.033 6.98 9.74 10.29
4/20/2022 10:15:00 PM 7.6 45.68 0.033 7 9.67 10.34
4/20/2022 10:30:00 PM 7.49 45.482 0.033 7.01 9.44 10.37
4/20/2022 10:45:00 PM 7.38 45.284 0.033 6.99 9.96 10.42
4/20/2022 11:00:00 PM 7.28 45.104 0.033 6.98 9.63 10.46
4/20/2022 11:15:00 PM 7.18 44.924 0.033 6.98 9.63 10.48
4/20/2022 11:30:00 PM 7.1 44.78 0.033 6.98 9.56 10.53
4/20/2022 11:45:00 PM 7.01 44.618 0.033 6.98 9.73 10.54
4/21/2022 12:00:00 AM 6.92 44.456 0.033 6.98 10.01 10.57
4/21/2022 12:15:00 AM 6.82 44.276 0.033 6.99 9.64 10.61
4/21/2022 12:30:00 AM 6.73 44.114 0.033 6.97 9.83 10.64
4/21/2022 12:45:00 AM 6.63 43.934 0.033 6.98 9.55 10.68
4/21/2022 1:00:00 AM 6.55 43.79 0.033 6.97 10.73 10.71
4/21/2022 1:15:00 AM 6.47 43.646 0.033 6.99 9.62 10.73
4/21/2022 1:30:00 AM 6.39 43.502 0.033 6.97 9.63 10.76
4/21/2022 1:45:00 AM 6.31 43.358 0.033 6.97 9.53 10.78
4/21/2022 2:00:00 AM 6.23 43.214 0.033 6.96 9.85 10.82
4/21/2022 2:15:00 AM 6.15 43.07 0.033 6.96 10.71 10.86
4/21/2022 2:30:00 AM 6.08 42.944 0.033 6.97 9.52 10.91
4/21/2022 2:45:00 AM 6.01 42.818 0.033 6.98 9.71 10.93
4/21/2022 3:00:00 AM 5.95 42.71 0.033 6.96 9.63 10.95
4/21/2022 3:15:00 AM 5.89 42.602 0.033 6.99 9.75 10.97
4/21/2022 3:30:00 AM 5.85 42.53 0.033 6.97 9.55 10.98
4/21/2022 3:45:00 AM 5.8 42.44 0.033 6.98 9.71 11.01
4/21/2022 4:00:00 AM 5.77 42.386 0.033 6.96 9.27 11.03
4/21/2022 4:15:00 AM 5.73 42.314 0.033 6.98 9.73 11.05
4/21/2022 4:30:00 AM 5.7 42.26 0.033 6.96 9.61 11.05
4/21/2022 4:45:00 AM 5.67 42.206 0.033 6.97 9.37 11.07
4/21/2022 5:00:00 AM 5.65 42.17 0.033 6.96 9.49 11.08
4/21/2022 5:15:00 AM 5.62 42.116 0.033 6.96 9.42 11.08
4/21/2022 5:30:00 AM 5.6 42.08 0.033 6.97 9.31 11.1
4/21/2022 5:45:00 AM 5.58 42.044 0.033 6.96 9.54 11.1
4/21/2022 6:00:00 AM 5.56 42.008 0.033 6.97 9.63 11.08
4/21/2022 6:15:00 AM 5.54 41.972 0.033 6.97 9.41 11.1
4/21/2022 6:30:00 AM 5.52 41.936 0.033 6.98 9.52 11.11
4/21/2022 6:45:00 AM 5.49 41.882 0.033 6.97 9.42 11.12
4/21/2022 7:00:00 AM 5.46 41.828 0.033 6.98 9.67 11.13
4/21/2022 7:15:00 AM 5.45 41.81 0.033 6.98 9.34 11.18
4/21/2022 7:30:00 AM 5.46 41.828 0.033 6.99 9.45 11.22
4/21/2022 7:45:00 AM 5.48 41.864 0.033 7 9.26 11.26
4/21/2022 8:00:00 AM 5.51 41.918 0.033 7.01 9.58 11.28
4/21/2022 8:15:00 AM 5.55 41.99 0.033 7.03 9.45 11.31
4/21/2022 8:30:00 AM 5.58 42.044 0.033 7.05 9.52 11.35
4/21/2022 8:45:00 AM 5.65 42.17 0.033 7.02 9.35 11.36
4/21/2022 9:00:00 AM 5.73 42.314 0.033 7.05 9.15 11.37
4/21/2022 9:15:00 AM 5.81 42.458 0.033 7.06 8.83 11.35
4/21/2022 9:30:00 AM 5.91 42.638 0.033 7.07 8.81 11.31
4/21/2022 9:45:00 AM 5.99 42.782 0.033 7.07 8.94 11.26
4/21/2022 10:00:00 AM 6.07 42.926 0.033 7.06 9.26 11.24
4/21/2022 10:15:00 AM 6.12 43.016 0.033 7.09 8.88 11.21
4/21/2022 10:30:00 AM 6.18 43.124 0.033 7.06 8.84 11.17
4/21/2022 10:45:00 AM 6.22 43.196 0.033 7.07 8.73 11.15
4/21/2022 11:00:00 AM 6.25 43.25 0.033 7.07 9.2 11.11
4/21/2022 11:15:00 AM 6.29 43.322 0.033 7.07 8.91 11.1
4/21/2022 11:30:00 AM 6.32 43.376 0.033 7.06 8.89 11.1
4/21/2022 11:45:00 AM 6.36 43.448 0.033 7.06 9.02 11.08
4/21/2022 12:00:00 PM 6.39 43.502 0.033 7.02 9.09 11.06
4/21/2022 12:15:00 PM 6.41 43.538 0.033 7.03 9.94 11.09
4/21/2022 12:30:00 PM 6.44 43.592 0.033 7.03 9.3 11.08
4/21/2022 12:45:00 PM 6.46 43.628 0.033 7.03 8.97 11.08
4/21/2022 1:00:00 PM 6.49 43.682 0.033 7.03 9.23 11.1
4/21/2022 1:15:00 PM 6.52 43.736 0.033 7.03 9.33 11.1
4/21/2022 1:30:00 PM 6.55 43.79 0.033 7.04 9.29 11.11
4/21/2022 1:45:00 PM 6.58 43.844 0.033 7.03 9.19 11.1
4/21/2022 2:00:00 PM 6.61 43.898 0.033 7.03 9.43 11.12
4/21/2022 2:15:00 PM 6.65 43.97 0.033 7.03 9.17 11.1
4/21/2022 2:30:00 PM 6.68 44.024 0.033 7.03 9.36 11.06
4/21/2022 2:45:00 PM 6.71 44.078 0.033 7.03 9.22 11.04
4/21/2022 3:00:00 PM 6.74 44.132 0.033 7.06 9.33 11.06
4/21/2022 3:15:00 PM 6.78 44.204 0.033 7.03 9.36 11.05
4/21/2022 3:30:00 PM 6.81 44.258 0.033 7.05 9.28 11.06
4/21/2022 3:45:00 PM 6.84 44.312 0.033 7.04 9.28 11.03
4/21/2022 4:00:00 PM 6.88 44.384 0.033 7.06 9.22 11.02
4/21/2022 4:15:00 PM 6.9 44.42 0.033 7.05 9.44 11
4/21/2022 4:30:00 PM 6.93 44.474 0.033 7.05 9.2 11.01
4/21/2022 4:45:00 PM 6.96 44.528 0.033 7.1 9.04 10.96
4/21/2022 5:00:00 PM 6.98 44.564 0.033 7 9.17 10.93
4/21/2022 5:15:00 PM 7.01 44.618 0.033 7.03 9.1 10.9
4/21/2022 5:30:00 PM 7.04 44.672 0.033 7.03 9.3 10.87
4/21/2022 5:45:00 PM 7.07 44.726 0.033 7.04 8.97 10.9
4/21/2022 6:00:00 PM 7.1 44.78 0.033 7.04 9.42 10.88
4/21/2022 6:15:00 PM 7.13 44.834 0.033 7.03 9.4 10.87
4/21/2022 6:30:00 PM 7.16 44.888 0.033 7.01 9.47 10.87
4/21/2022 6:45:00 PM 7.19 44.942 0.033 7.02 9.73 10.82
4/21/2022 7:00:00 PM 7.21 44.978 0.033 7.03 11.91 10.77
4/21/2022 7:15:00 PM 7.24 45.032 0.033 7.01 9.21 10.75
4/21/2022 7:30:00 PM 7.25 45.05 0.033 7.05 9.44 10.75
4/21/2022 7:45:00 PM 7.26 45.068 0.033 7.11 9.34 10.74
4/21/2022 8:00:00 PM 7.26 45.068 0.033 6.99 9.79 10.74
4/21/2022 8:15:00 PM 7.25 45.05 0.033 6.99 9.42 10.74
4/21/2022 8:30:00 PM 7.24 45.032 0.033 6.98 9.27 10.71
4/21/2022 8:45:00 PM 7.23 45.014 0.033 6.95 9.88 10.69
4/21/2022 9:00:00 PM 7.21 44.978 0.033 6.95 9.78 10.68
4/21/2022 9:15:00 PM 7.2 44.96 0.033 6.99 9.73 10.69
4/21/2022 9:30:00 PM 7.19 44.942 0.033 6.97 10.09 10.69
4/21/2022 9:45:00 PM 7.18 44.924 0.033 6.99 9.79 10.68
4/21/2022 10:00:00 PM 7.16 44.888 0.033 6.96 9.38 10.66
4/21/2022 10:15:00 PM 7.15 44.87 0.033 6.98 9.94 10.66
4/21/2022 10:30:00 PM 7.13 44.834 0.033 6.95 9.5 10.66
4/21/2022 10:45:00 PM 7.12 44.816 0.033 6.98 9.84 10.66
4/21/2022 11:00:00 PM 7.11 44.798 0.033 6.98 9.66 10.67
4/21/2022 11:15:00 PM 7.11 44.798 0.033 6.94 10.2 10.65
4/21/2022 11:30:00 PM 7.1 44.78 0.033 6.99 9.99 10.64
4/21/2022 11:45:00 PM 7.09 44.762 0.033 6.94 9.95 10.62
4/22/2022 12:00:00 AM 7.09 44.762 0.033 6.93 9.78 10.61
4/22/2022 12:15:00 AM 7.08 44.744 0.033 6.97 9.78 10.6
4/22/2022 12:30:00 AM 7.07 44.726 0.033 7.02 9.84 10.61
4/22/2022 12:45:00 AM 7.06 44.708 0.033 7.05 10.25 10.63
4/22/2022 1:00:00 AM 7.04 44.672 0.033 6.92 9.86 10.64
4/22/2022 1:15:00 AM 7.02 44.636 0.033 6.95 9.94 10.65
4/22/2022 1:30:00 AM 7 44.6 0.033 6.96 10.21 10.64
4/22/2022 1:45:00 AM 6.98 44.564 0.033 6.94 9.63 10.63
4/22/2022 2:00:00 AM 6.96 44.528 0.033 6.93 10 10.63
4/22/2022 2:15:00 AM 6.94 44.492 0.033 6.91 9.87 10.65
4/22/2022 2:30:00 AM 6.92 44.456 0.033 6.93 10.11 10.68
4/22/2022 2:45:00 AM 6.89 44.402 0.033 6.94 9.66 10.71
4/22/2022 3:00:00 AM 6.87 44.366 0.033 6.93 9.84 10.74
4/22/2022 3:15:00 AM 6.85 44.33 0.033 6.93 10.53 10.76
4/22/2022 3:30:00 AM 6.84 44.312 0.033 6.93 9.93 10.75
4/22/2022 3:45:00 AM 6.82 44.276 0.033 6.94 9.98 10.77
4/22/2022 4:00:00 AM 6.81 44.258 0.033 6.93 10.2 10.77
4/22/2022 4:15:00 AM 6.79 44.222 0.033 6.93 9.82 10.8
4/22/2022 4:30:00 AM 6.78 44.204 0.033 6.97 9.78 10.79
4/22/2022 4:45:00 AM 6.77 44.186 0.033 6.97 9.99 10.8
4/22/2022 5:00:00 AM 6.75 44.15 0.033 6.98 9.95 10.8
4/22/2022 5:15:00 AM 6.73 44.114 0.033 6.98 10.14 10.81
4/22/2022 5:30:00 AM 6.7 44.06 0.033 6.97 10.4 10.83
4/22/2022 5:45:00 AM 6.67 44.006 0.033 6.96 10.61 10.84
4/22/2022 6:00:00 AM 6.64 43.952 0.033 6.99 9.97 10.85
4/22/2022 6:15:00 AM 6.61 43.898 0.033 6.99 10.43 10.87
4/22/2022 6:30:00 AM 6.57 43.826 0.033 6.98 10.49 10.9
4/22/2022 6:45:00 AM 6.54 43.772 0.033 6.98 9.98 10.93
4/22/2022 7:00:00 AM 6.5 43.7 0.033 7.05 9.8 10.96
4/22/2022 7:15:00 AM 6.46 43.628 0.033 7.01 10.61 10.98
4/22/2022 7:30:00 AM 6.42 43.556 0.033 6.98 10.14 11.01
4/22/2022 7:45:00 AM 6.4 43.52 0.033 6.99 10.09 11.06
4/22/2022 8:00:00 AM 6.38 43.484 0.033 7.02 10.02 11.09
4/22/2022 8:15:00 AM 6.36 43.448 0.033 7.02 9.94 11.15
4/22/2022 8:30:00 AM 6.34 43.412 0.033 7.07 10.25 11.18
4/22/2022 8:45:00 AM 6.35 43.43 0.033 7 9.94 11.18
4/22/2022 9:00:00 AM 6.36 43.448 0.033 7.03 9.94 11.19
4/22/2022 9:15:00 AM 6.38 43.484 0.033 7.06 10.83 11.19
4/22/2022 9:30:00 AM 6.42 43.556 0.033 7.05 9.84 11.21
4/22/2022 9:45:00 AM 6.49 43.682 0.033 7.07 10.14 11.21
4/22/2022 10:00:00 AM 6.58 43.844 0.033 7.06 10.47 11.2
4/22/2022 10:15:00 AM 6.72 44.096 0.033 7.04 10.05 11.18
4/22/2022 10:30:00 AM 6.88 44.384 0.033 7.05 10.1 11.14
4/22/2022 10:45:00 AM 7.06 44.708 0.033 7.05 9.93 11.06
4/22/2022 11:00:00 AM 7.23 45.014 0.033 7.05 9.76 11.02
4/22/2022 11:15:00 AM 7.4 45.32 0.033 7.05 10.08 10.98
4/22/2022 11:30:00 AM 7.59 45.662 0.033 7.04 9.67 10.92
4/22/2022 11:45:00 AM 7.82 46.076 0.033 7.05 9.8 10.91
4/22/2022 12:00:00 PM 8.08 46.544 0.033 7.05 9.85 10.81
4/22/2022 12:15:00 PM 8.33 46.994 0.033 7.07 10.66 10.74
4/22/2022 12:30:00 PM 8.58 47.444 0.033 7.08 9.78 10.66
4/22/2022 12:45:00 PM 8.84 47.912 0.033 7.06 9.79 10.63
4/22/2022 1:00:00 PM 9.08 48.344 0.033 7.07 9.87 10.55
4/22/2022 1:15:00 PM 9.32 48.776 0.033 7.07 10.62 10.48
4/22/2022 1:30:00 PM 9.55 49.19 0.033 7.07 10.53 10.4
4/22/2022 1:45:00 PM 9.78 49.604 0.033 7.08 9.8 10.35
4/22/2022 2:00:00 PM 10.01 50.018 0.033 7.06 9.72 10.28
4/22/2022 2:15:00 PM 10.25 50.45 0.033 7.07 10.31 10.16
4/22/2022 2:30:00 PM 10.46 50.828 0.033 7.07 10.32 10.08
4/22/2022 2:45:00 PM 10.66 51.188 0.033 7.13 10.51 10.01
4/22/2022 3:00:00 PM 10.84 51.512 0.033 7.06 11.29 9.95
4/22/2022 3:15:00 PM 10.99 51.782 0.033 7.08 10.38 9.89
4/22/2022 3:30:00 PM 11.13 52.034 0.033 7.07 10.71 9.83
4/22/2022 3:45:00 PM 11.22 52.196 0.033 7.08 10.68 9.82
4/22/2022 4:00:00 PM 11.28 52.304 0.033 7.09 10.45 9.77
4/22/2022 4:15:00 PM 11.32 52.376 0.033 7.08 10.45 9.74
4/22/2022 4:30:00 PM 11.33 52.394 0.033 7.12 11.04 9.72
4/22/2022 4:45:00 PM 11.33 52.394 0.033 7.09 11.07 9.7
4/22/2022 5:00:00 PM 11.27 52.286 0.033 7.1 10.4 9.69
4/22/2022 5:15:00 PM 11.19 52.142 0.033 7.1 10.83 9.7
4/22/2022 5:30:00 PM 11.1 51.98 0.033 7.09 9.01 9.71
4/22/2022 5:45:00 PM 11.06 51.908 0.033 7.09 9.63 9.72
4/22/2022 6:00:00 PM 10.99 51.782 0.033 7.1 9.41 9.73
4/22/2022 6:15:00 PM 10.9 51.62 0.033 7.08 9.85 9.7
4/22/2022 6:30:00 PM 10.8 51.44 0.032 7.07 9.55 9.7
4/22/2022 6:45:00 PM 10.71 51.278 0.032 7.07 9.78 9.7
4/22/2022 7:00:00 PM 10.63 51.134 0.032 7.05 9.35 9.71
4/22/2022 7:15:00 PM 10.53 50.954 0.032 7.04 9.19 9.71
4/22/2022 7:30:00 PM 10.43 50.774 0.032 7.04 9.19 9.73
4/22/2022 7:45:00 PM 10.31 50.558 0.032 7.02 9.26 9.73
4/22/2022 8:00:00 PM 10.2 50.36 0.032 7.02 9.23 9.76
4/22/2022 8:15:00 PM 10.09 50.162 0.032 7 10.27 9.76
4/22/2022 8:30:00 PM 9.97 49.946 0.032 7.03 9.52 9.77
4/22/2022 8:45:00 PM 9.86 49.748 0.032 6.99 10 9.79
4/22/2022 9:00:00 PM 9.75 49.55 0.032 6.98 10.13 9.83
4/22/2022 9:15:00 PM 9.64 49.352 0.032 6.99 9.54 9.87
4/22/2022 9:30:00 PM 9.52 49.136 0.032 6.97 9.72 9.91
4/22/2022 9:45:00 PM 9.41 48.938 0.032 6.96 10.19 9.93
4/22/2022 10:00:00 PM 9.3 48.74 0.032 6.98 10.29 9.95
4/22/2022 10:15:00 PM 9.19 48.542 0.032 6.98 10.12 9.98
4/22/2022 10:30:00 PM 9.09 48.362 0.032 6.98 9.96 10
4/22/2022 10:45:00 PM 9 48.2 0.032 6.95 9.52 10.04
4/22/2022 11:00:00 PM 8.92 48.056 0.032 6.96 9.93 10.08
4/22/2022 11:15:00 PM 8.84 47.912 0.032 6.95 9.65 10.1
4/22/2022 11:30:00 PM 8.75 47.75 0.031 6.96 10.05 10.12
4/22/2022 11:45:00 PM 8.68 47.624 0.031 7.09 4.15 10.15
4/23/2022 12:00:00 AM 8.6 47.48 0.031 7.09 5.68 10.18
4/23/2022 12:15:00 AM 8.53 47.354 0.031 7.08 6.25 10.18
4/23/2022 12:30:00 AM 8.47 47.246 0.031 7.08 6.39 10.2
4/23/2022 12:45:00 AM 8.4 47.12 0.031 7.08 6.45 10.22
4/23/2022 1:00:00 AM 8.34 47.012 0.031 7.09 6.58 10.25
4/23/2022 1:15:00 AM 8.29 46.922 0.031 7.07 7.03 10.26
4/23/2022 1:30:00 AM 8.23 46.814 0.031 6.99 7.72 10.29
4/23/2022 1:45:00 AM 8.17 46.706 0.031 7.08 8.17 10.29
4/23/2022 2:00:00 AM 8.12 46.616 0.031 6.92 7.66 10.31
4/23/2022 2:15:00 AM 8.07 46.526 0.031 7.03 8.12 10.33
4/23/2022 2:30:00 AM 8.02 46.436 0.031 7.08 8.64 10.35
4/23/2022 2:45:00 AM 7.98 46.364 0.031 7.07 11.62 10.36
4/23/2022 3:00:00 AM 7.94 46.292 0.031 7.06 8.98 10.39
4/23/2022 3:15:00 AM 7.9 46.22 0.031 7.08 8.83 10.41
4/23/2022 3:30:00 AM 7.85 46.13 0.031 7.08 12.18 10.43
4/23/2022 3:45:00 AM 7.81 46.058 0.031 7.08 8.66 10.43
4/23/2022 4:00:00 AM 7.77 45.986 0.031 7.01 10.33 10.46
4/23/2022 4:15:00 AM 7.74 45.932 0.031 7.08 8.81 10.47
4/23/2022 4:30:00 AM 7.71 45.878 0.031 7.08 8.41 10.45
4/23/2022 4:45:00 AM 7.68 45.824 0.031 7.08 9.13 10.46
4/23/2022 5:00:00 AM 7.65 45.77 0.031 7.08 9.4 10.5
4/23/2022 5:15:00 AM 7.62 45.716 0.031 7.07 8.4 10.5
4/23/2022 5:30:00 AM 7.59 45.662 0.031 7.07 8.76 10.52
4/23/2022 5:45:00 AM 7.56 45.608 0.031 7.08 8.79 10.52
4/23/2022 6:00:00 AM 7.54 45.572 0.031 7.07 9.69 10.51
4/23/2022 6:15:00 AM 7.51 45.518 0.031 7.09 8.79 10.53
4/23/2022 6:30:00 AM 7.49 45.482 0.031 7.05 9.03 10.52
4/23/2022 6:45:00 AM 7.47 45.446 0.031 7.08 8.84 10.54
4/23/2022 7:00:00 AM 7.45 45.41 0.031 7.08 8.46 10.55
4/23/2022 7:15:00 AM 7.43 45.374 0.031 6.89 6.89 10.56
4/23/2022 7:30:00 AM 7.42 45.356 0.031 7.09 3.78 10.57
4/23/2022 7:45:00 AM 7.41 45.338 0.031 7 4.76 10.6
4/23/2022 8:00:00 AM 7.41 45.338 0.031 7.11 4.02 10.65
4/23/2022 8:15:00 AM 7.42 45.356 0.031 7.05 3.15 10.68
4/23/2022 8:30:00 AM 7.45 45.41 0.03 7.13 3.45 10.71
4/23/2022 8:45:00 AM 7.49 45.482 0.03 7.09 4.41 10.75
4/23/2022 9:00:00 AM 7.54 45.572 0.03 7.13 4.74 10.74
4/23/2022 9:15:00 AM 7.59 45.662 0.03 7.12 5.26 10.75
4/23/2022 9:30:00 AM 7.64 45.752 0.03 7.16 5.3 10.74
4/23/2022 9:45:00 AM 7.7 45.86 0.03 7.12 5.89 10.73
4/23/2022 10:00:00 AM 7.76 45.968 0.031 7.16 5.8 10.72
4/23/2022 10:15:00 AM 7.83 46.094 0.03 7.18 6.29 10.72
4/23/2022 10:30:00 AM 7.91 46.238 0.031 7.15 6.06 10.71
4/23/2022 10:45:00 AM 7.98 46.364 0.03 7.1 6.77 10.67
4/23/2022 11:00:00 AM 8.07 46.526 0.03 7.06 6.42 10.66
4/23/2022 11:15:00 AM 8.14 46.652 0.03 7.07 7.39 10.64
4/23/2022 11:30:00 AM 8.22 46.796 0.03 7.01 6.54 10.64
4/23/2022 11:45:00 AM 8.33 46.994 0.03 7.19 7.69 10.61
4/23/2022 12:00:00 PM 8.41 47.138 0.03 7.19 7.26 10.58
4/23/2022 12:15:00 PM 8.47 47.246 0.03 6.95 7.08 10.56
4/23/2022 12:30:00 PM 8.53 47.354 0.03 7.12 7.62 10.52
4/23/2022 12:45:00 PM 8.57 47.426 0.03 7.17 8.23 10.5
4/23/2022 1:00:00 PM 8.59 47.462 0.03 7.17 7.67 10.47
4/23/2022 1:15:00 PM 8.61 47.498 0.03 7.16 7.23 10.42
4/23/2022 1:30:00 PM 8.64 47.552 0.03 7.17 7.07 10.42
4/23/2022 1:45:00 PM 8.68 47.624 0.03 7.17 7.76 10.39
4/23/2022 2:00:00 PM 8.75 47.75 0.03 7.18 8.15 10.38
4/23/2022 2:15:00 PM 8.87 47.966 0.03 7.12 7.94 10.36
4/23/2022 2:30:00 PM 9 48.2 0.03 7.19 7.96 10.33
4/23/2022 2:45:00 PM 9.21 48.578 0.03 7.18 7.44 10.32
4/23/2022 3:00:00 PM 9.39 48.902 0.03 7.18 7.53 10.26
4/23/2022 3:15:00 PM 9.52 49.136 0.03 7.19 8.01 10.2
4/23/2022 3:30:00 PM 9.63 49.334 0.03 6.93 7.92 10.16
4/23/2022 3:45:00 PM 9.74 49.532 0.03 7.2 7.61 10.11
4/23/2022 4:00:00 PM 9.9 49.82 0.03 7.2 8.43 10.07
4/23/2022 4:15:00 PM 10.02 50.036 0.03 7.2 8.1 10.02
4/23/2022 4:30:00 PM 10.12 50.216 0.03 7.2 8.37 9.96
4/23/2022 4:45:00 PM 10.2 50.36 0.03 7.2 7.83 9.93
4/23/2022 5:00:00 PM 10.26 50.468 0.03 7.19 8.4 9.91
4/23/2022 5:15:00 PM 10.3 50.54 0.03 7.19 8.32 9.88
4/23/2022 5:30:00 PM 10.3 50.54 0.03 7.2 8.69 9.84
4/23/2022 5:45:00 PM 10.3 50.54 0.03 7.19 8.61 9.78
4/23/2022 6:00:00 PM 10.28 50.504 0.03 7.18 8.27 9.79
4/23/2022 6:15:00 PM 10.26 50.468 0.03 7.13 7.41 9.82
4/23/2022 6:30:00 PM 10.23 50.414 0.03 7.17 7.91 9.82
4/23/2022 6:45:00 PM 10.18 50.324 0.03 7.17 7.67 9.81
4/23/2022 7:00:00 PM 10.12 50.216 0.03 7.14 8.28 9.81
4/23/2022 7:15:00 PM 10.06 50.108 0.03 7.15 7.86 9.81
4/23/2022 7:30:00 PM 9.98 49.964 0.03 7.11 8.03 9.81
4/23/2022 7:45:00 PM 9.89 49.802 0.03 7.13 7.94 9.82
4/23/2022 8:00:00 PM 9.81 49.658 0.03 7.12 8.66 9.8
4/23/2022 8:15:00 PM 9.72 49.496 0.03 7.1 7.91 9.8
4/23/2022 8:30:00 PM 9.64 49.352 0.03 7.09 7.77 9.8
4/23/2022 8:45:00 PM 9.56 49.208 0.03 7.08 8.44 9.79
4/23/2022 9:00:00 PM 9.48 49.064 0.029 7.08 8.33 9.82
4/23/2022 9:15:00 PM 9.4 48.92 0.029 7.07 8.64 9.84
4/23/2022 9:30:00 PM 9.32 48.776 0.029 7.08 8.29 9.88
4/23/2022 9:45:00 PM 9.24 48.632 0.029 6.81 8.6 9.87
4/23/2022 10:00:00 PM 9.15 48.47 0.029 7.04 9.01 9.88
4/23/2022 10:15:00 PM 9.07 48.326 0.029 7.05 8.65 9.89
4/23/2022 10:30:00 PM 8.99 48.182 0.029 7.06 8.54 9.91
4/23/2022 10:45:00 PM 8.91 48.038 0.029 7.06 8.01 9.94
4/23/2022 11:00:00 PM 8.83 47.894 0.029 7.06 8.06 9.96
4/23/2022 11:15:00 PM 8.75 47.75 0.029 7.06 8.03 9.98
4/23/2022 11:30:00 PM 8.67 47.606 0.029 7.04 8.92 10
4/23/2022 11:45:00 PM 8.6 47.48 0.029 7.04 8.19 10.01
4/24/2022 12:00:00 AM 8.53 47.354 0.029 7.07 8.38 10.06
4/24/2022 12:15:00 AM 8.47 47.246 0.029 7.06 8.32 10.08
4/24/2022 12:30:00 AM 8.4 47.12 0.029 7.07 8.28 10.09
4/24/2022 12:45:00 AM 8.34 47.012 0.029 7 8.92 10.11
4/24/2022 1:00:00 AM 8.28 46.904 0.029 7.06 8.16 10.15
4/24/2022 1:15:00 AM 8.21 46.778 0.029 7.05 10.43 10.16
4/24/2022 1:30:00 AM 8.15 46.67 0.029 7.06 8.59 10.22
4/24/2022 1:45:00 AM 8.09 46.562 0.029 7.05 8.47 10.24
4/24/2022 2:00:00 AM 8.04 46.472 0.029 7.06 8.75 10.19
4/24/2022 2:15:00 AM 7.99 46.382 0.029 7.06 8.07 10.19
4/24/2022 2:30:00 AM 7.95 46.31 0.029 7.06 8.02 10.18
4/24/2022 2:45:00 AM 7.91 46.238 0.029 7.04 8.13 10.18
4/24/2022 3:00:00 AM 7.87 46.166 0.029 7.03 8.15 10.18
4/24/2022 3:15:00 AM 7.84 46.112 0.029 7.06 8.64 10.18
4/24/2022 3:30:00 AM 7.81 46.058 0.029 7.05 8.78 10.21
4/24/2022 3:45:00 AM 7.78 46.004 0.029 7.05 9.16 10.26
4/24/2022 4:00:00 AM 7.75 45.95 0.029 7.06 8.62 10.26
4/24/2022 4:15:00 AM 7.72 45.896 0.029 7.06 8.39 10.24
4/24/2022 4:30:00 AM 7.69 45.842 0.029 7.06 8.61 10.23
4/24/2022 4:45:00 AM 7.66 45.788 0.029 7.05 9.38 10.23
4/24/2022 5:00:00 AM 7.63 45.734 0.029 7.05 8.25 10.25
4/24/2022 5:15:00 AM 7.59 45.662 0.029 7.05 8 10.25
4/24/2022 5:30:00 AM 7.55 45.59 0.029 7.05 7.8 10.26
4/24/2022 5:45:00 AM 7.51 45.518 0.029 7.05 8.13 10.27
4/24/2022 6:00:00 AM 7.47 45.446 0.029 7.05 8.53 10.28
4/24/2022 6:15:00 AM 7.44 45.392 0.029 7.05 8.53 10.3
4/24/2022 6:30:00 AM 7.4 45.32 0.029 7.04 7.83 10.33
4/24/2022 6:45:00 AM 7.36 45.248 0.029 7.06 7.95 10.44
4/24/2022 7:00:00 AM 7.33 45.194 0.029 7.06 8.53 10.48
4/24/2022 7:15:00 AM 7.31 45.158 0.029 7.06 8.04 10.53
4/24/2022 7:30:00 AM 7.29 45.122 0.029 7.06 7.84 10.56
4/24/2022 7:45:00 AM 7.28 45.104 0.029 7.08 7.52 10.55
4/24/2022 8:00:00 AM 7.27 45.086 0.029 7.09 7.67 10.57
4/24/2022 8:15:00 AM 7.29 45.122 0.029 7.1 7.8 10.59
4/24/2022 8:30:00 AM 7.31 45.158 0.029 7.1 8.12 10.61
4/24/2022 8:45:00 AM 7.35 45.23 0.029 7.12 7.69 10.62
4/24/2022 9:00:00 AM 7.41 45.338 0.029 7.12 7.36 10.59
4/24/2022 9:15:00 AM 7.49 45.482 0.029 7.13 7.46 10.58
4/24/2022 9:30:00 AM 7.58 45.644 0.029 7.13 7.59 10.55
4/24/2022 9:45:00 AM 7.7 45.86 0.029 7.14 7.48 10.54
4/24/2022 10:00:00 AM 7.83 46.094 0.029 7.15 7.83 10.51
4/24/2022 10:15:00 AM 7.99 46.382 0.029 7.15 7.61 10.46
4/24/2022 10:30:00 AM 8.18 46.724 0.029 7.16 7.64 10.44
4/24/2022 10:45:00 AM 8.39 47.102 0.029 7.16 7.77 10.39
4/24/2022 11:00:00 AM 8.62 47.516 0.029 7.16 7.61 10.3
4/24/2022 11:15:00 AM 8.87 47.966 0.029 7.17 7.85 10.24
4/24/2022 11:30:00 AM 9.12 48.416 0.029 7.17 7.54 10.18
4/24/2022 11:45:00 AM 9.4 48.92 0.029 7.17 8.66 10.12
4/24/2022 12:00:00 PM 9.7 49.46 0.029 7.18 7.64 10.05
4/24/2022 12:15:00 PM 10.01 50.018 0.029 7.18 8.2 9.93
4/24/2022 12:30:00 PM 10.32 50.576 0.029 7.19 7.62 9.9
4/24/2022 12:45:00 PM 10.63 51.134 0.029 7.19 7.51 9.83
4/24/2022 1:00:00 PM 10.94 51.692 0.029 7.19 8.02 9.76
4/24/2022 1:15:00 PM 11.24 52.232 0.029 7.2 7.4 9.65
4/24/2022 1:30:00 PM 11.55 52.79 0.029 7.16 7.83 9.55
4/24/2022 1:45:00 PM 11.84 53.312 0.029 7.19 7.46 9.41
4/24/2022 2:00:00 PM 12.15 53.87 0.029 7.2 7.57 9.33
4/24/2022 2:15:00 PM 12.42 54.356 0.029 7.21 7.57 9.22
4/24/2022 2:30:00 PM 12.68 54.824 0.03 7.21 7.77 9.15
4/24/2022 2:45:00 PM 12.92 55.256 0.03 7.22 7.75 9.09
4/24/2022 3:00:00 PM 13.14 55.652 0.03 7.22 7.63 9.02
4/24/2022 3:15:00 PM 13.35 56.03 0.03 7.21 7.75 8.94
4/24/2022 3:30:00 PM 13.57 56.426 0.03 7.22 7.66 8.87
4/24/2022 3:45:00 PM 13.77 56.786 0.03 7.22 7.73 8.82
4/24/2022 4:00:00 PM 13.86 56.948 0.03 7.22 7.92 8.77
4/24/2022 4:15:00 PM 13.91 57.038 0.03 7.21 7.86 8.73
4/24/2022 4:30:00 PM 13.94 57.092 0.03 7.22 7.9 8.7
4/24/2022 4:45:00 PM 13.97 57.146 0.03 7.23 8.18 8.62
4/24/2022 5:00:00 PM 13.97 57.146 0.03 7.23 7.9 8.58
4/24/2022 5:15:00 PM 13.92 57.056 0.029 7.21 8.66 8.53
4/24/2022 5:30:00 PM 13.84 56.912 0.029 7.21 8.04 8.48
4/24/2022 5:45:00 PM 13.77 56.786 0.029 7.18 8.29 8.48
4/24/2022 6:00:00 PM 13.7 56.66 0.029 7.2 8.2 8.53
4/24/2022 6:15:00 PM 13.63 56.534 0.029 7.19 8.09 8.55
4/24/2022 6:30:00 PM 13.54 56.372 0.029 7.19 8.13 8.57
4/24/2022 6:45:00 PM 13.44 56.192 0.029 7.19 8.5 8.53
4/24/2022 7:00:00 PM 13.34 56.012 0.029 7.17 8.67 8.51
4/24/2022 7:15:00 PM 13.23 55.814 0.029 7.17 8.07 8.53
4/24/2022 7:30:00 PM 13.12 55.616 0.029 7.14 8.31 8.54
4/24/2022 7:45:00 PM 13 55.4 0.029 7.15 8.12 8.55
4/24/2022 8:00:00 PM 12.87 55.166 0.029 7.13 8.44 8.55
4/24/2022 8:15:00 PM 12.74 54.932 0.029 7.11 8.32 8.57
4/24/2022 8:30:00 PM 12.61 54.698 0.029 7.1 8.54 8.53
4/24/2022 8:45:00 PM 12.48 54.464 0.029 7.08 8.85 8.56
4/24/2022 9:00:00 PM 12.36 54.248 0.029 7.05 8.7 8.6
4/24/2022 9:15:00 PM 12.24 54.032 0.029 7.07 8.93 8.69
4/24/2022 9:30:00 PM 12.12 53.816 0.029 7.07 9.06 8.73
4/24/2022 9:45:00 PM 12 53.6 0.029 7.06 8.93 8.76
4/24/2022 10:00:00 PM 11.89 53.402 0.029 7.05 8.57 8.78
4/24/2022 10:15:00 PM 11.77 53.186 0.029 7.06 8.88 8.82
4/24/2022 10:30:00 PM 11.66 52.988 0.029 7.03 8.89 8.84
4/24/2022 10:45:00 PM 11.55 52.79 0.029 7.05 8.77 8.87
4/24/2022 11:00:00 PM 11.44 52.592 0.029 7.05 9.24 8.9
4/24/2022 11:15:00 PM 11.34 52.412 0.029 7.04 9 8.96
4/24/2022 11:30:00 PM 11.23 52.214 0.029 7.05 9.41 8.98
4/24/2022 11:45:00 PM 11.14 52.052 0.029 7.05 8.54 9
4/25/2022 12:00:00 AM 11.04 51.872 0.029 7.01 8.02 9.05
4/25/2022 12:15:00 AM 10.95 51.71 0.029 7.03 8.62 9.13
4/25/2022 12:30:00 AM 10.86 51.548 0.029 7.02 8.51 9.16
4/25/2022 12:45:00 AM 10.77 51.386 0.029 7.01 8.83 9.25
4/25/2022 1:00:00 AM 10.68 51.224 0.029 7 8.64 9.23
4/25/2022 1:15:00 AM 10.59 51.062 0.029 7.03 8.98 9.26
4/25/2022 1:30:00 AM 10.5 50.9 0.029 7.01 8.56 9.24
4/25/2022 1:45:00 AM 10.42 50.756 0.029 7.02 8.6 9.26
4/25/2022 2:00:00 AM 10.33 50.594 0.029 7.05 8.96 9.27
4/25/2022 2:15:00 AM 10.25 50.45 0.029 7.04 9.02 9.31
4/25/2022 2:30:00 AM 10.17 50.306 0.029 7.04 8.87 9.38
4/25/2022 2:45:00 AM 10.09 50.162 0.029 7.03 8.84 9.43
4/25/2022 3:00:00 AM 10.01 50.018 0.029 7.02 8.24 9.45
4/25/2022 3:15:00 AM 9.94 49.892 0.029 7.01 9.9 9.46
4/25/2022 3:30:00 AM 9.86 49.748 0.029 6.88 9.11 9.49
4/25/2022 3:45:00 AM 9.79 49.622 0.029 6.97 8.57 9.52
4/25/2022 4:00:00 AM 9.72 49.496 0.029 7.01 8.68 9.58
4/25/2022 4:15:00 AM 9.65 49.37 0.029 7 8.66 9.64
4/25/2022 4:30:00 AM 9.58 49.244 0.029 6.92 9.91 9.66
4/25/2022 4:45:00 AM 9.52 49.136 0.029 7.03 7.86 9.61
4/25/2022 5:00:00 AM 9.45 49.01 0.029 6.88 7.74 9.64
4/25/2022 5:15:00 AM 9.4 48.92 0.029 7.03 8 9.64
4/25/2022 5:30:00 AM 9.34 48.812 0.029 6.99 8.37 9.65
4/25/2022 5:45:00 AM 9.29 48.722 0.029 7.04 7.95 9.68
4/25/2022 6:00:00 AM 9.24 48.632 0.029 6.95 8.16 9.7
4/25/2022 6:15:00 AM 9.19 48.542 0.029 6.99 8.38 9.77
4/25/2022 6:30:00 AM 9.14 48.452 0.029 6.99 7.56 9.82
4/25/2022 6:45:00 AM 9.1 48.38 0.029 6.97 7.92 9.86
4/25/2022 7:00:00 AM 9.06 48.308 0.029 7 7.86 9.91
4/25/2022 7:15:00 AM 9.03 48.254 0.029 6.99 8.07 9.96
4/25/2022 7:30:00 AM 9.01 48.218 0.029 6.98 7.71 10.01
4/25/2022 7:45:00 AM 9.01 48.218 0.029 7.04 7.71 10.07
4/25/2022 8:00:00 AM 9.01 48.218 0.029 6.99 7.65 10.09
4/25/2022 8:15:00 AM 9.03 48.254 0.029 7.05 7.59 10.12
4/25/2022 8:30:00 AM 9.07 48.326 0.03 7.06 7.89 10.19
4/25/2022 8:45:00 AM 9.12 48.416 0.03 7.03 7.76 10.2
4/25/2022 9:00:00 AM 9.18 48.524 0.03 7.08 7.43 10.2
4/25/2022 9:15:00 AM 9.23 48.614 0.03 7.04 7.48 10.18
4/25/2022 9:30:00 AM 9.3 48.74 0.03 7.05 7.45 10.18
4/25/2022 9:45:00 AM 9.39 48.902 0.03 7.07 7.53 10.18
4/25/2022 10:00:00 AM 9.53 49.154 0.03 7.09 7.92 10.15
4/25/2022 10:15:00 AM 9.68 49.424 0.03 7.1 8.02 10.14
4/25/2022 10:30:00 AM 9.85 49.73 0.03 7.09 7.34 10.12
4/25/2022 10:45:00 AM 10.04 50.072 0.03 7.08 7.46 10.08
4/25/2022 11:00:00 AM 10.24 50.432 0.03 7.12 7.45 10.05
4/25/2022 11:15:00 AM 10.46 50.828 0.03 7.1 7.43 9.99
4/25/2022 11:30:00 AM 10.7 51.26 0.03 7.13 7.45 9.94
4/25/2022 11:45:00 AM 10.95 51.71 0.03 7.12 7.51 9.87
4/25/2022 12:00:00 PM 11.22 52.196 0.03 7.11 7.18 9.81
4/25/2022 12:15:00 PM 11.49 52.682 0.03 7.14 7.51 9.7
4/25/2022 12:30:00 PM 11.78 53.204 0.03 7.12 7.82 9.6
4/25/2022 12:45:00 PM 12.06 53.708 0.03 7.14 7.38 9.51
4/25/2022 1:00:00 PM 12.35 54.23 0.03 7.12 7.99 9.43
4/25/2022 1:15:00 PM 12.64 54.752 0.03 7.15 9.01 9.33
4/25/2022 1:30:00 PM 12.93 55.274 0.031 7.13 7.52 9.29
4/25/2022 1:45:00 PM 13.21 55.778 0.031 7.14 7.52 9.24
4/25/2022 2:00:00 PM 13.47 56.246 0.031 7.14 7.52 9.14
4/25/2022 2:15:00 PM 13.73 56.714 0.031 7.17 7.96 9.07
4/25/2022 2:30:00 PM 13.95 57.11 0.031 7.14 7.44 9
4/25/2022 2:45:00 PM 14.17 57.506 0.031 7.14 7.1 8.92
4/25/2022 3:00:00 PM 14.39 57.902 0.031 7.17 7.62 8.83
4/25/2022 3:15:00 PM 14.58 58.244 0.031 7.17 7.99 8.76
4/25/2022 3:30:00 PM 14.72 58.496 0.031 7.18 7.42 8.7
4/25/2022 3:45:00 PM 14.75 58.55 0.031 7.17 7.46 8.62
4/25/2022 4:00:00 PM 14.8 58.64 0.031 7.16 7.24 8.59
4/25/2022 4:15:00 PM 14.84 58.712 0.031 7.11 7.43 8.57
4/25/2022 4:30:00 PM 14.88 58.784 0.031 7.21 7.56 8.55
4/25/2022 4:45:00 PM 14.89 58.802 0.031 7.24 7.55 8.52
4/25/2022 5:00:00 PM 14.86 58.748 0.031 7.22 7.69 8.47
4/25/2022 5:15:00 PM 14.78 58.604 0.032 7.16 7.46 8.43
4/25/2022 5:30:00 PM 14.7 58.46 0.032 7.2 7.77 8.47
4/25/2022 5:45:00 PM 14.67 58.406 0.032 7.19 7.49 8.47
4/25/2022 6:00:00 PM 14.62 58.316 0.032 7.15 7.97 8.45
4/25/2022 6:15:00 PM 14.58 58.244 0.032 7.15 7.48 8.44
4/25/2022 6:30:00 PM 14.5 58.1 0.032 7.13 8.53 8.46
4/25/2022 6:45:00 PM 14.41 57.938 0.032 7.16 7.58 8.47
4/25/2022 7:00:00 PM 14.31 57.758 0.032 7.13 7.53 8.46
4/25/2022 7:15:00 PM 14.2 57.56 0.032 7.19 7.33 8.43
4/25/2022 7:30:00 PM 14.09 57.362 0.032 7.07 7.19 8.45
4/25/2022 7:45:00 PM 13.97 57.146 0.032 7.13 7.45 8.41
4/25/2022 8:00:00 PM 13.83 56.894 0.032 7.14 7.9 8.4
4/25/2022 8:15:00 PM 13.69 56.642 0.032 7.1 8.42 8.39
4/25/2022 8:30:00 PM 13.56 56.408 0.032 7.11 7.72 8.43
4/25/2022 8:45:00 PM 13.44 56.192 0.032 7.11 7.98 8.41
4/25/2022 9:00:00 PM 13.33 55.994 0.032 7.07 7.66 8.45
4/25/2022 9:15:00 PM 13.21 55.778 0.032 7.08 8.01 8.48
4/25/2022 9:30:00 PM 13.1 55.58 0.032 7.11 9.13 8.51
4/25/2022 9:45:00 PM 12.99 55.382 0.032 7.1 7.75 8.56
4/25/2022 10:00:00 PM 12.88 55.184 0.032 7.1 7.7 8.57
4/25/2022 10:15:00 PM 12.77 54.986 0.032 7.1 8.15 8.65
4/25/2022 10:30:00 PM 12.66 54.788 0.032 7.06 7.81 8.73
4/25/2022 10:45:00 PM 12.56 54.608 0.032 7.07 7.88 8.72
4/25/2022 11:00:00 PM 12.46 54.428 0.032 7 8.09 8.73
4/25/2022 11:15:00 PM 12.36 54.248 0.033 7.06 8.33 8.78
4/25/2022 11:30:00 PM 12.26 54.068 0.033 7.01 8.17 8.77
4/25/2022 11:45:00 PM 12.17 53.906 0.033 7.04 8.06 8.84
4/26/2022 12:00:00 AM 12.08 53.744 0.033 7.03 8.28 8.86
4/26/2022 12:15:00 AM 11.99 53.582 0.033 7.1 8.63 8.87
4/26/2022 12:30:00 AM 11.91 53.438 0.033 7.02 7.93 8.88
4/26/2022 12:45:00 AM 11.82 53.276 0.033 7.1 8.52 8.89
4/26/2022 1:00:00 AM 11.74 53.132 0.033 7.02 9 8.96
4/26/2022 1:15:00 AM 11.66 52.988 0.033 7.06 8.08 8.95
4/26/2022 1:30:00 AM 11.58 52.844 0.033 7.08 8.69 9
4/26/2022 1:45:00 AM 11.5 52.7 0.033 7.05 7.82 9
4/26/2022 2:00:00 AM 11.43 52.574 0.033 7.07 8.76 9.04
4/26/2022 2:15:00 AM 11.37 52.466 0.033 7.09 7.95 9.07
4/26/2022 2:30:00 AM 11.3 52.34 0.033 7.04 8.5 9.05
4/26/2022 2:45:00 AM 11.23 52.214 0.033 7.04 8.39 9.07
4/26/2022 3:00:00 AM 11.17 52.106 0.033 7.01 7.97 9.07
4/26/2022 3:15:00 AM 11.11 51.998 0.033 7.01 8.26 9.12
4/26/2022 3:30:00 AM 11.05 51.89 0.033 7.08 8.3 9.12
4/26/2022 3:45:00 AM 10.99 51.782 0.033 7.01 8.35 9.16
4/26/2022 4:00:00 AM 10.93 51.674 0.033 7.03 8.56 9.19
4/26/2022 4:15:00 AM 10.88 51.584 0.033 7.06 8.25 9.24
4/26/2022 4:30:00 AM 10.82 51.476 0.033 7.07 8.17 9.26
4/26/2022 4:45:00 AM 10.77 51.386 0.033 7.06 8.13 9.27
4/26/2022 5:00:00 AM 10.72 51.296 0.033 7.07 8.14 9.26
4/26/2022 5:15:00 AM 10.67 51.206 0.033 7.05 8.51 9.29
4/26/2022 5:30:00 AM 10.63 51.134 0.034 7.05 8.1 9.33
4/26/2022 5:45:00 AM 10.58 51.044 0.034 7 8.52 9.32
4/26/2022 6:00:00 AM 10.54 50.972 0.034 7.06 8.3 9.34
4/26/2022 6:15:00 AM 10.49 50.882 0.034 7.06 8.72 9.36
4/26/2022 6:30:00 AM 10.45 50.81 0.034 7.06 8.02 9.41
4/26/2022 6:45:00 AM 10.41 50.738 0.034 7.08 8.25 9.41
4/26/2022 7:00:00 AM 10.37 50.666 0.034 7.09 8.57 9.46
4/26/2022 7:15:00 AM 10.33 50.594 0.034 7.09 8.02 9.51
4/26/2022 7:30:00 AM 10.29 50.522 0.034 7.1 8.37 9.52
4/26/2022 7:45:00 AM 10.27 50.486 0.034 7.12 8.57 9.58
4/26/2022 8:00:00 AM 10.25 50.45 0.034 7.12 7.93 9.62
4/26/2022 8:15:00 AM 10.23 50.414 0.034 7.14 7.77 9.65
4/26/2022 8:30:00 AM 10.22 50.396 0.034 7.15 7.7 9.67
4/26/2022 8:45:00 AM 10.21 50.378 0.034 7.16 8.4 9.68
4/26/2022 9:00:00 AM 10.2 50.36 0.034 7.16 7.8 9.6
4/26/2022 9:15:00 AM 10.19 50.342 0.034 7.17 7.76 9.69
4/26/2022 9:30:00 AM 10.18 50.324 0.034 7.18 7.9 9.75
4/26/2022 9:45:00 AM 10.2 50.36 0.034 7.18 7.86 9.76
4/26/2022 10:00:00 AM 10.22 50.396 0.034 7.19 7.59 9.76
4/26/2022 10:15:00 AM 10.25 50.45 0.034 7.2 8.17 9.77
4/26/2022 10:30:00 AM 10.28 50.504 0.034 7.2 7.57 9.75
4/26/2022 10:45:00 AM 10.28 50.504 0.034 7.21 7.7 9.77
4/26/2022 11:00:00 AM 10.3 50.54 0.034 7.21 7.66 9.79
4/26/2022 11:15:00 AM 10.32 50.576 0.034 7.21 7.61 9.78
4/26/2022 11:30:00 AM 10.37 50.666 0.034 6.97 7.64 9.8
4/26/2022 11:45:00 AM 10.41 50.738 0.034 7.21 7.72 9.8
4/26/2022 12:00:00 PM 10.45 50.81 0.035 7.18 7.81 9.82
4/26/2022 12:15:00 PM 10.5 50.9 0.035 7.22 7.94 9.81
4/26/2022 12:30:00 PM 10.55 50.99 0.035 7.23 7.84 9.83
4/26/2022 12:45:00 PM 10.61 51.098 0.035 7.23 7.46 9.8
4/26/2022 1:00:00 PM 10.66 51.188 0.035 7.23 7.91 9.79
4/26/2022 1:15:00 PM 10.68 51.224 0.035 7.23 8 9.77
4/26/2022 1:30:00 PM 10.67 51.206 0.035 7.23 7.94 9.74
4/26/2022 1:45:00 PM 10.66 51.188 0.035 7.22 8.03 9.74
4/26/2022 2:00:00 PM 10.64 51.152 0.035 7.18 7.78 9.71
4/26/2022 2:15:00 PM 10.62 51.116 0.035 7.21 7.9 9.7
4/26/2022 2:30:00 PM 10.61 51.098 0.035 7.22 8.04 9.71
4/26/2022 2:45:00 PM 10.59 51.062 0.035 7.21 8.2 9.71
4/26/2022 3:00:00 PM 10.59 51.062 0.035 7.22 7.71 9.71
4/26/2022 3:15:00 PM 10.58 51.044 0.035 7.21 8.08 9.7
4/26/2022 3:30:00 PM 10.58 51.044 0.035 7.21 7.76 9.73
4/26/2022 3:45:00 PM 10.57 51.026 0.035 7.21 7.83 9.74
4/26/2022 4:00:00 PM 10.56 51.008 0.035 7.21 7.74 9.72
4/26/2022 4:15:00 PM 10.54 50.972 0.035 7.14 7.8 9.71
4/26/2022 4:30:00 PM 10.52 50.936 0.035 7.21 7.6 9.71
4/26/2022 4:45:00 PM 10.51 50.918 0.035 7.21 8.17 9.73
4/26/2022 5:00:00 PM 10.54 50.972 0.035 7.23 7.64 9.78
4/26/2022 5:15:00 PM 10.56 51.008 0.036 7.22 8.53 9.75
4/26/2022 5:30:00 PM 10.57 51.026 0.036 7.22 8.06 9.74
4/26/2022 5:45:00 PM 10.57 51.026 0.036 7.22 7.67 9.75
4/26/2022 6:00:00 PM 10.55 50.99 0.036 7.2 7.43 9.73
4/26/2022 6:15:00 PM 10.53 50.954 0.036 7.22 7.46 9.74
4/26/2022 6:30:00 PM 10.49 50.882 0.036 7.21 7.43 9.74
4/26/2022 6:45:00 PM 10.45 50.81 0.036 7.2 7.62 9.72
4/26/2022 7:00:00 PM 10.39 50.702 0.036 7.19 7.97 9.7
4/26/2022 7:15:00 PM 10.32 50.576 0.036 7.17 7.54 9.71
4/26/2022 7:30:00 PM 10.24 50.432 0.036 7.19 7.37 9.72
4/26/2022 7:45:00 PM 10.16 50.288 0.036 7.08 7.68 9.69
4/26/2022 8:00:00 PM 10.08 50.144 0.036 7.16 7.43 9.67
4/26/2022 8:15:00 PM 9.99 49.982 0.036 7.15 7.54 9.68
4/26/2022 8:30:00 PM 9.91 49.838 0.036 7.15 8.07 9.69
4/26/2022 8:45:00 PM 9.84 49.712 0.036 6.92 7.81 9.7
4/26/2022 9:00:00 PM 9.77 49.586 0.036 7.11 7.78 9.7
4/26/2022 9:15:00 PM 9.68 49.424 0.036 7.11 7.85 9.69
4/26/2022 9:30:00 PM 9.6 49.28 0.036 7.12 7.75 9.73
4/26/2022 9:45:00 PM 9.53 49.154 0.036 7.13 7.73 9.75
4/26/2022 10:00:00 PM 9.46 49.028 0.036 7.13 7.99 9.77
4/26/2022 10:15:00 PM 9.38 48.884 0.036 7.11 7.77 9.79
4/26/2022 10:30:00 PM 9.31 48.758 0.036 7.12 8.04 9.82
4/26/2022 10:45:00 PM 9.23 48.614 0.036 7.13 8.44 9.84
4/26/2022 11:00:00 PM 9.16 48.488 0.036 7.11 8.37 9.87
4/26/2022 11:15:00 PM 9.08 48.344 0.036 7.12 8.44 9.91
4/26/2022 11:30:00 PM 9.01 48.218 0.036 7.11 8.21 9.94
4/26/2022 11:45:00 PM 8.93 48.074 0.036 7.12 8.01 9.93
4/27/2022 12:00:00 AM 8.85 47.93 0.036 7.11 8.36 9.95
4/27/2022 12:15:00 AM 8.77 47.786 0.037 7.12 8.88 9.93
4/27/2022 12:30:00 AM 8.69 47.642 0.037 7.12 8.15 9.96
4/27/2022 12:45:00 AM 8.61 47.498 0.037 7.12 8.38 10.04
4/27/2022 1:00:00 AM 8.53 47.354 0.037 7.11 8.1 10.04
4/27/2022 1:15:00 AM 8.45 47.21 0.037 7.12 8.27 10.09
4/27/2022 1:30:00 AM 8.38 47.084 0.037 7.12 8.28 10.11
4/27/2022 1:45:00 AM 8.32 46.976 0.037 6.97 8.49 10.12
4/27/2022 2:00:00 AM 8.26 46.868 0.037 7.1 8.27 10.11
4/27/2022 2:15:00 AM 8.19 46.742 0.037 7.12 8.17 10.15
4/27/2022 2:30:00 AM 8.12 46.616 0.037 7.12 8.1 10.2
4/27/2022 2:45:00 AM 8.06 46.508 0.037 7.12 8.12 10.21
4/27/2022 3:00:00 AM 8.01 46.418 0.037 7.09 8.71 10.24
4/27/2022 3:15:00 AM 7.95 46.31 0.037 7.1 8.21 10.29
4/27/2022 3:30:00 AM 7.88 46.184 0.037 7.12 8.41 10.29
4/27/2022 3:45:00 AM 7.81 46.058 0.037 6.96 8.51 10.32
4/27/2022 4:00:00 AM 7.75 45.95 0.037 7.12 8.16 10.31
4/27/2022 4:15:00 AM 7.69 45.842 0.037 7.12 8 10.34
4/27/2022 4:30:00 AM 7.62 45.716 0.037 7.12 8.08 10.37
4/27/2022 4:45:00 AM 7.56 45.608 0.037 7.13 8.25 10.39
4/27/2022 5:00:00 AM 7.51 45.518 0.037 7.12 8.48 10.41
4/27/2022 5:15:00 AM 7.46 45.428 0.037 7.12 8.33 10.42
4/27/2022 5:30:00 AM 7.41 45.338 0.037 7.09 8.18 10.45
4/27/2022 5:45:00 AM 7.36 45.248 0.037 7.11 8.15 10.48
4/27/2022 6:00:00 AM 7.31 45.158 0.037 7.1 8.29 10.5
4/27/2022 6:15:00 AM 7.26 45.068 0.038 7.12 8 10.51
4/27/2022 6:30:00 AM 7.2 44.96 0.038 7.12 8.25 10.55
4/27/2022 6:45:00 AM 7.15 44.87 0.038 7.13 8.12 10.57
4/27/2022 7:00:00 AM 7.11 44.798 0.038 7.01 8.41 10.61
4/27/2022 7:15:00 AM 7.08 44.744 0.038 7.14 8.06 10.61
4/27/2022 7:30:00 AM 7.05 44.69 0.038 7.14 7.87 10.65
4/27/2022 7:45:00 AM 7.02 44.636 0.038 7.04 8.14 10.67
4/27/2022 8:00:00 AM 6.99 44.582 0.038 7.15 7.92 10.71
4/27/2022 8:15:00 AM 6.97 44.546 0.038 7.15 7.94 10.74
4/27/2022 8:30:00 AM 6.94 44.492 0.038 7.16 8.02 10.78
4/27/2022 8:45:00 AM 6.93 44.474 0.038 7.18 8.05 10.84
4/27/2022 9:00:00 AM 6.93 44.474 0.038 7.19 7.86 10.86
4/27/2022 9:15:00 AM 6.94 44.492 0.038 7.21 8.21 10.87
4/27/2022 9:30:00 AM 6.96 44.528 0.038 7.21 8.17 10.9
4/27/2022 9:45:00 AM 6.97 44.546 0.038 7.21 7.95 10.92
4/27/2022 10:00:00 AM 6.96 44.528 0.038 7.07 8.9 10.92
4/27/2022 10:15:00 AM 6.94 44.492 0.038 7.19 7.79 10.92
4/27/2022 10:30:00 AM 7.01 44.618 0.038 7.2 7.86 10.95
4/27/2022 10:45:00 AM 7.01 44.618 0.038 7.21 8.28 10.96
4/27/2022 11:00:00 AM 7.11 44.798 0.038 7.22 7.88 10.99
4/27/2022 11:15:00 AM 7.21 44.978 0.038 7.08 8.09 10.92
4/27/2022 11:30:00 AM 7.22 44.996 0.038 7.22 8.02 10.92
4/27/2022 11:45:00 AM 7.28 45.104 0.038 7.12 7.86 10.91
4/27/2022 12:00:00 PM 7.31 45.158 0.038 7.21 7.93 10.87
4/27/2022 12:15:00 PM 7.27 45.086 0.038 7.2 7.72 10.87
4/27/2022 12:30:00 PM 7.25 45.05 0.038 7.23 7.69 10.89
4/27/2022 12:45:00 PM 7.24 45.032 0.038 7.21 8.07 10.92
4/27/2022 1:00:00 PM 7.25 45.05 0.038 7.24 10.28 10.9
4/27/2022 1:15:00 PM 7.28 45.104 0.038 7.22 7.89 10.92
4/27/2022 1:30:00 PM 7.3 45.14 0.039 7.21 7.76 10.91
4/27/2022 1:45:00 PM 7.34 45.212 0.039 7.23 7.87 10.86
4/27/2022 2:00:00 PM 7.32 45.176 0.039 7.23 7.82 10.87
4/27/2022 2:15:00 PM 7.33 45.194 0.039 7.08 7.71 10.88
4/27/2022 2:30:00 PM 7.39 45.302 0.039 7.19 7.92 10.84
4/27/2022 2:45:00 PM 7.36 45.248 0.039 7.22 7.9 10.82
4/27/2022 3:00:00 PM 7.35 45.23 0.039 7.22 8.04 10.85
4/27/2022 3:15:00 PM 7.35 45.23 0.039 7.22 8.86 10.83
4/27/2022 3:30:00 PM 7.27 45.086 0.039 7.22 7.78 10.87
4/27/2022 3:45:00 PM 7.24 45.032 0.039 7.02 7.87 10.85
4/27/2022 4:00:00 PM 7.18 44.924 0.039 7.17 8.01 10.85
4/27/2022 4:15:00 PM 7.12 44.816 0.039 7.18 8.05 10.87
4/27/2022 4:30:00 PM 7.07 44.726 0.039 7.19 7.96 10.89
4/27/2022 4:45:00 PM 7.03 44.654 0.039 7.2 8.17 10.89
4/27/2022 5:00:00 PM 7.01 44.618 0.039 7.02 8.02 10.91
4/27/2022 5:15:00 PM 6.96 44.528 0.039 7.2 9.34 10.92
4/27/2022 5:30:00 PM 6.9 44.42 0.039 7.2 7.99 10.93
4/27/2022 5:45:00 PM 6.84 44.312 0.039 7.19 7.94 10.9
4/27/2022 6:00:00 PM 6.79 44.222 0.039 7.14 7.89 10.97
4/27/2022 6:15:00 PM 6.74 44.132 0.039 7.11 7.99 10.95
4/27/2022 6:30:00 PM 6.67 44.006 0.039 7.11 7.96 10.94
4/27/2022 6:45:00 PM 6.61 43.898 0.039 7.12 8.02 10.95
4/27/2022 7:00:00 PM 6.54 43.772 0.039 7.15 8.21 10.95
4/27/2022 7:15:00 PM 6.46 43.628 0.039 7.15 8.51 10.95
4/27/2022 7:30:00 PM 6.39 43.502 0.039 7.04 8.21 10.96
4/27/2022 7:45:00 PM 6.32 43.376 0.039 7.14 8.19 10.96
4/27/2022 8:00:00 PM 6.26 43.268 0.039 7.14 8.68 10.95
4/27/2022 8:15:00 PM 6.2 43.16 0.039 7.14 8.16 10.97
4/27/2022 8:30:00 PM 6.14 43.052 0.04 7.12 8.46 10.96
4/27/2022 8:45:00 PM 6.08 42.944 0.04 7.13 8.77 10.99
4/27/2022 9:00:00 PM 6.03 42.854 0.04 6.96 8.28 10.99
4/27/2022 9:15:00 PM 5.99 42.782 0.04 7.13 8.41 11.02
4/27/2022 9:30:00 PM 5.94 42.692 0.04 6.99 8.48 11.01
4/27/2022 9:45:00 PM 5.9 42.62 0.04 7.11 8.69 11.04
4/27/2022 10:00:00 PM 5.87 42.566 0.04 7.02 8.47 11.04
4/27/2022 10:15:00 PM 5.84 42.512 0.04 7.06 8.31 11.09
4/27/2022 10:30:00 PM 5.8 42.44 0.04 7.12 8.67 11.09
4/27/2022 10:45:00 PM 5.76 42.368 0.04 7.04 8.61 11.11
4/27/2022 11:00:00 PM 5.72 42.296 0.04 6.99 8.26 11.13
4/27/2022 11:15:00 PM 5.68 42.224 0.04 7.08 8.51 11.12
4/27/2022 11:30:00 PM 5.65 42.17 0.04 7.1 8.55 11.18
4/27/2022 11:45:00 PM 5.61 42.098 0.04 7.11 8.31 11.18
4/28/2022 12:00:00 AM 5.57 42.026 0.04 6.91 8.37 11.16
4/28/2022 12:15:00 AM 5.53 41.954 0.04 7.09 8.54 11.17
4/28/2022 12:30:00 AM 5.5 41.9 0.04 7.11 8.4 11.13
4/28/2022 12:45:00 AM 5.46 41.828 0.04 7.1 8.36 11.2
4/28/2022 1:00:00 AM 5.43 41.774 0.04 7.11 8.36 11.18
4/28/2022 1:15:00 AM 5.39 41.702 0.04 7.1 8.38 11.23
4/28/2022 1:30:00 AM 5.35 41.63 0.04 6.99 8.44 11.26
4/28/2022 1:45:00 AM 5.31 41.558 0.04 7.05 9.11 11.23
4/28/2022 2:00:00 AM 5.28 41.504 0.04 7.09 10.61 11.26
4/28/2022 2:15:00 AM 5.25 41.45 0.04 6.94 8.49 11.26
4/28/2022 2:30:00 AM 5.22 41.396 0.04 7.1 7.87 11.28
4/28/2022 2:45:00 AM 5.2 41.36 0.04 6.97 8.35 11.29
4/28/2022 3:00:00 AM 5.17 41.306 0.04 7.1 8 11.31
4/28/2022 3:15:00 AM 5.14 41.252 0.04 7 7.74 11.31
4/28/2022 3:30:00 AM 5.11 41.198 0.04 7.07 8.3 11.32
4/28/2022 3:45:00 AM 5.08 41.144 0.04 7.03 7.89 11.35
4/28/2022 4:00:00 AM 5.06 41.108 0.04 7.09 7.84 11.34
4/28/2022 4:15:00 AM 5.04 41.072 0.04 7.09 13.57 11.35
4/28/2022 4:30:00 AM 5.01 41.018 0.04 7.11 8.12 11.37
4/28/2022 4:45:00 AM 4.99 40.982 0.04 7.09 7.95 11.36
4/28/2022 5:00:00 AM 4.97 40.946 0.04 7.1 8.16 11.38
4/28/2022 5:15:00 AM 4.95 40.91 0.04 7.06 8 11.39
4/28/2022 5:30:00 AM 4.93 40.874 0.04 7.07 7.89 11.39
4/28/2022 5:45:00 AM 4.9 40.82 0.04 7.1 7.79 11.38
4/28/2022 6:00:00 AM 4.88 40.784 0.041 7.08 7.83 11.45
4/28/2022 6:15:00 AM 4.86 40.748 0.041 7.05 7.91 11.42
4/28/2022 6:30:00 AM 4.84 40.712 0.041 7.07 8.09 11.44
4/28/2022 6:45:00 AM 4.82 40.676 0.041 7.01 8.28 11.45
4/28/2022 7:00:00 AM 4.8 40.64 0.041 7.07 8.02 11.52
4/28/2022 7:15:00 AM 4.78 40.604 0.041 7.12 7.89 11.55
4/28/2022 7:30:00 AM 4.76 40.568 0.041 7.11 8.04 11.59
4/28/2022 7:45:00 AM 4.76 40.568 0.041 7.15 8.01 11.66
4/28/2022 8:00:00 AM 4.76 40.568 0.041 7.03 7.87 11.68
4/28/2022 8:15:00 AM 4.77 40.586 0.041 7.13 8.2 11.68
4/28/2022 8:30:00 AM 4.79 40.622 0.041 7.12 7.89 11.72
4/28/2022 8:45:00 AM 4.8 40.64 0.041 7.15 7.66 11.71
4/28/2022 9:00:00 AM 4.82 40.676 0.041 7.11 8.34 11.73
4/28/2022 9:15:00 AM 4.89 40.802 0.041 7.15 7.6 11.71
4/28/2022 9:30:00 AM 4.98 40.964 0.041 7.1 7.92 11.68
4/28/2022 9:45:00 AM 5.2 41.36 0.043 7.46 1.2 12.2
4/28/2022 10:00:00 AM 5.3 41.54 0.043 7.17 1 12.17
4/28/2022 10:15:00 AM 5.43 41.774 0.042 7.11 0.92 12.15
4/28/2022 10:30:00 AM 5.6 42.08 0.042 7.1 1.2 12.12
4/28/2022 10:45:00 AM 5.76 42.368 0.042 7.09 0.96 12.08
4/28/2022 11:00:00 AM 5.96 42.728 0.042 7.08 1.01 12.03
4/28/2022 11:15:00 AM 6.17 43.106 0.042 7.08 0.86 12
4/28/2022 11:30:00 AM 6.39 43.502 0.042 7.08 0.84 11.95
4/28/2022 11:45:00 AM 6.64 43.952 0.042 7.08 0.96 11.89
4/28/2022 12:00:00 PM 6.92 44.456 0.042 7.08 0.85 11.83
4/28/2022 12:15:00 PM 7.19 44.942 0.042 7.08 1.11 11.76
4/28/2022 12:30:00 PM 7.46 45.428 0.042 7.08 0.86 11.7
4/28/2022 12:45:00 PM 7.75 45.95 0.042 7.09 1.02 11.63
4/28/2022 1:00:00 PM 7.99 46.382 0.042 7.09 1.01 11.56
4/28/2022 1:15:00 PM 8.28 46.904 0.042 7.1 0.93 11.49
4/28/2022 1:30:00 PM 8.54 47.372 0.042 7.09 0.86 11.43
4/28/2022 1:45:00 PM 8.78 47.804 0.042 7.09 0.92 11.35
4/28/2022 2:00:00 PM 9.01 48.218 0.042 7.09 1.32 11.29
4/28/2022 2:15:00 PM 9.26 48.668 0.042 7.1 1.05 11.22
4/28/2022 2:30:00 PM 9.5 49.1 0.042 7.1 1.06 11.15
4/28/2022 2:45:00 PM 9.69 49.442 0.042 7.1 0.96 11.1
4/28/2022 3:00:00 PM 9.87 49.766 0.042 7.11 1.2 11.03
4/28/2022 3:15:00 PM 10.04 50.072 0.042 7.11 1.01 10.99
4/28/2022 3:30:00 PM 10.17 50.306 0.042 7.11 1.17 10.94
4/28/2022 3:45:00 PM 10.29 50.522 0.042 7.11 0.99 10.89
4/28/2022 4:00:00 PM 10.38 50.684 0.042 7.11 0.97 10.87
4/28/2022 4:15:00 PM 10.41 50.738 0.042 7.1 1.3 10.84
4/28/2022 4:30:00 PM 10.4 50.72 0.042 7.11 1.04 10.82
4/28/2022 4:45:00 PM 10.41 50.738 0.042 7.11 1.05 10.8
4/28/2022 5:00:00 PM 10.36 50.648 0.042 7.11 0.99 10.8
4/28/2022 5:15:00 PM 10.26 50.468 0.042 7.1 1.18 10.79
4/28/2022 5:30:00 PM 10.12 50.216 0.042 7.1 1.22 10.8
4/28/2022 5:45:00 PM 9.97 49.946 0.042 7.1 1.09 10.81
4/28/2022 6:00:00 PM 9.86 49.748 0.042 7.09 1.07 10.81
4/28/2022 6:15:00 PM 9.72 49.496 0.042 7.09 1.18 10.82
4/28/2022 6:30:00 PM 9.59 49.262 0.042 7.08 1.13 10.83
4/28/2022 6:45:00 PM 9.44 48.992 0.042 7.07 1.12 10.84
4/28/2022 7:00:00 PM 9.3 48.74 0.042 7.07 1.04 10.85
4/28/2022 7:15:00 PM 9.16 48.488 0.042 7.06 1.12 10.87
4/28/2022 7:30:00 PM 9.03 48.254 0.042 7.05 1.09 10.88
4/28/2022 7:45:00 PM 8.9 48.02 0.042 7.04 1.1 10.89
4/28/2022 8:00:00 PM 8.76 47.768 0.042 7.03 1.07 10.9
4/28/2022 8:15:00 PM 8.63 47.534 0.042 7.01 1.14 10.91
4/28/2022 8:30:00 PM 8.5 47.3 0.043 7 1.28 10.92
4/28/2022 8:45:00 PM 8.37 47.066 0.043 6.99 1.17 10.94
4/28/2022 9:00:00 PM 8.24 46.832 0.043 6.98 1.25 10.95
4/28/2022 9:15:00 PM 8.13 46.634 0.043 6.97 1.37 10.98
4/28/2022 9:30:00 PM 8.01 46.418 0.043 6.97 1.22 11
4/28/2022 9:45:00 PM 7.9 46.22 0.043 6.96 1.33 11.03
4/28/2022 10:00:00 PM 7.79 46.022 0.043 6.96 1.48 11.06
4/28/2022 10:15:00 PM 7.67 45.806 0.043 6.96 1.31 11.09
4/28/2022 10:30:00 PM 7.56 45.608 0.043 6.96 1.32 11.12
4/28/2022 10:45:00 PM 7.44 45.392 0.043 6.95 1.45 11.16
4/28/2022 11:00:00 PM 7.33 45.194 0.043 6.95 1.39 11.19
4/28/2022 11:15:00 PM 7.22 44.996 0.043 6.95 1.53 11.22
4/28/2022 11:30:00 PM 7.11 44.798 0.043 6.95 1.4 11.24
4/28/2022 11:45:00 PM 7 44.6 0.043 6.94 1.3 11.28
4/29/2022 12:00:00 AM 6.89 44.402 0.043 6.95 1.74 11.31
4/29/2022 12:15:00 AM 6.78 44.204 0.043 6.94 1.32 11.35
4/29/2022 12:30:00 AM 6.66 43.988 0.043 6.95 1.24 11.38
4/29/2022 12:45:00 AM 6.55 43.79 0.043 6.94 1.42 11.41
4/29/2022 1:00:00 AM 6.44 43.592 0.043 6.94 1.3 11.45
4/29/2022 1:15:00 AM 6.33 43.394 0.043 6.94 1.25 11.48
4/29/2022 1:30:00 AM 6.23 43.214 0.043 6.94 1.19 11.5
4/29/2022 1:45:00 AM 6.13 43.034 0.044 6.94 1.25 11.53
4/29/2022 2:00:00 AM 6.02 42.836 0.044 6.94 1.17 11.59
4/29/2022 2:15:00 AM 5.92 42.656 0.044 6.93 1.23 11.6
4/29/2022 2:30:00 AM 5.82 42.476 0.044 6.93 1.21 11.63
4/29/2022 2:45:00 AM 5.72 42.296 0.044 6.93 1.2 11.67
4/29/2022 3:00:00 AM 5.63 42.134 0.044 6.93 1.34 11.69
4/29/2022 3:15:00 AM 5.55 41.99 0.044 6.93 1.22 11.73
4/29/2022 3:30:00 AM 5.45 41.81 0.044 6.93 1.19 11.75
4/29/2022 3:45:00 AM 5.37 41.666 0.044 6.93 1.2 11.78
4/29/2022 4:00:00 AM 5.28 41.504 0.043 6.93 1.17 11.81
4/29/2022 4:15:00 AM 5.2 41.36 0.044 6.93 1.17 11.83
4/29/2022 4:30:00 AM 5.11 41.198 0.044 6.93 1.22 11.86
4/29/2022 4:45:00 AM 5.04 41.072 0.044 6.92 1.03 11.88
4/29/2022 5:00:00 AM 4.96 40.928 0.044 6.92 1.13 11.91
4/29/2022 5:15:00 AM 4.89 40.802 0.044 6.92 1.09 11.93
4/29/2022 5:30:00 AM 4.81 40.658 0.044 6.92 1.1 11.96
4/29/2022 5:45:00 AM 4.73 40.514 0.044 6.92 1.01 11.98
4/29/2022 6:00:00 AM 4.65 40.37 0.044 6.92 1.02 12.01
4/29/2022 6:15:00 AM 4.58 40.244 0.044 6.92 0.96 12.04
4/29/2022 6:30:00 AM 4.51 40.118 0.044 6.93 1.08 12.07
4/29/2022 6:45:00 AM 4.45 40.01 0.044 6.93 0.94 12.12
4/29/2022 7:00:00 AM 4.38 39.884 0.044 6.94 1.15 12.16
4/29/2022 7:15:00 AM 4.33 39.794 0.044 6.95 0.95 12.21
4/29/2022 7:30:00 AM 4.29 39.722 0.044 6.95 0.97 12.26
4/29/2022 7:45:00 AM 4.25 39.65 0.044 6.96 0.95 12.29
4/29/2022 8:00:00 AM 4.24 39.632 0.044 6.97 0.89 12.33
4/29/2022 8:15:00 AM 4.24 39.632 0.043 6.97 0.89 12.36
4/29/2022 8:30:00 AM 4.27 39.686 0.043 6.98 0.88 12.38
4/29/2022 8:45:00 AM 4.33 39.794 0.043 6.99 0.93 12.39
4/29/2022 9:00:00 AM 4.4 39.92 0.043 6.99 0.91 12.38
4/29/2022 9:15:00 AM 4.51 40.118 0.043 7 0.81 12.38
4/29/2022 9:30:00 AM 4.63 40.334 0.043 7.01 0.74 12.38
4/29/2022 9:45:00 AM 4.78 40.604 0.043 7.02 0.87 12.37
4/29/2022 10:00:00 AM 4.93 40.874 0.043 7.02 0.79 12.34
4/29/2022 10:15:00 AM 5.1 41.18 0.043 7.03 1.23 12.31
4/29/2022 10:30:00 AM 5.27 41.486 0.043 7.03 0.97 12.26
4/29/2022 10:45:00 AM 5.5 41.9 0.043 7.04 0.8 12.22
4/29/2022 11:00:00 AM 5.74 42.332 0.043 7.04 0.84 12.17
4/29/2022 11:15:00 AM 5.99 42.782 0.043 7.05 0.93 12.1
4/29/2022 11:30:00 AM 6.25 43.25 0.043 7.05 0.86 12.03
4/29/2022 11:45:00 AM 6.57 43.826 0.043 7.06 0.84 11.97
4/29/2022 12:00:00 PM 6.87 44.366 0.043 7.06 0.79 11.89
4/29/2022 12:15:00 PM 7.18 44.924 0.043 7.07 0.81 11.81
4/29/2022 12:30:00 PM 7.5 45.5 0.043 7.07 0.72 11.74
4/29/2022 12:45:00 PM 7.8 46.04 0.043 7.07 0.87 11.66
4/29/2022 1:00:00 PM 8.13 46.634 0.043 7.08 0.8 11.58
4/29/2022 1:15:00 PM 8.45 47.21 0.043 7.09 0.88 11.51
4/29/2022 1:30:00 PM 8.74 47.732 0.043 7.09 0.84 11.41
4/29/2022 1:45:00 PM 9.03 48.254 0.042 7.1 0.89 11.34
4/29/2022 2:00:00 PM 9.32 48.776 0.042 7.1 0.83 11.26
4/29/2022 2:15:00 PM 9.58 49.244 0.042 7.1 0.93 11.18
4/29/2022 2:30:00 PM 9.86 49.748 0.042 7.11 1.54 11.12
4/29/2022 2:45:00 PM 10.06 50.108 0.042 7.11 0.91 11.05
4/29/2022 3:00:00 PM 10.31 50.558 0.042 7.11 0.85 10.99
4/29/2022 3:15:00 PM 10.49 50.882 0.042 7.12 0.83 10.92
4/29/2022 3:30:00 PM 10.66 51.188 0.042 7.12 0.96 10.87
4/29/2022 3:45:00 PM 10.82 51.476 0.042 7.12 0.97 10.81
4/29/2022 4:00:00 PM 10.96 51.728 0.042 7.12 1.09 10.76
4/29/2022 4:15:00 PM 11.01 51.818 0.042 7.12 0.98 10.73
4/29/2022 4:30:00 PM 11.03 51.854 0.042 7.12 1.05 10.71
4/29/2022 4:45:00 PM 11.06 51.908 0.042 7.12 1.03 10.68
4/29/2022 5:00:00 PM 11 51.8 0.042 7.12 0.98 10.67
4/29/2022 5:15:00 PM 10.92 51.656 0.042 7.12 1.07 10.66
4/29/2022 5:30:00 PM 10.77 51.386 0.042 7.12 1.15 10.66
4/29/2022 5:45:00 PM 10.65 51.17 0.042 7.11 1.15 10.67
4/29/2022 6:00:00 PM 10.53 50.954 0.042 7.11 1.15 10.67
4/29/2022 6:15:00 PM 10.42 50.756 0.042 7.1 1.31 10.66
4/29/2022 6:30:00 PM 10.33 50.594 0.042 7.09 1.05 10.66
4/29/2022 6:45:00 PM 10.22 50.396 0.042 7.08 1.17 10.66
4/29/2022 7:00:00 PM 10.11 50.198 0.042 7.07 1.11 10.66
4/29/2022 7:15:00 PM 10 50 0.042 7.07 1.11 10.66
4/29/2022 7:30:00 PM 9.91 49.838 0.043 7.05 1.04 10.67
4/29/2022 7:45:00 PM 9.8 49.64 0.043 7.04 1.06 10.67
4/29/2022 8:00:00 PM 9.67 49.406 0.043 7.03 1.16 10.66
4/29/2022 8:15:00 PM 9.54 49.172 0.043 7.01 1.06 10.67
4/29/2022 8:30:00 PM 9.4 48.92 0.043 7 1.12 10.68
4/29/2022 8:45:00 PM 9.28 48.704 0.043 6.99 1.19 10.69
4/29/2022 9:00:00 PM 9.15 48.47 0.043 6.98 1.47 10.71
4/29/2022 9:15:00 PM 9.02 48.236 0.043 6.97 1.28 10.73
4/29/2022 9:30:00 PM 8.89 48.002 0.043 6.97 1.25 10.75
4/29/2022 9:45:00 PM 8.79 47.822 0.043 6.97 1.27 10.79
4/29/2022 10:00:00 PM 8.68 47.624 0.043 6.97 1.34 10.81
4/29/2022 10:15:00 PM 8.56 47.408 0.043 6.97 1.18 10.84
4/29/2022 10:30:00 PM 8.45 47.21 0.043 6.97 1.18 10.87
4/29/2022 10:45:00 PM 8.34 47.012 0.043 6.96 1.34 10.91
4/29/2022 11:00:00 PM 8.23 46.814 0.043 6.96 1.22 10.93
4/29/2022 11:15:00 PM 8.11 46.598 0.043 6.96 1.18 10.96
4/29/2022 11:30:00 PM 8 46.4 0.043 6.96 1.29 10.99
4/29/2022 11:45:00 PM 7.9 46.22 0.043 6.96 1.24 11.02
4/30/2022 12:00:00 AM 7.78 46.004 0.044 6.96 1.43 11.05
4/30/2022 12:15:00 AM 7.68 45.824 0.044 6.96 1.28 11.08
4/30/2022 12:30:00 AM 7.56 45.608 0.044 6.96 1.44 11.12
4/30/2022 12:45:00 AM 7.45 45.41 0.044 6.96 1.33 11.15
4/30/2022 1:00:00 AM 7.34 45.212 0.044 6.95 1.37 11.19
4/30/2022 1:15:00 AM 7.23 45.014 0.044 6.96 1.24 11.21
4/30/2022 1:30:00 AM 7.11 44.798 0.044 6.95 1.2 11.24
4/30/2022 1:45:00 AM 7 44.6 0.044 6.96 1.37 11.28
4/30/2022 2:00:00 AM 6.89 44.402 0.044 6.95 1.23 11.31
4/30/2022 2:15:00 AM 6.78 44.204 0.044 6.95 1.27 11.34
4/30/2022 2:30:00 AM 6.67 44.006 0.044 6.95 1.2 11.38
4/30/2022 2:45:00 AM 6.57 43.826 0.044 6.95 1.2 11.41
4/30/2022 3:00:00 AM 6.47 43.646 0.044 6.95 1.27 11.44
4/30/2022 3:15:00 AM 6.37 43.466 0.044 6.95 1.35 11.47
4/30/2022 3:30:00 AM 6.26 43.268 0.044 6.95 1.16 11.51
4/30/2022 3:45:00 AM 6.16 43.088 0.044 6.95 2.08 11.52
4/30/2022 4:00:00 AM 6.08 42.944 0.044 6.95 1.29 11.57
4/30/2022 4:15:00 AM 5.99 42.782 0.044 6.94 1.27 11.57
4/30/2022 4:30:00 AM 5.9 42.62 0.044 6.94 1.17 11.6
4/30/2022 4:45:00 AM 5.81 42.458 0.044 6.94 1.28 11.63
4/30/2022 5:00:00 AM 5.73 42.314 0.044 6.94 1.19 11.66
4/30/2022 5:15:00 AM 5.64 42.152 0.044 6.94 1.17 11.69
4/30/2022 5:30:00 AM 5.56 42.008 0.044 6.94 1.21 11.71
4/30/2022 5:45:00 AM 5.48 41.864 0.044 6.94 1.32 11.74
4/30/2022 6:00:00 AM 5.4 41.72 0.044 6.93 1.33 11.77
4/30/2022 6:15:00 AM 5.33 41.594 0.044 6.94 1.15 11.8
4/30/2022 6:30:00 AM 5.26 41.468 0.044 6.94 1.53 11.84
4/30/2022 6:45:00 AM 5.19 41.342 0.044 6.95 1.05 11.88
4/30/2022 7:00:00 AM 5.14 41.252 0.044 6.95 1.16 11.93
4/30/2022 7:15:00 AM 5.08 41.144 0.044 6.97 1.1 11.97
4/30/2022 7:30:00 AM 5.03 41.054 0.044 6.97 0.95 12.02
4/30/2022 7:45:00 AM 5 41 0.044 6.98 1.08 12.06
4/30/2022 8:00:00 AM 4.98 40.964 0.044 6.99 1.1 12.1
4/30/2022 8:15:00 AM 4.97 40.946 0.044 7 1.01 12.12
4/30/2022 8:30:00 AM 5 41 0.044 7 0.96 12.14
4/30/2022 8:45:00 AM 5.04 41.072 0.044 7.01 0.98 12.15
4/30/2022 9:00:00 AM 5.11 41.198 0.044 7.02 0.9 12.16
4/30/2022 9:15:00 AM 5.22 41.396 0.044 7.02 0.99 12.15
4/30/2022 9:30:00 AM 5.33 41.594 0.044 7.03 1.23 12.15
4/30/2022 9:45:00 AM 5.48 41.864 0.044 7.04 1.22 12.13
4/30/2022 10:00:00 AM 5.66 42.188 0.044 7.04 0.91 12.11
4/30/2022 10:15:00 AM 5.86 42.548 0.044 7.05 0.85 12.07
4/30/2022 10:30:00 AM 6.08 42.944 0.044 7.05 0.96 12.04
4/30/2022 10:45:00 AM 6.33 43.394 0.043 7.06 0.94 12
4/30/2022 11:00:00 AM 6.58 43.844 0.043 7.06 0.89 11.93
4/30/2022 11:15:00 AM 6.86 44.348 0.043 7.07 1.13 11.87
4/30/2022 11:30:00 AM 7.14 44.852 0.043 7.08 0.93 11.8
4/30/2022 11:45:00 AM 7.42 45.356 0.043 7.08 0.93 11.74
4/30/2022 12:00:00 PM 7.72 45.896 0.043 7.09 0.96 11.67
4/30/2022 12:15:00 PM 8.06 46.508 0.043 7.09 0.98 11.6
4/30/2022 12:30:00 PM 8.4 47.12 0.043 7.1 0.96 11.51
4/30/2022 12:45:00 PM 8.73 47.714 0.043 7.11 0.92 11.43
4/30/2022 1:00:00 PM 9.11 48.398 0.043 7.11 0.88 11.35
4/30/2022 1:15:00 PM 9.43 48.974 0.043 7.11 0.89 11.27
4/30/2022 1:30:00 PM 9.74 49.532 0.043 7.12 0.94 11.19
4/30/2022 1:45:00 PM 10.05 50.09 0.043 7.12 1.07 11.12
4/30/2022 2:00:00 PM 10.37 50.666 0.043 7.13 0.97 11.04
4/30/2022 2:15:00 PM 10.67 51.206 0.043 7.13 0.95 10.96
4/30/2022 2:30:00 PM 10.94 51.692 0.043 7.14 0.94 10.89
4/30/2022 2:45:00 PM 11.2 52.16 0.043 7.14 1 10.81
4/30/2022 3:00:00 PM 11.44 52.592 0.043 7.15 1.05 10.73
4/30/2022 3:15:00 PM 11.67 53.006 0.043 7.14 1.03 10.67
4/30/2022 3:30:00 PM 11.87 53.366 0.043 7.14 0.98 10.6
4/30/2022 3:45:00 PM 12.01 53.618 0.043 7.15 1.07 10.54
4/30/2022 4:00:00 PM 12.1 53.78 0.043 7.15 1.08 10.51
4/30/2022 4:15:00 PM 12.18 53.924 0.043 7.15 1.3 10.47
4/30/2022 4:30:00 PM 12.25 54.05 0.043 7.15 1.03 10.44
4/30/2022 4:45:00 PM 12.24 54.032 0.043 7.15 0.93 10.42
4/30/2022 5:00:00 PM 12.13 53.834 0.043 7.15 1.18 10.39
4/30/2022 5:15:00 PM 12.06 53.708 0.043 7.14 1.25 10.39
4/30/2022 5:30:00 PM 11.93 53.474 0.043 7.14 1.06 10.39
4/30/2022 5:45:00 PM 11.78 53.204 0.043 7.13 1.19 10.38
4/30/2022 6:00:00 PM 11.68 53.024 0.043 7.13 1.07 10.39
4/30/2022 6:15:00 PM 11.59 52.862 0.043 7.12 1.12 10.39
4/30/2022 6:30:00 PM 11.49 52.682 0.043 7.11 1.14 10.39
4/30/2022 6:45:00 PM 11.38 52.484 0.043 7.1 1.15 10.38
4/30/2022 7:00:00 PM 11.25 52.25 0.043 7.09 1.25 10.38
4/30/2022 7:15:00 PM 11.15 52.07 0.043 7.07 1.2 10.38
4/30/2022 7:30:00 PM 11.02 51.836 0.043 7.06 1.4 10.39
4/30/2022 7:45:00 PM 10.9 51.62 0.043 7.05 1.46 10.38
4/30/2022 8:00:00 PM 10.77 51.386 0.043 7.03 1.26 10.37
4/30/2022 8:15:00 PM 10.66 51.188 0.043 7.02 1.1 10.36
4/30/2022 8:30:00 PM 10.53 50.954 0.043 7.01 1.14 10.37
4/30/2022 8:45:00 PM 10.4 50.72 0.043 7 1.26 10.39
4/30/2022 9:00:00 PM 10.28 50.504 0.043 6.99 1.17 10.4
4/30/2022 9:15:00 PM 10.16 50.288 0.043 6.99 1.33 10.42
4/30/2022 9:30:00 PM 10.05 50.09 0.044 6.98 1.31 10.45
4/30/2022 9:45:00 PM 9.93 49.874 0.044 6.98 1.26 10.46
4/30/2022 10:00:00 PM 9.81 49.658 0.044 6.97 1.53 10.49
4/30/2022 10:15:00 PM 9.71 49.478 0.044 6.97 1.71 10.51
4/30/2022 10:30:00 PM 9.59 49.262 0.044 6.97 1.3 10.54
4/30/2022 10:45:00 PM 9.48 49.064 0.044 6.97 1.54 10.57
4/30/2022 11:00:00 PM 9.38 48.884 0.044 6.96 1.36 10.59
4/30/2022 11:15:00 PM 9.26 48.668 0.044 6.97 1.38 10.62
4/30/2022 11:30:00 PM 9.15 48.47 0.044 6.96 1.51 10.64
4/30/2022 11:45:00 PM 9.04 48.272 0.044 6.97 1.46 10.68
5/1/2022 12:00:00 AM 8.94 48.092 0.044 6.96 1.51 10.7
5/1/2022 12:15:00 AM 8.83 47.894 0.044 6.97 1.54 10.73
5/1/2022 12:30:00 AM 8.72 47.696 0.044 6.96 1.43 10.76
5/1/2022 12:45:00 AM 8.62 47.516 0.044 6.97 1.41 10.78
5/1/2022 1:00:00 AM 8.49 47.282 0.044 6.97 1.48 10.83
5/1/2022 1:15:00 AM 8.39 47.102 0.044 6.96 1.39 10.86
5/1/2022 1:30:00 AM 8.27 46.886 0.044 6.96 1.56 10.89
5/1/2022 1:45:00 AM 8.17 46.706 0.044 6.96 1.37 10.92
5/1/2022 2:00:00 AM 8.06 46.508 0.044 6.96 1.45 10.95
5/1/2022 2:15:00 AM 7.95 46.31 0.044 6.96 1.29 10.98
5/1/2022 2:30:00 AM 7.85 46.13 0.044 6.96 1.34 11
5/1/2022 2:45:00 AM 7.73 45.914 0.044 6.96 1.38 11.04
5/1/2022 3:00:00 AM 7.62 45.716 0.044 6.95 1.46 11.06
5/1/2022 3:15:00 AM 7.52 45.536 0.044 6.96 1.45 11.1
5/1/2022 3:30:00 AM 7.43 45.374 0.044 6.96 1.64 11.13
5/1/2022 3:45:00 AM 7.34 45.212 0.044 6.96 1.56 11.16
5/1/2022 4:00:00 AM 7.26 45.068 0.044 6.96 1.5 11.18
5/1/2022 4:15:00 AM 7.17 44.906 0.044 6.96 1.42 11.21
5/1/2022 4:30:00 AM 7.09 44.762 0.044 6.96 1.42 11.23
5/1/2022 4:45:00 AM 7 44.6 0.044 6.96 1.59 11.25
5/1/2022 5:00:00 AM 6.93 44.474 0.044 6.96 1.41 11.27
5/1/2022 5:15:00 AM 6.84 44.312 0.045 6.96 1.33 11.3
5/1/2022 5:30:00 AM 6.76 44.168 0.045 6.96 1.32 11.32
5/1/2022 5:45:00 AM 6.68 44.024 0.045 6.96 1.52 11.34
5/1/2022 6:00:00 AM 6.62 43.916 0.045 6.96 1.36 11.37
5/1/2022 6:15:00 AM 6.55 43.79 0.045 6.96 1.31 11.39
5/1/2022 6:30:00 AM 6.49 43.682 0.045 6.96 1.26 11.43
5/1/2022 6:45:00 AM 6.44 43.592 0.045 6.97 1.24 11.48
5/1/2022 7:00:00 AM 6.39 43.502 0.044 6.98 1.16 11.52
5/1/2022 7:15:00 AM 6.36 43.448 0.044 6.99 1.18 11.56
5/1/2022 7:30:00 AM 6.33 43.394 0.044 7 1.31 11.61
5/1/2022 7:45:00 AM 6.32 43.376 0.044 7.01 1.19 11.68
5/1/2022 8:00:00 AM 6.34 43.412 0.044 7.03 1.13 11.71
5/1/2022 8:15:00 AM 6.38 43.484 0.044 7.04 1.21 11.75
5/1/2022 8:30:00 AM 6.43 43.574 0.044 7.04 1.56 11.74
5/1/2022 8:45:00 AM 6.5 43.7 0.044 7.05 1.11 11.75
5/1/2022 9:00:00 AM 6.6 43.88 0.044 7.06 1.12 11.74
5/1/2022 9:15:00 AM 6.72 44.096 0.044 7.06 1.18 11.73
5/1/2022 9:30:00 AM 6.82 44.276 0.044 7.07 1.07 11.72
5/1/2022 9:45:00 AM 6.89 44.402 0.044 7.08 1.21 11.72
5/1/2022 10:00:00 AM 7.04 44.672 0.044 7.09 1.03 11.71
5/1/2022 10:15:00 AM 7.19 44.942 0.044 7.09 1.08 11.69
5/1/2022 10:30:00 AM 7.25 45.05 0.044 7.1 1.04 11.66
5/1/2022 10:45:00 AM 7.33 45.194 0.044 7.1 1.18 11.62
5/1/2022 11:00:00 AM 7.44 45.392 0.044 7.1 1.19 11.58
5/1/2022 11:15:00 AM 7.52 45.536 0.044 7.1 1.05 11.55
5/1/2022 11:30:00 AM 7.55 45.59 0.044 7.1 1.01 11.53
5/1/2022 11:45:00 AM 7.56 45.608 0.044 7.1 1.18 11.51
5/1/2022 12:00:00 PM 7.6 45.68 0.044 7.1 1.06 11.5
5/1/2022 12:15:00 PM 7.65 45.77 0.044 7.1 1.13 11.49
5/1/2022 12:30:00 PM 7.67 45.806 0.044 7.1 1.16 11.46
5/1/2022 12:45:00 PM 7.73 45.914 0.044 7.1 1.05 11.45
5/1/2022 1:00:00 PM 7.8 46.04 0.044 7.1 1.07 11.43
5/1/2022 1:15:00 PM 7.83 46.094 0.043 7.1 1.08 11.41
5/1/2022 1:30:00 PM 7.86 46.148 0.043 7.1 1.09 11.4
5/1/2022 1:45:00 PM 7.87 46.166 0.043 7.1 1.08 11.37
5/1/2022 2:00:00 PM 7.88 46.184 0.043 7.09 1.21 11.36
5/1/2022 2:15:00 PM 7.91 46.238 0.043 7.09 1.1 11.35
5/1/2022 2:30:00 PM 7.95 46.31 0.043 7.09 1.28 11.34
5/1/2022 2:45:00 PM 8 46.4 0.043 7.09 1.13 11.35
5/1/2022 3:00:00 PM 8.04 46.472 0.043 7.1 1.21 11.35
5/1/2022 3:15:00 PM 8.08 46.544 0.043 7.1 1.2 11.33
5/1/2022 3:30:00 PM 8.09 46.562 0.043 7.09 1.07 11.3
5/1/2022 3:45:00 PM 8.11 46.598 0.043 7.09 1.08 11.27
5/1/2022 4:00:00 PM 8.15 46.67 0.043 7.09 1.17 11.27
5/1/2022 4:15:00 PM 8.19 46.742 0.043 7.09 1.05 11.28
5/1/2022 4:30:00 PM 8.23 46.814 0.043 7.09 1.09 11.27
5/1/2022 4:45:00 PM 8.24 46.832 0.043 7.09 1.1 11.24
5/1/2022 5:00:00 PM 8.26 46.868 0.043 7.08 1.11 11.22
5/1/2022 5:15:00 PM 8.29 46.922 0.043 7.08 1.14 11.2
5/1/2022 5:30:00 PM 8.3 46.94 0.043 7.07 1.23 11.18
5/1/2022 5:45:00 PM 8.3 46.94 0.043 7.07 1.21 11.15
5/1/2022 6:00:00 PM 8.3 46.94 0.043 7.06 1.24 11.13
5/1/2022 6:15:00 PM 8.31 46.958 0.043 7.06 1.23 11.13
5/1/2022 6:30:00 PM 8.33 46.994 0.043 7.06 1.08 11.13
5/1/2022 6:45:00 PM 8.35 47.03 0.043 7.07 1.09 11.13
5/1/2022 7:00:00 PM 8.36 47.048 0.043 7.06 1.14 11.11
5/1/2022 7:15:00 PM 8.37 47.066 0.043 7.06 1.1 11.09
5/1/2022 7:30:00 PM 8.38 47.084 0.043 7.05 1.18 11.05
5/1/2022 7:45:00 PM 8.38 47.084 0.043 7.03 1.24 11.02
5/1/2022 8:00:00 PM 8.37 47.066 0.043 7.02 1.19 10.99
5/1/2022 8:15:00 PM 8.36 47.048 0.044 7.01 1.21 10.97
5/1/2022 8:30:00 PM 8.35 47.03 0.044 7 1.24 10.95
5/1/2022 8:45:00 PM 8.34 47.012 0.044 6.99 1.18 10.92
5/1/2022 9:00:00 PM 8.33 46.994 0.044 6.99 1.27 10.91
5/1/2022 9:15:00 PM 8.33 46.994 0.044 6.98 1.18 10.91
5/1/2022 9:30:00 PM 8.33 46.994 0.044 6.98 1.34 10.9
5/1/2022 9:45:00 PM 8.33 46.994 0.044 6.98 1.44 10.9
5/1/2022 10:00:00 PM 8.33 46.994 0.044 6.98 1.19 10.9
5/1/2022 10:15:00 PM 8.33 46.994 0.044 6.98 1.29 10.89
5/1/2022 10:30:00 PM 8.34 47.012 0.044 6.98 1.26 10.89
5/1/2022 10:45:00 PM 8.35 47.03 0.044 6.97 1.97 10.88
5/1/2022 11:00:00 PM 8.35 47.03 0.044 6.97 1.47 10.89
5/1/2022 11:15:00 PM 8.34 47.012 0.044 6.97 1.58 10.88
5/1/2022 11:30:00 PM 8.34 47.012 0.044 6.97 1.34 10.88
5/1/2022 11:45:00 PM 8.34 47.012 0.044 6.97 1.65 10.88
5/2/2022 12:00:00 AM 8.34 47.012 0.044 6.97 1.94 10.88
5/2/2022 12:15:00 AM 8.35 47.03 0.044 6.97 1.37 10.88
5/2/2022 12:30:00 AM 8.36 47.048 0.044 6.97 1.9 10.88
5/2/2022 12:45:00 AM 8.37 47.066 0.044 6.97 1.54 10.88
5/2/2022 1:00:00 AM 8.38 47.084 0.044 6.97 1.52 10.88
5/2/2022 1:15:00 AM 8.38 47.084 0.044 6.97 1.53 10.87
5/2/2022 1:30:00 AM 8.39 47.102 0.044 6.97 1.51 10.88
5/2/2022 1:45:00 AM 8.38 47.084 0.044 6.97 1.43 10.87
5/2/2022 2:00:00 AM 8.38 47.084 0.044 6.97 1.58 10.87
5/2/2022 2:15:00 AM 8.39 47.102 0.044 6.96 1.45 10.86
5/2/2022 2:30:00 AM 8.39 47.102 0.044 6.96 1.32 10.87
5/2/2022 2:45:00 AM 8.39 47.102 0.044 6.96 1.53 10.87
5/2/2022 3:00:00 AM 8.39 47.102 0.045 6.95 1.91 10.86
5/2/2022 3:15:00 AM 8.39 47.102 0.045 6.96 1.6 10.87
5/2/2022 3:30:00 AM 8.38 47.084 0.045 6.95 1.55 10.86
5/2/2022 3:45:00 AM 8.38 47.084 0.045 6.95 1.52 10.86
5/2/2022 4:00:00 AM 8.38 47.084 0.045 6.95 1.47 10.86
5/2/2022 4:15:00 AM 8.38 47.084 0.045 6.95 1.37 10.86
5/2/2022 4:30:00 AM 8.37 47.066 0.045 6.95 1.42 10.86
5/2/2022 4:45:00 AM 8.37 47.066 0.045 6.95 1.51 10.87
5/2/2022 5:00:00 AM 8.37 47.066 0.045 6.94 1.43 10.87
5/2/2022 5:15:00 AM 8.37 47.066 0.045 6.94 1.54 10.87
5/2/2022 5:30:00 AM 8.36 47.048 0.045 6.93 1.47 10.86
5/2/2022 5:45:00 AM 8.36 47.048 0.045 6.93 1.47 10.86
5/2/2022 6:00:00 AM 8.36 47.048 0.045 6.94 1.39 10.87
5/2/2022 6:15:00 AM 8.35 47.03 0.045 6.93 1.51 10.88
5/2/2022 6:30:00 AM 8.36 47.048 0.045 6.94 2.17 10.88
5/2/2022 6:45:00 AM 8.36 47.048 0.045 6.94 1.46 10.91
5/2/2022 7:00:00 AM 8.37 47.066 0.045 6.95 1.47 10.91
5/2/2022 7:15:00 AM 8.38 47.084 0.045 6.95 1.41 10.92
5/2/2022 7:30:00 AM 8.39 47.102 0.045 6.96 1.33 10.96
5/2/2022 7:45:00 AM 8.42 47.156 0.045 6.98 1.65 11
5/2/2022 8:00:00 AM 8.44 47.192 0.045 6.99 1.41 11.01
5/2/2022 8:15:00 AM 8.48 47.264 0.045 7 1.45 11.06
5/2/2022 8:30:00 AM 8.54 47.372 0.045 7.03 1.35 11.09
5/2/2022 8:45:00 AM 8.54 47.372 0.045 7.03 1.39 11.11
5/2/2022 9:00:00 AM 8.66 47.588 0.045 7.06 1.41 11.14
5/2/2022 9:15:00 AM 8.8 47.84 0.045 7.07 1.67 11.15
5/2/2022 9:30:00 AM 8.95 48.11 0.044 7.09 1.25 11.15
5/2/2022 9:45:00 AM 9.07 48.326 0.044 7.1 1.37 11.11
5/2/2022 10:00:00 AM 9.19 48.542 0.044 7.11 1.39 11.07
5/2/2022 10:15:00 AM 9.25 48.65 0.044 7.1 1.35 10.97
5/2/2022 10:30:00 AM 9.24 48.632 0.045 7.08 1.26 10.93
5/2/2022 10:45:00 AM 9.18 48.524 0.045 7.08 1.24 10.91
5/2/2022 11:00:00 AM 9.15 48.47 0.044 7.08 1.35 10.96
5/2/2022 11:15:00 AM 9.13 48.434 0.044 7.09 1.41 10.99
5/2/2022 11:30:00 AM 9.11 48.398 0.044 7.1 1.28 10.99
5/2/2022 11:45:00 AM 9.23 48.614 0.044 7.11 1.24 11.02
5/2/2022 12:00:00 PM 9.44 48.992 0.044 7.13 1.31 11.04
5/2/2022 12:15:00 PM 9.68 49.424 0.044 7.14 1.35 11.02
5/2/2022 12:30:00 PM 10.01 50.018 0.044 7.15 1.2 11.01
5/2/2022 12:45:00 PM 10.34 50.612 0.044 7.16 1.3 10.98
5/2/2022 1:00:00 PM 10.73 51.314 0.044 7.16 1.32 10.91
5/2/2022 1:15:00 PM 10.6 51.08 0.044 7.16 1.34 10.83
5/2/2022 1:30:00 PM 10.73 51.314 0.044 7.16 1.16 10.79
5/2/2022 1:45:00 PM 11.02 51.836 0.044 7.16 1.24 10.75
5/2/2022 2:00:00 PM 11.02 51.836 0.044 7.17 1.32 10.75
5/2/2022 2:15:00 PM 11.09 51.962 0.044 7.18 1.42 10.74
5/2/2022 2:30:00 PM 11.11 51.998 0.044 7.18 1.3 10.72
5/2/2022 2:45:00 PM 11.2 52.16 0.044 7.18 1.36 10.69
5/2/2022 3:00:00 PM 11.29 52.322 0.044 7.18 1.39 10.66
5/2/2022 3:15:00 PM 11.3 52.34 0.044 7.18 1.43 10.63
5/2/2022 3:30:00 PM 11.33 52.394 0.044 7.18 1.24 10.61
5/2/2022 3:45:00 PM 11.49 52.682 0.044 7.19 1.31 10.62
5/2/2022 4:00:00 PM 11.47 52.646 0.044 7.18 1.34 10.61
5/2/2022 4:15:00 PM 11.46 52.628 0.044 7.19 1.39 10.61
5/2/2022 4:30:00 PM 11.47 52.646 0.044 7.19 1.44 10.6
5/2/2022 4:45:00 PM 11.48 52.664 0.044 7.18 1.38 10.58
5/2/2022 5:00:00 PM 11.48 52.664 0.044 7.18 1.35 10.55
5/2/2022 5:15:00 PM 11.47 52.646 0.044 7.18 1.49 10.53
5/2/2022 5:30:00 PM 11.44 52.592 0.044 7.17 1.42 10.5
5/2/2022 5:45:00 PM 11.4 52.52 0.044 7.16 1.41 10.49
5/2/2022 6:00:00 PM 11.34 52.412 0.044 7.15 1.37 10.49
5/2/2022 6:15:00 PM 11.27 52.286 0.044 7.14 1.41 10.49
5/2/2022 6:30:00 PM 11.19 52.142 0.044 7.14 1.48 10.49
5/2/2022 6:45:00 PM 11.12 52.016 0.044 7.13 1.5 10.49
5/2/2022 7:00:00 PM 11.05 51.89 0.044 7.12 1.46 10.49
5/2/2022 7:15:00 PM 10.98 51.764 0.044 7.11 1.32 10.46
5/2/2022 7:30:00 PM 10.89 51.602 0.044 7.09 1.41 10.45
5/2/2022 7:45:00 PM 10.82 51.476 0.044 7.08 1.34 10.43
5/2/2022 8:00:00 PM 10.75 51.35 0.044 7.07 1.35 10.41
5/2/2022 8:15:00 PM 10.66 51.188 0.044 7.05 1.45 10.39
5/2/2022 8:30:00 PM 10.56 51.008 0.044 7.04 1.44 10.39
5/2/2022 8:45:00 PM 10.46 50.828 0.044 7.03 1.49 10.39
5/2/2022 9:00:00 PM 10.37 50.666 0.044 7.02 1.41 10.4
5/2/2022 9:15:00 PM 10.26 50.468 0.044 7.01 1.56 10.41
5/2/2022 9:30:00 PM 10.16 50.288 0.045 7.01 1.7 10.43
5/2/2022 9:45:00 PM 10.05 50.09 0.045 6.99 1.59 10.44
5/2/2022 10:00:00 PM 9.94 49.892 0.045 6.98 1.5 10.48
5/2/2022 10:15:00 PM 9.84 49.712 0.045 6.98 1.67 10.49
5/2/2022 10:30:00 PM 9.74 49.532 0.045 6.98 1.72 10.51
5/2/2022 10:45:00 PM 9.65 49.37 0.045 6.98 1.52 10.54
5/2/2022 11:00:00 PM 9.57 49.226 0.045 6.97 1.55 10.55
5/2/2022 11:15:00 PM 9.47 49.046 0.045 6.97 1.79 10.58
5/2/2022 11:30:00 PM 9.38 48.884 0.045 6.97 1.76 10.6
5/2/2022 11:45:00 PM 9.29 48.722 0.045 6.97 3.34 10.63
5/3/2022 12:00:00 AM 9.22 48.596 0.045 6.97 1.63 10.64
5/3/2022 12:15:00 AM 9.13 48.434 0.045 6.97 1.63 10.67
5/3/2022 12:30:00 AM 9.05 48.29 0.045 6.97 1.87 10.68
5/3/2022 12:45:00 AM 8.96 48.128 0.045 6.97 1.73 10.71
5/3/2022 1:00:00 AM 8.88 47.984 0.045 6.97 1.8 10.73
5/3/2022 1:15:00 AM 8.81 47.858 0.045 6.97 1.74 10.75
5/3/2022 1:30:00 AM 8.73 47.714 0.045 6.96 1.73 10.76
5/3/2022 1:45:00 AM 8.66 47.588 0.045 6.97 1.82 10.78
5/3/2022 2:00:00 AM 8.58 47.444 0.045 6.96 1.77 10.81
5/3/2022 2:15:00 AM 8.51 47.318 0.045 6.96 1.64 10.83
5/3/2022 2:30:00 AM 8.44 47.192 0.045 6.97 1.61 10.84
5/3/2022 2:45:00 AM 8.37 47.066 0.045 6.96 1.67 10.86
5/3/2022 3:00:00 AM 8.3 46.94 0.045 6.96 1.58 10.88
5/3/2022 3:15:00 AM 8.23 46.814 0.045 6.96 1.74 10.9
5/3/2022 3:30:00 AM 8.17 46.706 0.045 6.97 1.74 10.93
5/3/2022 3:45:00 AM 8.09 46.562 0.045 6.97 1.7 10.95
5/3/2022 4:00:00 AM 8.01 46.418 0.045 6.96 1.63 10.97
5/3/2022 4:15:00 AM 7.93 46.274 0.045 6.96 1.77 10.99
5/3/2022 4:30:00 AM 7.85 46.13 0.045 6.96 1.68 11
5/3/2022 4:45:00 AM 7.79 46.022 0.045 6.96 1.58 11.03
5/3/2022 5:00:00 AM 7.72 45.896 0.045 6.96 1.66 11.04
5/3/2022 5:15:00 AM 7.64 45.752 0.045 6.96 1.69 11.06
5/3/2022 5:30:00 AM 7.57 45.626 0.045 6.96 1.49 11.09
5/3/2022 5:45:00 AM 7.49 45.482 0.045 6.96 1.87 11.11
5/3/2022 6:00:00 AM 7.44 45.392 0.045 6.96 1.54 11.13
5/3/2022 6:15:00 AM 7.38 45.284 0.045 6.96 1.49 11.16
5/3/2022 6:30:00 AM 7.33 45.194 0.045 6.97 1.52 11.2
5/3/2022 6:45:00 AM 7.29 45.122 0.045 6.98 1.44 11.25
5/3/2022 7:00:00 AM 7.25 45.05 0.045 6.99 1.52 11.32
5/3/2022 7:15:00 AM 7.23 45.014 0.045 7 1.45 11.35
5/3/2022 7:30:00 AM 7.23 45.014 0.045 7.02 1.43 11.41
5/3/2022 7:45:00 AM 7.25 45.05 0.045 7.03 1.46 11.45
5/3/2022 8:00:00 AM 7.28 45.104 0.045 7.04 1.45 11.49
5/3/2022 8:15:00 AM 7.32 45.176 0.045 7.06 1.35 11.51
5/3/2022 8:30:00 AM 7.37 45.266 0.045 7.07 1.41 11.53
5/3/2022 8:45:00 AM 7.46 45.428 0.045 7.08 1.4 11.54
5/3/2022 9:00:00 AM 7.55 45.59 0.045 7.08 1.31 11.54
5/3/2022 9:15:00 AM 7.65 45.77 0.045 7.09 1.35 11.53
5/3/2022 9:30:00 AM 7.76 45.968 0.045 7.1 1.46 11.52
5/3/2022 9:45:00 AM 7.91 46.238 0.045 7.11 1.27 11.51
5/3/2022 10:00:00 AM 8.07 46.526 0.045 7.12 1.16 11.49
5/3/2022 10:15:00 AM 8.2 46.76 0.045 7.13 1.36 11.45
5/3/2022 10:30:00 AM 8.36 47.048 0.045 7.14 2.19 11.41
5/3/2022 10:45:00 AM 8.59 47.462 0.045 7.14 1.22 11.39
5/3/2022 11:00:00 AM 8.75 47.75 0.045 7.15 1.16 11.35
5/3/2022 11:15:00 AM 8.85 47.93 0.044 7.15 1.3 11.32
5/3/2022 11:30:00 AM 9.08 48.344 0.044 7.15 1.18 11.29
5/3/2022 11:45:00 AM 9.14 48.452 0.044 7.15 1.19 11.22
5/3/2022 12:00:00 PM 9.33 48.794 0.044 7.16 1.19 11.2
5/3/2022 12:15:00 PM 9.53 49.154 0.044 7.17 1.23 11.17
5/3/2022 12:30:00 PM 9.68 49.424 0.044 7.17 1.11 11.14
5/3/2022 12:45:00 PM 9.82 49.676 0.044 7.17 1.15 11.09
5/3/2022 1:00:00 PM 9.94 49.892 0.044 7.18 1.23 11.05
5/3/2022 1:15:00 PM 10.08 50.144 0.044 7.18 1.11 11.01
5/3/2022 1:30:00 PM 10.2 50.36 0.044 7.18 1.04 10.97
5/3/2022 1:45:00 PM 10.31 50.558 0.044 7.18 1.28 10.94
5/3/2022 2:00:00 PM 10.33 50.594 0.044 7.18 1.11 10.89
5/3/2022 2:15:00 PM 10.36 50.648 0.044 7.17 1.15 10.86
5/3/2022 2:30:00 PM 10.45 50.81 0.044 7.18 1.08 10.84
5/3/2022 2:45:00 PM 10.49 50.882 0.044 7.18 1.05 10.84
5/3/2022 3:00:00 PM 10.52 50.936 0.044 7.18 1.06 10.82
5/3/2022 3:15:00 PM 10.55 50.99 0.044 7.17 1.01 10.79
5/3/2022 3:30:00 PM 10.58 51.044 0.044 7.17 1.06 10.76
5/3/2022 3:45:00 PM 10.61 51.098 0.044 7.17 1.08 10.74
5/3/2022 4:00:00 PM 10.64 51.152 0.044 7.17 1.19 10.73
5/3/2022 4:15:00 PM 10.7 51.26 0.044 7.17 1.05 10.73
5/3/2022 4:30:00 PM 10.71 51.278 0.044 7.16 1.09 10.72
5/3/2022 4:45:00 PM 10.74 51.332 0.044 7.17 1.09 10.69
5/3/2022 5:00:00 PM 10.79 51.422 0.044 7.16 1.15 10.68
5/3/2022 5:15:00 PM 10.84 51.512 0.044 7.17 1.14 10.68
5/3/2022 5:30:00 PM 10.88 51.584 0.044 7.17 1.06 10.66
5/3/2022 5:45:00 PM 10.91 51.638 0.044 7.17 1.05 10.64
5/3/2022 6:00:00 PM 10.92 51.656 0.044 7.16 1.03 10.61
5/3/2022 6:15:00 PM 10.97 51.746 0.044 7.16 0.94 10.6
5/3/2022 6:30:00 PM 10.96 51.728 0.044 7.16 1.15 10.57
5/3/2022 6:45:00 PM 10.97 51.746 0.044 7.15 1.16 10.54
5/3/2022 7:00:00 PM 10.96 51.728 0.044 7.13 1.33 10.49
5/3/2022 7:15:00 PM 10.95 51.71 0.044 7.13 1.37 10.47
5/3/2022 7:30:00 PM 10.93 51.674 0.044 7.11 1.39 10.41
5/3/2022 7:45:00 PM 10.91 51.638 0.044 7.09 1.26 10.38
5/3/2022 8:00:00 PM 10.9 51.62 0.044 7.07 1.18 10.33
5/3/2022 8:15:00 PM 10.89 51.602 0.044 7.06 1.22 10.3
5/3/2022 8:30:00 PM 10.86 51.548 0.045 7.04 1.22 10.28
5/3/2022 8:45:00 PM 10.83 51.494 0.045 7.03 1.34 10.27
5/3/2022 9:00:00 PM 10.81 51.458 0.045 7.01 1.33 10.26
5/3/2022 9:15:00 PM 10.78 51.404 0.045 7 1.67 10.24
5/3/2022 9:30:00 PM 10.75 51.35 0.045 6.99 1.2 10.25
5/3/2022 9:45:00 PM 10.72 51.296 0.045 6.99 1.23 10.25
5/3/2022 10:00:00 PM 10.7 51.26 0.045 6.99 1.29 10.24
5/3/2022 10:15:00 PM 10.67 51.206 0.045 6.99 1.62 10.25
5/3/2022 10:30:00 PM 10.65 51.17 0.045 6.98 1.28 10.25
5/3/2022 10:45:00 PM 10.63 51.134 0.045 6.99 1.37 10.27
5/3/2022 11:00:00 PM 10.6 51.08 0.045 6.99 1.33 10.27
5/3/2022 11:15:00 PM 10.58 51.044 0.045 6.99 1.51 10.27
5/3/2022 11:30:00 PM 10.55 50.99 0.045 6.98 1.57 10.28
5/3/2022 11:45:00 PM 10.53 50.954 0.045 6.98 1.58 10.28
5/4/2022 12:00:00 AM 10.51 50.918 0.045 6.98 1.61 10.27
5/4/2022 12:15:00 AM 10.49 50.882 0.045 6.98 1.71 10.28
5/4/2022 12:30:00 AM 10.48 50.864 0.045 6.98 1.56 10.28
5/4/2022 12:45:00 AM 10.46 50.828 0.045 6.98 1.41 10.29
5/4/2022 1:00:00 AM 10.44 50.792 0.045 6.98 1.48 10.29
5/4/2022 1:15:00 AM 10.43 50.774 0.045 6.98 1.67 10.29
5/4/2022 1:30:00 AM 10.42 50.756 0.045 6.98 1.67 10.3
5/4/2022 1:45:00 AM 10.41 50.738 0.045 6.98 1.62 10.3
5/4/2022 2:00:00 AM 10.4 50.72 0.045 6.98 1.61 10.3
5/4/2022 2:15:00 AM 10.39 50.702 0.045 6.98 1.46 10.3
5/4/2022 2:30:00 AM 10.39 50.702 0.046 6.98 1.65 10.3
5/4/2022 2:45:00 AM 10.37 50.666 0.046 6.98 1.71 10.3
5/4/2022 3:00:00 AM 10.36 50.648 0.046 6.98 1.5 10.31
5/4/2022 3:15:00 AM 10.36 50.648 0.046 6.98 1.76 10.31
5/4/2022 3:30:00 AM 10.36 50.648 0.046 6.99 1.65 10.31
5/4/2022 3:45:00 AM 10.35 50.63 0.046 6.99 1.5 10.31
5/4/2022 4:00:00 AM 10.34 50.612 0.046 6.99 1.88 10.31
5/4/2022 4:15:00 AM 10.34 50.612 0.046 7 1.57 10.32
5/4/2022 4:30:00 AM 10.33 50.594 0.046 7.01 1.5 10.33
5/4/2022 4:45:00 AM 10.3 50.54 0.046 7 1.59 10.33
5/4/2022 5:00:00 AM 10.29 50.522 0.046 7 1.55 10.33
5/4/2022 5:15:00 AM 10.27 50.486 0.046 7 1.31 10.33
5/4/2022 5:30:00 AM 10.26 50.468 0.046 7 1.47 10.34
5/4/2022 5:45:00 AM 10.23 50.414 0.046 7 1.76 10.35
5/4/2022 6:00:00 AM 10.22 50.396 0.046 6.99 1.86 10.35
5/4/2022 6:15:00 AM 10.2 50.36 0.046 7 1.75 10.35
5/4/2022 6:30:00 AM 10.18 50.324 0.046 7 1.37 10.36
5/4/2022 6:45:00 AM 10.16 50.288 0.046 7 1.29 10.38
5/4/2022 7:00:00 AM 10.14 50.252 0.046 6.99 1.72 10.37
5/4/2022 7:15:00 AM 10.13 50.234 0.046 7 1.36 10.4
5/4/2022 7:30:00 AM 10.12 50.216 0.046 7.01 1.33 10.44
5/4/2022 7:45:00 AM 10.11 50.198 0.046 7.02 1.49 10.47
5/4/2022 8:00:00 AM 10.11 50.198 0.046 7.02 1.24 10.48
5/4/2022 8:15:00 AM 10.11 50.198 0.046 7.03 1.3 10.51
5/4/2022 8:30:00 AM 10.12 50.216 0.046 7.04 1.25 10.54
5/4/2022 8:45:00 AM 10.12 50.216 0.046 7.06 1.07 10.57
5/4/2022 9:00:00 AM 10.14 50.252 0.046 7.06 1.05 10.59
5/4/2022 9:15:00 AM 10.16 50.288 0.046 7.08 1.13 10.62
5/4/2022 9:30:00 AM 10.17 50.306 0.046 7.09 1.17 10.62
5/4/2022 9:45:00 AM 10.18 50.324 0.046 7.09 1.18 10.64
5/4/2022 10:00:00 AM 10.2 50.36 0.046 7.09 1.21 10.63
5/4/2022 10:15:00 AM 10.21 50.378 0.046 7.09 1.44 10.64
5/4/2022 10:30:00 AM 10.22 50.396 0.046 7.09 1.17 10.65
5/4/2022 10:45:00 AM 10.24 50.432 0.046 7.1 1.43 10.66
5/4/2022 11:00:00 AM 10.29 50.522 0.046 7.1 1.25 10.7
5/4/2022 11:15:00 AM 10.35 50.63 0.046 7.12 1.21 10.71
5/4/2022 11:30:00 AM 10.45 50.81 0.045 7.13 1.09 10.73
5/4/2022 11:45:00 AM 10.69 51.242 0.045 7.14 1.15 10.74
5/4/2022 12:00:00 PM 11.01 51.818 0.045 7.16 1.21 10.73
5/4/2022 12:15:00 PM 11.25 52.25 0.045 7.17 1.18 10.68
5/4/2022 12:30:00 PM 11.71 53.078 0.045 7.19 1.07 10.63
5/4/2022 12:45:00 PM 11.78 53.204 0.045 7.19 1.12 10.53
5/4/2022 1:00:00 PM 11.97 53.546 0.044 7.15 1.67 10.36
5/4/2022 1:15:00 PM 12.01 53.618 0.044 7.15 2.38 10.34
5/4/2022 1:30:00 PM 11.98 53.564 0.044 7.14 1.68 10.35
5/4/2022 1:45:00 PM 11.97 53.546 0.044 7.15 1.96 10.39
5/4/2022 2:00:00 PM 11.94 53.492 0.044 7.15 1.69 10.41
5/4/2022 2:15:00 PM 11.94 53.492 0.045 7.16 1.31 10.39
5/4/2022 2:30:00 PM 11.98 53.564 0.045 7.16 1.52 10.38
5/4/2022 2:45:00 PM 12.01 53.618 0.045 7.16 1.17 10.37
5/4/2022 3:00:00 PM 12.05 53.69 0.045 7.16 1.34 10.36
5/4/2022 3:15:00 PM 12.13 53.834 0.045 7.16 1.55 10.35
5/4/2022 3:30:00 PM 12.25 54.05 0.045 7.18 1.41 10.36
5/4/2022 3:45:00 PM 12.29 54.122 0.044 7.18 1.39 10.36
5/4/2022 4:00:00 PM 12.34 54.212 0.044 7.19 1.51 10.34
5/4/2022 4:15:00 PM 12.35 54.23 0.044 7.19 1.36 10.31
5/4/2022 4:30:00 PM 12.38 54.284 0.045 7.18 1.6 10.28
5/4/2022 4:45:00 PM 12.4 54.32 0.045 7.18 1.5 10.27
5/4/2022 5:00:00 PM 12.38 54.284 0.045 7.18 1.96 10.25
5/4/2022 5:15:00 PM 12.32 54.176 0.045 7.18 1.62 10.24
5/4/2022 5:30:00 PM 12.26 54.068 0.045 7.18 1.64 10.26
5/4/2022 5:45:00 PM 12.16 53.888 0.046 7.17 12.86 10.24
5/4/2022 6:00:00 PM 12.1 53.78 0.046 7.16 2.17 10.24
5/4/2022 6:15:00 PM 12.03 53.654 0.046 7.15 1.59 10.24
5/4/2022 6:30:00 PM 11.96 53.528 0.046 7.15 1.44 10.24
5/4/2022 6:45:00 PM 11.87 53.366 0.046 7.13 1.56 10.23
5/4/2022 7:00:00 PM 11.82 53.276 0.046 7.14 1.42 10.24
5/4/2022 7:15:00 PM 11.74 53.132 0.046 7.12 1.32 10.23
5/4/2022 7:30:00 PM 11.67 53.006 0.046 7.1 1.36 10.21
5/4/2022 7:45:00 PM 11.58 52.844 0.046 7.1 1.36 10.2
5/4/2022 8:00:00 PM 11.51 52.718 0.046 7.08 1.36 10.19
5/4/2022 8:15:00 PM 11.43 52.574 0.046 7.07 1.34 10.18
5/4/2022 8:30:00 PM 11.35 52.43 0.046 7.06 1.26 10.18
5/4/2022 8:45:00 PM 11.28 52.304 0.046 7.04 1.46 10.17
5/4/2022 9:00:00 PM 11.21 52.178 0.046 7.04 1.46 10.18
5/4/2022 9:15:00 PM 11.14 52.052 0.046 7.04 1.36 10.19
5/4/2022 9:30:00 PM 11.09 51.962 0.046 7.03 1.21 10.2
5/4/2022 9:45:00 PM 11.02 51.836 0.046 7.03 1.99 10.21
5/4/2022 10:00:00 PM 10.98 51.764 0.046 7.03 1.49 10.22
5/4/2022 10:15:00 PM 10.92 51.656 0.046 7.02 1.44 10.24
5/4/2022 10:30:00 PM 10.88 51.584 0.046 7.01 1.38 10.25
5/4/2022 10:45:00 PM 10.83 51.494 0.046 7.01 1.38 10.26
5/4/2022 11:00:00 PM 10.79 51.422 0.046 7.01 1.33 10.27
5/4/2022 11:15:00 PM 10.74 51.332 0.046 7.01 1.53 10.29
5/4/2022 11:30:00 PM 10.7 51.26 0.046 7.01 1.71 10.3
5/4/2022 11:45:00 PM 10.66 51.188 0.047 7.01 1.62 10.31
5/5/2022 12:00:00 AM 10.62 51.116 0.047 7 1.56 10.32
5/5/2022 12:15:00 AM 10.58 51.044 0.047 7 1.47 10.33
5/5/2022 12:30:00 AM 10.54 50.972 0.047 7 1.6 10.33
5/5/2022 12:45:00 AM 10.51 50.918 0.047 7 1.32 10.35
5/5/2022 1:00:00 AM 10.46 50.828 0.047 7 1.44 10.35
5/5/2022 1:15:00 AM 10.39 50.702 0.047 7 1.57 10.36
5/5/2022 1:30:00 AM 10.32 50.576 0.047 6.99 1.63 10.39
5/5/2022 1:45:00 AM 10.25 50.45 0.047 6.99 2.33 10.4
5/5/2022 2:00:00 AM 10.18 50.324 0.047 6.99 1.51 10.4
5/5/2022 2:15:00 AM 10.1 50.18 0.047 6.99 1.6 10.43
5/5/2022 2:30:00 AM 10.04 50.072 0.047 6.98 1.4 10.43
5/5/2022 2:45:00 AM 9.96 49.928 0.047 6.98 1.45 10.46
5/5/2022 3:00:00 AM 9.9 49.82 0.047 6.98 1.44 10.48
5/5/2022 3:15:00 AM 9.84 49.712 0.047 6.98 1.74 10.5
5/5/2022 3:30:00 AM 9.76 49.568 0.047 6.98 1.61 10.51
5/5/2022 3:45:00 AM 9.69 49.442 0.047 6.97 1.48 10.52
5/5/2022 4:00:00 AM 9.65 49.37 0.047 6.98 1.43 10.53
5/5/2022 4:15:00 AM 9.6 49.28 0.047 6.97 1.6 10.55
5/5/2022 4:30:00 AM 9.55 49.19 0.047 6.97 1.8 10.56
5/5/2022 4:45:00 AM 9.49 49.082 0.047 6.98 1.44 10.58
5/5/2022 5:00:00 AM 9.43 48.974 0.047 6.98 1.54 10.6
5/5/2022 5:15:00 AM 9.4 48.92 0.047 6.98 1.48 10.6
5/5/2022 5:30:00 AM 9.36 48.848 0.047 6.99 1.41 10.62
5/5/2022 5:45:00 AM 9.32 48.776 0.047 6.98 1.57 10.63
5/5/2022 6:00:00 AM 9.27 48.686 0.047 6.98 2.51 10.64
5/5/2022 6:15:00 AM 9.22 48.596 0.047 6.99 1.52 10.67
5/5/2022 6:30:00 AM 9.16 48.488 0.047 6.99 1.18 10.7
5/5/2022 6:45:00 AM 9.08 48.344 0.047 7 1.31 10.76
5/5/2022 7:00:00 AM 9.02 48.236 0.047 7.01 1.21 10.82
5/5/2022 7:15:00 AM 8.97 48.146 0.047 7.02 1.22 10.87
5/5/2022 7:30:00 AM 8.94 48.092 0.047 7.04 1.27 10.94
5/5/2022 7:45:00 AM 8.92 48.056 0.047 7.05 1.25 11
5/5/2022 8:00:00 AM 8.91 48.038 0.047 7.07 1.31 11.04
5/5/2022 8:15:00 AM 8.89 48.002 0.047 7.08 1.35 11.07
5/5/2022 8:30:00 AM 8.89 48.002 0.047 7.08 1.22 11.09
5/5/2022 8:45:00 AM 8.92 48.056 0.047 7.09 1.24 11.09
5/5/2022 9:00:00 AM 8.99 48.182 0.046 7.1 1.32 11.11
5/5/2022 9:15:00 AM 9.1 48.38 0.046 7.12 1.2 11.12
5/5/2022 9:30:00 AM 9.24 48.632 0.046 7.13 0.98 11.13
5/5/2022 9:45:00 AM 9.36 48.848 0.046 7.13 1.16 11.11
5/5/2022 10:00:00 AM 9.52 49.136 0.046 7.15 1.08 11.09
5/5/2022 10:15:00 AM 9.7 49.46 0.046 7.16 1.18 11.08
5/5/2022 10:30:00 AM 9.86 49.748 0.046 7.16 1.14 11.05
5/5/2022 10:45:00 AM 9.99 49.982 0.046 7.17 0.99 11.04
5/5/2022 11:00:00 AM 10.13 50.234 0.046 7.18 1.06 11.02
5/5/2022 11:15:00 AM 10.3 50.54 0.046 7.18 1.08 10.99
5/5/2022 11:30:00 AM 10.5 50.9 0.046 7.18 1.12 10.95
5/5/2022 11:45:00 AM 10.73 51.314 0.046 7.19 1.11 10.91
5/5/2022 12:00:00 PM 10.93 51.674 0.046 7.19 1.09 10.86
5/5/2022 12:15:00 PM 11.09 51.962 0.046 7.2 1.08 10.83
5/5/2022 12:30:00 PM 11.38 52.484 0.046 7.2 1.1 10.78
5/5/2022 12:45:00 PM 11.58 52.844 0.046 7.21 1.09 10.73
5/5/2022 1:00:00 PM 11.88 53.384 0.046 7.22 1.16 10.7
5/5/2022 1:15:00 PM 12.14 53.852 0.046 7.21 1.03 10.62
5/5/2022 1:30:00 PM 12.39 54.302 0.046 7.21 1.12 10.58
5/5/2022 1:45:00 PM 12.67 54.806 0.046 7.23 1.6 10.52
5/5/2022 2:00:00 PM 12.94 55.292 0.045 7.22 1.35 10.47
5/5/2022 2:15:00 PM 13.18 55.724 0.045 7.23 1.05 10.4
5/5/2022 2:30:00 PM 13.4 56.12 0.045 7.22 2.95 10.33
5/5/2022 2:45:00 PM 13.53 56.354 0.045 7.23 1.08 10.28
5/5/2022 3:00:00 PM 13.75 56.75 0.045 7.25 1.07 10.24
5/5/2022 3:15:00 PM 13.96 57.128 0.045 7.25 1.06 10.17
5/5/2022 3:30:00 PM 14.08 57.344 0.045 7.24 1.1 10.13
5/5/2022 3:45:00 PM 14.19 57.542 0.045 7.24 1.09 10.09
5/5/2022 4:00:00 PM 14.18 57.524 0.045 7.25 0.98 10.06
5/5/2022 4:15:00 PM 14.18 57.524 0.045 7.24 1.13 10.03
5/5/2022 4:30:00 PM 14.19 57.542 0.045 7.24 1.1 10
5/5/2022 4:45:00 PM 14.18 57.524 0.045 7.24 1.07 9.98
5/5/2022 5:00:00 PM 14.06 57.308 0.045 7.24 1.09 9.98
5/5/2022 5:15:00 PM 13.98 57.164 0.045 7.22 1.3 9.96
5/5/2022 5:30:00 PM 13.88 56.984 0.045 7.22 1.2 9.96
5/5/2022 5:45:00 PM 13.79 56.822 0.045 7.21 1.18 9.96
5/5/2022 6:00:00 PM 13.68 56.624 0.045 7.21 1.44 9.97
5/5/2022 6:15:00 PM 13.58 56.444 0.045 7.2 1.18 9.97
5/5/2022 6:30:00 PM 13.51 56.318 0.045 7.19 1.31 9.96
5/5/2022 6:45:00 PM 13.41 56.138 0.046 7.18 1.24 9.96
5/5/2022 7:00:00 PM 13.28 55.904 0.046 7.16 1.32 9.95
5/5/2022 7:15:00 PM 13.16 55.688 0.046 7.15 1.1 9.92
5/5/2022 7:30:00 PM 13.05 55.49 0.046 7.13 1.21 9.91
5/5/2022 7:45:00 PM 12.95 55.31 0.046 7.1 1.53 9.86
5/5/2022 8:00:00 PM 12.83 55.094 0.046 7.09 1.27 9.86
5/5/2022 8:15:00 PM 12.73 54.914 0.046 7.07 1.38 9.84
5/5/2022 8:30:00 PM 12.63 54.734 0.046 7.06 1.46 9.83
5/5/2022 8:45:00 PM 12.53 54.554 0.046 7.05 1.35 9.84
5/5/2022 9:00:00 PM 12.43 54.374 0.046 7.04 1.43 9.84
5/5/2022 9:15:00 PM 12.33 54.194 0.046 7.03 1.3 9.84
5/5/2022 9:30:00 PM 12.24 54.032 0.047 7.02 1.27 9.87
5/5/2022 9:45:00 PM 12.15 53.87 0.047 7.02 1.42 9.88
5/5/2022 10:00:00 PM 12.06 53.708 0.047 7.01 1.45 9.89
5/5/2022 10:15:00 PM 11.98 53.564 0.047 7.01 1.62 9.91
5/5/2022 10:30:00 PM 11.89 53.402 0.047 7.01 1.36 9.93
5/5/2022 10:45:00 PM 11.81 53.258 0.047 7.01 1.62 9.95
5/5/2022 11:00:00 PM 11.73 53.114 0.047 7 1.41 9.96
5/5/2022 11:15:00 PM 11.65 52.97 0.047 7 1.57 9.98
5/5/2022 11:30:00 PM 11.57 52.826 0.047 7 1.8 10
5/5/2022 11:45:00 PM 11.5 52.7 0.047 7 1.58 10.01
5/6/2022 12:00:00 AM 11.45 52.61 0.047 6.99 1.36 10.02
5/6/2022 12:15:00 AM 11.39 52.502 0.047 7 1.56 10.04
5/6/2022 12:30:00 AM 11.32 52.376 0.047 6.99 1.83 10.05
5/6/2022 12:45:00 AM 11.27 52.286 0.047 7 1.53 10.06
5/6/2022 1:00:00 AM 11.21 52.178 0.047 6.99 1.48 10.08
5/6/2022 1:15:00 AM 11.15 52.07 0.047 7 1.56 10.09
5/6/2022 1:30:00 AM 11.11 51.998 0.047 6.99 1.5 10.11
5/6/2022 1:45:00 AM 11.05 51.89 0.047 6.99 1.67 10.13
5/6/2022 2:00:00 AM 11.01 51.818 0.047 6.99 1.87 10.13
5/6/2022 2:15:00 AM 10.96 51.728 0.047 6.98 1.68 10.14
5/6/2022 2:30:00 AM 10.9 51.62 0.047 6.99 1.61 10.16
5/6/2022 2:45:00 AM 10.85 51.53 0.047 6.99 1.66 10.17
5/6/2022 3:00:00 AM 10.8 51.44 0.047 6.99 1.57 10.18
5/6/2022 3:15:00 AM 10.75 51.35 0.047 6.99 1.59 10.19
5/6/2022 3:30:00 AM 10.7 51.26 0.047 6.99 1.67 10.22
5/6/2022 3:45:00 AM 10.65 51.17 0.047 6.99 1.79 10.23
5/6/2022 4:00:00 AM 10.6 51.08 0.047 7 1.74 10.23
5/6/2022 4:15:00 AM 10.55 50.99 0.049 7 1.71 10.23
5/6/2022 4:30:00 AM 10.5 50.9 0.049 7 1.8 10.25
5/6/2022 4:45:00 AM 10.45 50.81 0.048 7 1.97 10.27
5/6/2022 5:00:00 AM 10.4 50.72 0.049 7 1.94 10.28
5/6/2022 5:15:00 AM 10.36 50.648 0.047 7.01 1.46 10.29
5/6/2022 5:30:00 AM 10.31 50.558 0.049 7 1.58 10.3
5/6/2022 5:45:00 AM 10.27 50.486 0.049 7 1.89 10.31
5/6/2022 6:00:00 AM 10.21 50.378 0.049 7 1.74 10.33
5/6/2022 6:15:00 AM 10.17 50.306 0.049 7.01 1.81 10.34
5/6/2022 6:30:00 AM 10.12 50.216 0.049 7.01 1.73 10.37
5/6/2022 6:45:00 AM 10.08 50.144 0.049 7.01 1.65 10.38
5/6/2022 7:00:00 AM 10.04 50.072 0.049 7.01 1.54 10.41
5/6/2022 7:15:00 AM 10 50 0.049 7.02 1.46 10.42
5/6/2022 7:30:00 AM 9.97 49.946 0.048 7.02 1.53 10.46
5/6/2022 7:45:00 AM 9.95 49.91 0.048 7.04 1.54 10.51
5/6/2022 8:00:00 AM 9.93 49.874 0.049 7.04 1.55 10.54
5/6/2022 8:15:00 AM 9.91 49.838 0.048 7.05 1.51 10.58
5/6/2022 8:30:00 AM 9.89 49.802 0.048 7.06 1.36 10.59
5/6/2022 8:45:00 AM 9.88 49.784 0.048 7.07 1.4 10.61
5/6/2022 9:00:00 AM 9.86 49.748 0.048 7.07 1.49 10.61
5/6/2022 9:15:00 AM 9.85 49.73 0.048 7.07 1.44 10.63
5/6/2022 9:30:00 AM 9.84 49.712 0.048 7.08 1.46 10.65
5/6/2022 9:45:00 AM 9.84 49.712 0.048 7.09 1.47 10.67
5/6/2022 10:00:00 AM 9.84 49.712 0.048 7.09 1.49 10.71
5/6/2022 10:15:00 AM 9.84 49.712 0.048 7.1 1.5 10.73
5/6/2022 10:30:00 AM 9.85 49.73 0.047 7.1 1.42 10.74
5/6/2022 10:45:00 AM 9.87 49.766 0.047 7.11 1.62 10.75
5/6/2022 11:00:00 AM 9.88 49.784 0.047 7.12 1.69 10.75
5/6/2022 11:15:00 AM 9.91 49.838 0.047 7.12 1.51 10.77
5/6/2022 11:30:00 AM 9.93 49.874 0.047 7.13 1.64 10.77
5/6/2022 11:45:00 AM 9.94 49.892 0.047 7.12 1.55 10.75
5/6/2022 12:00:00 PM 9.96 49.928 0.047 7.13 1.72 10.75
5/6/2022 12:15:00 PM 9.97 49.946 0.047 7.12 1.65 10.75
5/6/2022 12:30:00 PM 9.98 49.964 0.047 7.12 1.64 10.73
5/6/2022 12:45:00 PM 9.99 49.982 0.047 7.13 1.97 10.73
5/6/2022 1:00:00 PM 9.99 49.982 0.047 7.13 1.98 10.72
5/6/2022 1:15:00 PM 10.01 50.018 0.047 7.13 1.85 10.73
5/6/2022 1:30:00 PM 10.02 50.036 0.047 7.13 2.02 10.72
5/6/2022 1:45:00 PM 10.03 50.054 0.047 7.12 2.2 10.71
5/6/2022 2:00:00 PM 10.05 50.09 0.047 7.13 2.19 10.71
5/6/2022 2:15:00 PM 10.07 50.126 0.047 7.13 2.53 10.71
5/6/2022 2:30:00 PM 10.08 50.144 0.047 7.13 2.45 10.71
5/6/2022 2:45:00 PM 10.08 50.144 0.047 7.14 2.44 10.69
5/6/2022 3:00:00 PM 10.09 50.162 0.047 7.14 2.5 10.69
5/6/2022 3:15:00 PM 10.09 50.162 0.047 7.13 2.61 10.68
5/6/2022 3:30:00 PM 10.1 50.18 0.047 7.14 3.63 10.68
5/6/2022 3:45:00 PM 10.1 50.18 0.047 7.13 2.76 10.68
5/6/2022 4:00:00 PM 10.1 50.18 0.047 7.13 2.77 10.67
5/6/2022 4:15:00 PM 10.1 50.18 0.047 7.13 3.08 10.67
5/6/2022 4:30:00 PM 10.1 50.18 0.048 7.13 3.19 10.66
5/6/2022 4:45:00 PM 10.1 50.18 0.048 7.13 2.71 10.65
5/6/2022 5:00:00 PM 10.09 50.162 0.048 7.12 2.93 10.64
5/6/2022 5:15:00 PM 10.08 50.144 0.047 7.12 3.24 10.63
5/6/2022 5:30:00 PM 10.08 50.144 0.048 7.12 3.62 10.62
5/6/2022 5:45:00 PM 10.06 50.108 0.048 7.11 3.55 10.6
5/6/2022 6:00:00 PM 10.05 50.09 0.048 7.1 2.9 10.59
5/6/2022 6:15:00 PM 10.03 50.054 0.048 7.1 3.12 10.57
5/6/2022 6:30:00 PM 10.01 50.018 0.048 7.09 3.01 10.55
5/6/2022 6:45:00 PM 9.99 49.982 0.048 7.08 2.91 10.54
5/6/2022 7:00:00 PM 9.97 49.946 0.048 7.08 3.18 10.54
5/6/2022 7:15:00 PM 9.95 49.91 0.048 7.07 3.15 10.53
5/6/2022 7:30:00 PM 9.93 49.874 0.048 7.07 2.92 10.52
5/6/2022 7:45:00 PM 9.9 49.82 0.048 7.06 2.89 10.5
5/6/2022 8:00:00 PM 9.87 49.766 0.048 7.05 3.05 10.49
5/6/2022 8:15:00 PM 9.84 49.712 0.048 7.05 2.87 10.48
5/6/2022 8:30:00 PM 9.81 49.658 0.048 7.04 3.87 10.47
5/6/2022 8:45:00 PM 9.79 49.622 0.049 7.04 2.91 10.46
5/6/2022 9:00:00 PM 9.76 49.568 0.049 7.03 2.99 10.47
5/6/2022 9:15:00 PM 9.73 49.514 0.049 7.03 3.38 10.47
5/6/2022 9:30:00 PM 9.71 49.478 0.049 7.02 2.81 10.47
5/6/2022 9:45:00 PM 9.68 49.424 0.049 7.02 3.13 10.47
5/6/2022 10:00:00 PM 9.66 49.388 0.049 7.01 2.88 10.48
5/6/2022 10:15:00 PM 9.64 49.352 0.049 7.01 3.07 10.49
5/6/2022 10:30:00 PM 9.61 49.298 0.049 7.01 3.19 10.49
5/6/2022 10:45:00 PM 9.59 49.262 0.049 7 2.99 10.5
5/6/2022 11:00:00 PM 9.56 49.208 0.049 7 2.77 10.5
5/6/2022 11:15:00 PM 9.53 49.154 0.049 7.01 2.99 10.51
5/6/2022 11:30:00 PM 9.51 49.118 0.049 7 3.03 10.51
5/6/2022 11:45:00 PM 9.48 49.064 0.049 7 3.1 10.52
5/7/2022 12:00:00 AM 9.46 49.028 0.049 7 3 10.52
5/7/2022 12:15:00 AM 9.43 48.974 0.049 7 3.21 10.53
5/7/2022 12:30:00 AM 9.41 48.938 0.049 7 3.05 10.53
5/7/2022 12:45:00 AM 9.39 48.902 0.049 6.99 3.94 10.54
5/7/2022 1:00:00 AM 9.37 48.866 0.049 6.99 3.56 10.54
5/7/2022 1:15:00 AM 9.34 48.812 0.049 6.99 3.9 10.55
5/7/2022 1:30:00 AM 9.31 48.758 0.049 6.99 3.82 10.56
5/7/2022 1:45:00 AM 9.29 48.722 0.049 6.98 3.74 10.56
5/7/2022 2:00:00 AM 9.26 48.668 0.049 6.99 3.87 10.58
5/7/2022 2:15:00 AM 9.24 48.632 0.049 7 3.75 10.58
5/7/2022 2:30:00 AM 9.21 48.578 0.049 6.99 3.84 10.59
5/7/2022 2:45:00 AM 9.19 48.542 0.049 6.98 4.28 10.59
5/7/2022 3:00:00 AM 9.16 48.488 0.049 6.98 4.28 10.6
5/7/2022 3:15:00 AM 9.14 48.452 0.049 6.99 3.92 10.61
5/7/2022 3:30:00 AM 9.12 48.416 0.049 6.99 5.09 10.6
5/7/2022 3:45:00 AM 9.09 48.362 0.049 6.99 4.08 10.61
5/7/2022 4:00:00 AM 9.07 48.326 0.049 6.98 4.46 10.62
5/7/2022 4:15:00 AM 9.05 48.29 0.049 6.98 4.18 10.63
5/7/2022 4:30:00 AM 9.03 48.254 0.049 6.98 4.15 10.63
5/7/2022 4:45:00 AM 9.01 48.218 0.049 6.99 6.6 10.64
5/7/2022 5:00:00 AM 8.99 48.182 0.049 6.98 4.43 10.64
5/7/2022 5:15:00 AM 8.96 48.128 0.049 6.99 3.89 10.65
5/7/2022 5:30:00 AM 8.94 48.092 0.049 6.97 3.84 10.66
5/7/2022 5:45:00 AM 8.92 48.056 0.049 6.98 4.84 10.67
5/7/2022 6:00:00 AM 8.9 48.02 0.049 6.99 5.02 10.67
5/7/2022 6:15:00 AM 8.88 47.984 0.049 6.98 4.31 10.68
5/7/2022 6:30:00 AM 8.86 47.948 0.048 6.98 5.12 10.7
5/7/2022 6:45:00 AM 8.84 47.912 0.048 6.99 5.62 10.71
5/7/2022 7:00:00 AM 8.83 47.894 0.048 6.98 5.22 10.74
5/7/2022 7:15:00 AM 8.81 47.858 0.048 6.98 3.4 10.75
5/7/2022 7:30:00 AM 8.8 47.84 0.048 6.97 442.29 10.77
5/7/2022 7:45:00 AM 8.8 47.84 0.048 6.99 3.66 10.79
5/7/2022 8:00:00 AM 8.79 47.822 0.048 6.98 3.38 10.82
5/7/2022 8:15:00 AM 8.78 47.804 0.048 7 3.36 10.83
5/7/2022 8:30:00 AM 8.77 47.786 0.048 7 3.26 10.85
5/7/2022 8:45:00 AM 8.75 47.75 0.048 7 3.39 10.86
5/7/2022 9:00:00 AM 8.74 47.732 0.048 7 2.94 10.88
5/7/2022 9:15:00 AM 8.74 47.732 0.048 7.01 3.22 10.91
5/7/2022 9:30:00 AM 8.76 47.768 0.047 7.02 2.99 10.94
5/7/2022 9:45:00 AM 8.77 47.786 0.047 7.02 3.19 10.97
5/7/2022 10:00:00 AM 8.78 47.804 0.047 7.03 2.93 10.98
5/7/2022 10:15:00 AM 8.79 47.822 0.047 7.04 3.21 10.98
5/7/2022 10:30:00 AM 8.8 47.84